<?xml version="1.0" encoding="UTF-8" standalone="no" ?>
<gpx xmlns="http://www.topografix.com/GPX/1/1" xmlns:xsi="http://www.w3.org/2001/XMLSchema-instance" xsi:schemaLocation="http://www.topografix.com/GPX/1/1 http://www.topografix.com/GPX/1/1/gpx.xsd" version="1.1" creator="VisuGPX - https://www.visugpx.com">
  <metadata>
    <name>Boucle_Courmes_ColDeVence</name>
  </metadata>
  <trk>
    <name><![CDATA[Boucle_Courmes_ColDeVence_1]]></name>
    <trkseg>
      <trkpt lat="43.74359" lon="7.00887">
        <ele>632</ele>
        <time>2013-01-05T08:11:16Z</time>
      </trkpt>
      <trkpt lat="43.74359" lon="7.00887">
        <ele>632</ele>
        <time>2013-01-05T08:11:16Z</time>
      </trkpt>
      <trkpt lat="43.74379" lon="7.00912">
        <ele>625</ele>
        <time>2013-01-05T08:12:11Z</time>
      </trkpt>
      <trkpt lat="43.74386" lon="7.0091">
        <ele>624</ele>
        <time>2013-01-05T08:12:16Z</time>
      </trkpt>
      <trkpt lat="43.74391" lon="7.00933">
        <ele>623</ele>
        <time>2013-01-05T08:12:32Z</time>
      </trkpt>
      <trkpt lat="43.74388" lon="7.00942">
        <ele>624</ele>
        <time>2013-01-05T08:13:13Z</time>
      </trkpt>
      <trkpt lat="43.74382" lon="7.00953">
        <ele>624</ele>
        <time>2013-01-05T08:13:25Z</time>
      </trkpt>
      <trkpt lat="43.74369" lon="7.00967">
        <ele>626</ele>
        <time>2013-01-05T08:13:42Z</time>
      </trkpt>
      <trkpt lat="43.74366" lon="7.00974">
        <ele>626</ele>
        <time>2013-01-05T08:13:47Z</time>
      </trkpt>
      <trkpt lat="43.74357" lon="7.0099">
        <ele>628</ele>
        <time>2013-01-05T08:13:58Z</time>
      </trkpt>
      <trkpt lat="43.74351" lon="7.00997">
        <ele>630</ele>
        <time>2013-01-05T08:14:03Z</time>
      </trkpt>
      <trkpt lat="43.7434" lon="7.01008">
        <ele>635</ele>
        <time>2013-01-05T08:14:13Z</time>
      </trkpt>
      <trkpt lat="43.74335" lon="7.01013">
        <ele>636</ele>
        <time>2013-01-05T08:14:19Z</time>
      </trkpt>
      <trkpt lat="43.7433" lon="7.01017">
        <ele>636</ele>
        <time>2013-01-05T08:14:25Z</time>
      </trkpt>
      <trkpt lat="43.74321" lon="7.01029">
        <ele>638</ele>
        <time>2013-01-05T08:14:36Z</time>
      </trkpt>
      <trkpt lat="43.74317" lon="7.01035">
        <ele>640</ele>
        <time>2013-01-05T08:14:42Z</time>
      </trkpt>
      <trkpt lat="43.74308" lon="7.01047">
        <ele>642</ele>
        <time>2013-01-05T08:14:54Z</time>
      </trkpt>
      <trkpt lat="43.74303" lon="7.01053">
        <ele>644</ele>
        <time>2013-01-05T08:14:59Z</time>
      </trkpt>
      <trkpt lat="43.74294" lon="7.01065">
        <ele>647</ele>
        <time>2013-01-05T08:15:10Z</time>
      </trkpt>
      <trkpt lat="43.74291" lon="7.01071">
        <ele>647</ele>
        <time>2013-01-05T08:15:15Z</time>
      </trkpt>
      <trkpt lat="43.74284" lon="7.01084">
        <ele>650</ele>
        <time>2013-01-05T08:15:25Z</time>
      </trkpt>
      <trkpt lat="43.74279" lon="7.01092">
        <ele>652</ele>
        <time>2013-01-05T08:15:31Z</time>
      </trkpt>
      <trkpt lat="43.74269" lon="7.01105">
        <ele>657</ele>
        <time>2013-01-05T08:15:43Z</time>
      </trkpt>
      <trkpt lat="43.74263" lon="7.01111">
        <ele>657</ele>
        <time>2013-01-05T08:15:49Z</time>
      </trkpt>
      <trkpt lat="43.74251" lon="7.01119">
        <ele>659</ele>
        <time>2013-01-05T08:16:01Z</time>
      </trkpt>
      <trkpt lat="43.74246" lon="7.01121">
        <ele>660</ele>
        <time>2013-01-05T08:16:06Z</time>
      </trkpt>
      <trkpt lat="43.7424" lon="7.01125">
        <ele>661</ele>
        <time>2013-01-05T08:16:11Z</time>
      </trkpt>
      <trkpt lat="43.74229" lon="7.01135">
        <ele>661</ele>
        <time>2013-01-05T08:16:21Z</time>
      </trkpt>
      <trkpt lat="43.74223" lon="7.01139">
        <ele>663</ele>
        <time>2013-01-05T08:16:27Z</time>
      </trkpt>
      <trkpt lat="43.74211" lon="7.01146">
        <ele>664</ele>
        <time>2013-01-05T08:16:37Z</time>
      </trkpt>
      <trkpt lat="43.74205" lon="7.01148">
        <ele>665</ele>
        <time>2013-01-05T08:16:42Z</time>
      </trkpt>
      <trkpt lat="43.74194" lon="7.01155">
        <ele>666</ele>
        <time>2013-01-05T08:16:52Z</time>
      </trkpt>
      <trkpt lat="43.74189" lon="7.01158">
        <ele>667</ele>
        <time>2013-01-05T08:16:57Z</time>
      </trkpt>
      <trkpt lat="43.74178" lon="7.01167">
        <ele>669</ele>
        <time>2013-01-05T08:17:09Z</time>
      </trkpt>
      <trkpt lat="43.74173" lon="7.01172">
        <ele>670</ele>
        <time>2013-01-05T08:17:15Z</time>
      </trkpt>
      <trkpt lat="43.74162" lon="7.01183">
        <ele>674</ele>
        <time>2013-01-05T08:17:27Z</time>
      </trkpt>
      <trkpt lat="43.74156" lon="7.01188">
        <ele>675</ele>
        <time>2013-01-05T08:17:33Z</time>
      </trkpt>
      <trkpt lat="43.74151" lon="7.01194">
        <ele>677</ele>
        <time>2013-01-05T08:17:39Z</time>
      </trkpt>
      <trkpt lat="43.7414" lon="7.01202">
        <ele>679</ele>
        <time>2013-01-05T08:17:50Z</time>
      </trkpt>
      <trkpt lat="43.74134" lon="7.01202">
        <ele>680</ele>
        <time>2013-01-05T08:17:55Z</time>
      </trkpt>
      <trkpt lat="43.74124" lon="7.0119">
        <ele>682</ele>
        <time>2013-01-05T08:18:06Z</time>
      </trkpt>
      <trkpt lat="43.74122" lon="7.01182">
        <ele>684</ele>
        <time>2013-01-05T08:18:11Z</time>
      </trkpt>
      <trkpt lat="43.74119" lon="7.01166">
        <ele>685</ele>
        <time>2013-01-05T08:18:21Z</time>
      </trkpt>
      <trkpt lat="43.74113" lon="7.01166">
        <ele>687</ele>
        <time>2013-01-05T08:18:27Z</time>
      </trkpt>
      <trkpt lat="43.7411" lon="7.0118">
        <ele>687</ele>
        <time>2013-01-05T08:18:38Z</time>
      </trkpt>
      <trkpt lat="43.74111" lon="7.01188">
        <ele>687</ele>
        <time>2013-01-05T08:18:43Z</time>
      </trkpt>
      <trkpt lat="43.74112" lon="7.01202">
        <ele>688</ele>
        <time>2013-01-05T08:18:53Z</time>
      </trkpt>
      <trkpt lat="43.74113" lon="7.01209">
        <ele>689</ele>
        <time>2013-01-05T08:18:58Z</time>
      </trkpt>
      <trkpt lat="43.74115" lon="7.01217">
        <ele>690</ele>
        <time>2013-01-05T08:19:04Z</time>
      </trkpt>
      <trkpt lat="43.74123" lon="7.01232">
        <ele>690</ele>
        <time>2013-01-05T08:19:16Z</time>
      </trkpt>
      <trkpt lat="43.74127" lon="7.01235">
        <ele>690</ele>
        <time>2013-01-05T08:19:21Z</time>
      </trkpt>
      <trkpt lat="43.7414" lon="7.01243">
        <ele>691</ele>
        <time>2013-01-05T08:19:32Z</time>
      </trkpt>
      <trkpt lat="43.74147" lon="7.01248">
        <ele>693</ele>
        <time>2013-01-05T08:19:38Z</time>
      </trkpt>
      <trkpt lat="43.7416" lon="7.01261">
        <ele>698</ele>
        <time>2013-01-05T08:19:48Z</time>
      </trkpt>
      <trkpt lat="43.74165" lon="7.01267">
        <ele>698</ele>
        <time>2013-01-05T08:19:54Z</time>
      </trkpt>
      <trkpt lat="43.74175" lon="7.0128">
        <ele>699</ele>
        <time>2013-01-05T08:20:05Z</time>
      </trkpt>
      <trkpt lat="43.74175" lon="7.01289">
        <ele>700</ele>
        <time>2013-01-05T08:20:10Z</time>
      </trkpt>
      <trkpt lat="43.74163" lon="7.01295">
        <ele>702</ele>
        <time>2013-01-05T08:20:20Z</time>
      </trkpt>
      <trkpt lat="43.74156" lon="7.01297">
        <ele>703</ele>
        <time>2013-01-05T08:20:25Z</time>
      </trkpt>
      <trkpt lat="43.74149" lon="7.01298">
        <ele>704</ele>
        <time>2013-01-05T08:20:30Z</time>
      </trkpt>
      <trkpt lat="43.74136" lon="7.01303">
        <ele>705</ele>
        <time>2013-01-05T08:20:40Z</time>
      </trkpt>
      <trkpt lat="43.7413" lon="7.01306">
        <ele>705</ele>
        <time>2013-01-05T08:20:45Z</time>
      </trkpt>
      <trkpt lat="43.74117" lon="7.01309">
        <ele>708</ele>
        <time>2013-01-05T08:20:55Z</time>
      </trkpt>
      <trkpt lat="43.7411" lon="7.01304">
        <ele>709</ele>
        <time>2013-01-05T08:21:01Z</time>
      </trkpt>
      <trkpt lat="43.74094" lon="7.0129">
        <ele>709</ele>
        <time>2013-01-05T08:21:11Z</time>
      </trkpt>
      <trkpt lat="43.74084" lon="7.01282">
        <ele>709</ele>
        <time>2013-01-05T08:21:16Z</time>
      </trkpt>
      <trkpt lat="43.74065" lon="7.0127">
        <ele>709</ele>
        <time>2013-01-05T08:21:26Z</time>
      </trkpt>
      <trkpt lat="43.74057" lon="7.01266">
        <ele>709</ele>
        <time>2013-01-05T08:21:31Z</time>
      </trkpt>
      <trkpt lat="43.74039" lon="7.01258">
        <ele>709</ele>
        <time>2013-01-05T08:21:41Z</time>
      </trkpt>
      <trkpt lat="43.74031" lon="7.01257">
        <ele>709</ele>
        <time>2013-01-05T08:21:46Z</time>
      </trkpt>
      <trkpt lat="43.74023" lon="7.0126">
        <ele>710</ele>
        <time>2013-01-05T08:21:51Z</time>
      </trkpt>
      <trkpt lat="43.7401" lon="7.01269">
        <ele>711</ele>
        <time>2013-01-05T08:22:01Z</time>
      </trkpt>
      <trkpt lat="43.74003" lon="7.01275">
        <ele>712</ele>
        <time>2013-01-05T08:22:06Z</time>
      </trkpt>
      <trkpt lat="43.73988" lon="7.01285">
        <ele>713</ele>
        <time>2013-01-05T08:22:16Z</time>
      </trkpt>
      <trkpt lat="43.73981" lon="7.0129">
        <ele>713</ele>
        <time>2013-01-05T08:22:21Z</time>
      </trkpt>
      <trkpt lat="43.73966" lon="7.01289">
        <ele>714</ele>
        <time>2013-01-05T08:22:31Z</time>
      </trkpt>
      <trkpt lat="43.73958" lon="7.0129">
        <ele>717</ele>
        <time>2013-01-05T08:22:36Z</time>
      </trkpt>
      <trkpt lat="43.73946" lon="7.01299">
        <ele>720</ele>
        <time>2013-01-05T08:22:46Z</time>
      </trkpt>
      <trkpt lat="43.7394" lon="7.01303">
        <ele>721</ele>
        <time>2013-01-05T08:22:51Z</time>
      </trkpt>
      <trkpt lat="43.73928" lon="7.01305">
        <ele>721</ele>
        <time>2013-01-05T08:23:02Z</time>
      </trkpt>
      <trkpt lat="43.73922" lon="7.01307">
        <ele>722</ele>
        <time>2013-01-05T08:23:07Z</time>
      </trkpt>
      <trkpt lat="43.7391" lon="7.01308">
        <ele>722</ele>
        <time>2013-01-05T08:23:17Z</time>
      </trkpt>
      <trkpt lat="43.73904" lon="7.0131">
        <ele>722</ele>
        <time>2013-01-05T08:23:22Z</time>
      </trkpt>
      <trkpt lat="43.73898" lon="7.01311">
        <ele>724</ele>
        <time>2013-01-05T08:23:27Z</time>
      </trkpt>
      <trkpt lat="43.73885" lon="7.01312">
        <ele>725</ele>
        <time>2013-01-05T08:23:37Z</time>
      </trkpt>
      <trkpt lat="43.73878" lon="7.01311">
        <ele>727</ele>
        <time>2013-01-05T08:23:42Z</time>
      </trkpt>
      <trkpt lat="43.73866" lon="7.01318">
        <ele>730</ele>
        <time>2013-01-05T08:23:52Z</time>
      </trkpt>
      <trkpt lat="43.7386" lon="7.0132">
        <ele>731</ele>
        <time>2013-01-05T08:23:57Z</time>
      </trkpt>
      <trkpt lat="43.73849" lon="7.01327">
        <ele>733</ele>
        <time>2013-01-05T08:24:07Z</time>
      </trkpt>
      <trkpt lat="43.73844" lon="7.01332">
        <ele>734</ele>
        <time>2013-01-05T08:24:13Z</time>
      </trkpt>
      <trkpt lat="43.73833" lon="7.01342">
        <ele>736</ele>
        <time>2013-01-05T08:24:25Z</time>
      </trkpt>
      <trkpt lat="43.7383" lon="7.01348">
        <ele>736</ele>
        <time>2013-01-05T08:24:30Z</time>
      </trkpt>
      <trkpt lat="43.73824" lon="7.01364">
        <ele>737</ele>
        <time>2013-01-05T08:24:41Z</time>
      </trkpt>
      <trkpt lat="43.73822" lon="7.01372">
        <ele>738</ele>
        <time>2013-01-05T08:24:46Z</time>
      </trkpt>
      <trkpt lat="43.73822" lon="7.0138">
        <ele>738</ele>
        <time>2013-01-05T08:24:51Z</time>
      </trkpt>
      <trkpt lat="43.73821" lon="7.01396">
        <ele>741</ele>
        <time>2013-01-05T08:25:01Z</time>
      </trkpt>
      <trkpt lat="43.73822" lon="7.01404">
        <ele>742</ele>
        <time>2013-01-05T08:25:06Z</time>
      </trkpt>
      <trkpt lat="43.73815" lon="7.01419">
        <ele>744</ele>
        <time>2013-01-05T08:25:17Z</time>
      </trkpt>
      <trkpt lat="43.7381" lon="7.01426">
        <ele>745</ele>
        <time>2013-01-05T08:25:23Z</time>
      </trkpt>
      <trkpt lat="43.73802" lon="7.0144">
        <ele>747</ele>
        <time>2013-01-05T08:25:34Z</time>
      </trkpt>
      <trkpt lat="43.738" lon="7.01447">
        <ele>748</ele>
        <time>2013-01-05T08:25:39Z</time>
      </trkpt>
      <trkpt lat="43.738" lon="7.01463">
        <ele>749</ele>
        <time>2013-01-05T08:25:50Z</time>
      </trkpt>
      <trkpt lat="43.73799" lon="7.01471">
        <ele>750</ele>
        <time>2013-01-05T08:25:55Z</time>
      </trkpt>
      <trkpt lat="43.73789" lon="7.01477">
        <ele>753</ele>
        <time>2013-01-05T08:26:05Z</time>
      </trkpt>
      <trkpt lat="43.73783" lon="7.01473">
        <ele>754</ele>
        <time>2013-01-05T08:26:10Z</time>
      </trkpt>
      <trkpt lat="43.73777" lon="7.01469">
        <ele>754</ele>
        <time>2013-01-05T08:26:15Z</time>
      </trkpt>
      <trkpt lat="43.73764" lon="7.01461">
        <ele>755</ele>
        <time>2013-01-05T08:26:25Z</time>
      </trkpt>
      <trkpt lat="43.73756" lon="7.01459">
        <ele>755</ele>
        <time>2013-01-05T08:26:30Z</time>
      </trkpt>
      <trkpt lat="43.73742" lon="7.01452">
        <ele>757</ele>
        <time>2013-01-05T08:26:40Z</time>
      </trkpt>
      <trkpt lat="43.73735" lon="7.01448">
        <ele>758</ele>
        <time>2013-01-05T08:26:45Z</time>
      </trkpt>
      <trkpt lat="43.73721" lon="7.01441">
        <ele>759</ele>
        <time>2013-01-05T08:26:55Z</time>
      </trkpt>
      <trkpt lat="43.73713" lon="7.01439">
        <ele>760</ele>
        <time>2013-01-05T08:27:00Z</time>
      </trkpt>
      <trkpt lat="43.73701" lon="7.01441">
        <ele>762</ele>
        <time>2013-01-05T08:27:10Z</time>
      </trkpt>
      <trkpt lat="43.73696" lon="7.01447">
        <ele>763</ele>
        <time>2013-01-05T08:27:15Z</time>
      </trkpt>
      <trkpt lat="43.73686" lon="7.0146">
        <ele>765</ele>
        <time>2013-01-05T08:27:25Z</time>
      </trkpt>
      <trkpt lat="43.73679" lon="7.01464">
        <ele>765</ele>
        <time>2013-01-05T08:27:30Z</time>
      </trkpt>
      <trkpt lat="43.73672" lon="7.01467">
        <ele>767</ele>
        <time>2013-01-05T08:27:35Z</time>
      </trkpt>
      <trkpt lat="43.73662" lon="7.01472">
        <ele>769</ele>
        <time>2013-01-05T08:27:45Z</time>
      </trkpt>
      <trkpt lat="43.73655" lon="7.01474">
        <ele>769</ele>
        <time>2013-01-05T08:27:51Z</time>
      </trkpt>
      <trkpt lat="43.73643" lon="7.01476">
        <ele>769</ele>
        <time>2013-01-05T08:28:01Z</time>
      </trkpt>
      <trkpt lat="43.73637" lon="7.01471">
        <ele>769</ele>
        <time>2013-01-05T08:28:06Z</time>
      </trkpt>
      <trkpt lat="43.73629" lon="7.01459">
        <ele>775</ele>
        <time>2013-01-05T08:28:16Z</time>
      </trkpt>
      <trkpt lat="43.73624" lon="7.01459">
        <ele>776</ele>
        <time>2013-01-05T08:28:21Z</time>
      </trkpt>
      <trkpt lat="43.73611" lon="7.01458">
        <ele>777</ele>
        <time>2013-01-05T08:28:32Z</time>
      </trkpt>
      <trkpt lat="43.73605" lon="7.01459">
        <ele>777</ele>
        <time>2013-01-05T08:28:37Z</time>
      </trkpt>
      <trkpt lat="43.73593" lon="7.01468">
        <ele>777</ele>
        <time>2013-01-05T08:28:47Z</time>
      </trkpt>
      <trkpt lat="43.73587" lon="7.01471">
        <ele>777</ele>
        <time>2013-01-05T08:28:52Z</time>
      </trkpt>
      <trkpt lat="43.73581" lon="7.01474">
        <ele>777</ele>
        <time>2013-01-05T08:28:57Z</time>
      </trkpt>
      <trkpt lat="43.73567" lon="7.01473">
        <ele>777</ele>
        <time>2013-01-05T08:29:08Z</time>
      </trkpt>
      <trkpt lat="43.73561" lon="7.01468">
        <ele>777</ele>
        <time>2013-01-05T08:29:14Z</time>
      </trkpt>
      <trkpt lat="43.73547" lon="7.01466">
        <ele>777</ele>
        <time>2013-01-05T08:29:25Z</time>
      </trkpt>
      <trkpt lat="43.7354" lon="7.01468">
        <ele>777</ele>
        <time>2013-01-05T08:29:30Z</time>
      </trkpt>
      <trkpt lat="43.73525" lon="7.01473">
        <ele>779</ele>
        <time>2013-01-05T08:29:40Z</time>
      </trkpt>
      <trkpt lat="43.73519" lon="7.01476">
        <ele>784</ele>
        <time>2013-01-05T08:29:45Z</time>
      </trkpt>
      <trkpt lat="43.73507" lon="7.01484">
        <ele>787</ele>
        <time>2013-01-05T08:29:56Z</time>
      </trkpt>
      <trkpt lat="43.735" lon="7.01488">
        <ele>787</ele>
        <time>2013-01-05T08:30:01Z</time>
      </trkpt>
      <trkpt lat="43.73486" lon="7.01485">
        <ele>789</ele>
        <time>2013-01-05T08:30:12Z</time>
      </trkpt>
      <trkpt lat="43.7348" lon="7.0148">
        <ele>790</ele>
        <time>2013-01-05T08:30:18Z</time>
      </trkpt>
      <trkpt lat="43.73469" lon="7.01468">
        <ele>790</ele>
        <time>2013-01-05T08:30:28Z</time>
      </trkpt>
      <trkpt lat="43.73461" lon="7.01463">
        <ele>793</ele>
        <time>2013-01-05T08:30:34Z</time>
      </trkpt>
      <trkpt lat="43.73455" lon="7.01461">
        <ele>793</ele>
        <time>2013-01-05T08:30:40Z</time>
      </trkpt>
      <trkpt lat="43.7345" lon="7.01444">
        <ele>795</ele>
        <time>2013-01-05T08:30:50Z</time>
      </trkpt>
      <trkpt lat="43.73449" lon="7.01431">
        <ele>799</ele>
        <time>2013-01-05T08:30:55Z</time>
      </trkpt>
      <trkpt lat="43.73453" lon="7.01408">
        <ele>801</ele>
        <time>2013-01-05T08:31:05Z</time>
      </trkpt>
      <trkpt lat="43.73459" lon="7.01394">
        <ele>803</ele>
        <time>2013-01-05T08:31:10Z</time>
      </trkpt>
      <trkpt lat="43.73469" lon="7.01369">
        <ele>804</ele>
        <time>2013-01-05T08:31:20Z</time>
      </trkpt>
      <trkpt lat="43.73475" lon="7.0136">
        <ele>804</ele>
        <time>2013-01-05T08:31:25Z</time>
      </trkpt>
      <trkpt lat="43.73492" lon="7.01347">
        <ele>804</ele>
        <time>2013-01-05T08:31:35Z</time>
      </trkpt>
      <trkpt lat="43.735" lon="7.01339">
        <ele>804</ele>
        <time>2013-01-05T08:31:40Z</time>
      </trkpt>
      <trkpt lat="43.73528" lon="7.01317">
        <ele>804</ele>
        <time>2013-01-05T08:31:50Z</time>
      </trkpt>
      <trkpt lat="43.73525" lon="7.01297">
        <ele>804</ele>
        <time>2013-01-05T08:31:55Z</time>
      </trkpt>
      <trkpt lat="43.73517" lon="7.01291">
        <ele>804</ele>
        <time>2013-01-05T08:32:00Z</time>
      </trkpt>
      <trkpt lat="43.73502" lon="7.01282">
        <ele>804</ele>
        <time>2013-01-05T08:32:10Z</time>
      </trkpt>
      <trkpt lat="43.73495" lon="7.01277">
        <ele>804</ele>
        <time>2013-01-05T08:32:15Z</time>
      </trkpt>
      <trkpt lat="43.73482" lon="7.0126">
        <ele>807</ele>
        <time>2013-01-05T08:32:26Z</time>
      </trkpt>
      <trkpt lat="43.73478" lon="7.01252">
        <ele>808</ele>
        <time>2013-01-05T08:32:31Z</time>
      </trkpt>
      <trkpt lat="43.73468" lon="7.01229">
        <ele>811</ele>
        <time>2013-01-05T08:32:41Z</time>
      </trkpt>
      <trkpt lat="43.73465" lon="7.0122">
        <ele>811</ele>
        <time>2013-01-05T08:32:46Z</time>
      </trkpt>
      <trkpt lat="43.73454" lon="7.01205">
        <ele>813</ele>
        <time>2013-01-05T08:32:56Z</time>
      </trkpt>
      <trkpt lat="43.73449" lon="7.01199">
        <ele>813</ele>
        <time>2013-01-05T08:33:01Z</time>
      </trkpt>
      <trkpt lat="43.73443" lon="7.01181">
        <ele>813</ele>
        <time>2013-01-05T08:33:11Z</time>
      </trkpt>
      <trkpt lat="43.73436" lon="7.01172">
        <ele>813</ele>
        <time>2013-01-05T08:33:16Z</time>
      </trkpt>
      <trkpt lat="43.73428" lon="7.0116">
        <ele>813</ele>
        <time>2013-01-05T08:33:21Z</time>
      </trkpt>
      <trkpt lat="43.73416" lon="7.0114">
        <ele>813</ele>
        <time>2013-01-05T08:33:31Z</time>
      </trkpt>
      <trkpt lat="43.73409" lon="7.0114">
        <ele>813</ele>
        <time>2013-01-05T08:33:36Z</time>
      </trkpt>
      <trkpt lat="43.73395" lon="7.01145">
        <ele>813</ele>
        <time>2013-01-05T08:33:46Z</time>
      </trkpt>
      <trkpt lat="43.73391" lon="7.01154">
        <ele>813</ele>
        <time>2013-01-05T08:33:51Z</time>
      </trkpt>
      <trkpt lat="43.73382" lon="7.0117">
        <ele>813</ele>
        <time>2013-01-05T08:34:01Z</time>
      </trkpt>
      <trkpt lat="43.73374" lon="7.01177">
        <ele>813</ele>
        <time>2013-01-05T08:34:06Z</time>
      </trkpt>
      <trkpt lat="43.73359" lon="7.01184">
        <ele>813</ele>
        <time>2013-01-05T08:34:16Z</time>
      </trkpt>
      <trkpt lat="43.73351" lon="7.01188">
        <ele>813</ele>
        <time>2013-01-05T08:34:21Z</time>
      </trkpt>
      <trkpt lat="43.73347" lon="7.01208">
        <ele>813</ele>
        <time>2013-01-05T08:34:31Z</time>
      </trkpt>
      <trkpt lat="43.73351" lon="7.01218">
        <ele>813</ele>
        <time>2013-01-05T08:34:36Z</time>
      </trkpt>
      <trkpt lat="43.73354" lon="7.01227">
        <ele>813</ele>
        <time>2013-01-05T08:34:41Z</time>
      </trkpt>
      <trkpt lat="43.73353" lon="7.01253">
        <ele>813</ele>
        <time>2013-01-05T08:34:51Z</time>
      </trkpt>
      <trkpt lat="43.73347" lon="7.01263">
        <ele>813</ele>
        <time>2013-01-05T08:34:56Z</time>
      </trkpt>
      <trkpt lat="43.7333" lon="7.01274">
        <ele>815</ele>
        <time>2013-01-05T08:35:06Z</time>
      </trkpt>
      <trkpt lat="43.73323" lon="7.01279">
        <ele>816</ele>
        <time>2013-01-05T08:35:11Z</time>
      </trkpt>
      <trkpt lat="43.73306" lon="7.01292">
        <ele>818</ele>
        <time>2013-01-05T08:35:21Z</time>
      </trkpt>
      <trkpt lat="43.73299" lon="7.013">
        <ele>819</ele>
        <time>2013-01-05T08:35:26Z</time>
      </trkpt>
      <trkpt lat="43.73288" lon="7.01321">
        <ele>820</ele>
        <time>2013-01-05T08:35:36Z</time>
      </trkpt>
      <trkpt lat="43.7328" lon="7.01325">
        <ele>820</ele>
        <time>2013-01-05T08:35:41Z</time>
      </trkpt>
      <trkpt lat="43.73267" lon="7.0133">
        <ele>821</ele>
        <time>2013-01-05T08:35:51Z</time>
      </trkpt>
      <trkpt lat="43.7326" lon="7.01332">
        <ele>822</ele>
        <time>2013-01-05T08:35:56Z</time>
      </trkpt>
      <trkpt lat="43.73252" lon="7.01342">
        <ele>825</ele>
        <time>2013-01-05T08:36:06Z</time>
      </trkpt>
      <trkpt lat="43.7325" lon="7.0135">
        <ele>826</ele>
        <time>2013-01-05T08:36:11Z</time>
      </trkpt>
      <trkpt lat="43.73248" lon="7.01359">
        <ele>828</ele>
        <time>2013-01-05T08:36:16Z</time>
      </trkpt>
      <trkpt lat="43.73245" lon="7.01375">
        <ele>832</ele>
        <time>2013-01-05T08:36:26Z</time>
      </trkpt>
      <trkpt lat="43.73246" lon="7.01383">
        <ele>832</ele>
        <time>2013-01-05T08:36:31Z</time>
      </trkpt>
      <trkpt lat="43.73248" lon="7.01401">
        <ele>832</ele>
        <time>2013-01-05T08:36:41Z</time>
      </trkpt>
      <trkpt lat="43.73249" lon="7.01412">
        <ele>832</ele>
        <time>2013-01-05T08:36:46Z</time>
      </trkpt>
      <trkpt lat="43.73258" lon="7.01429">
        <ele>832</ele>
        <time>2013-01-05T08:36:58Z</time>
      </trkpt>
      <trkpt lat="43.73263" lon="7.01437">
        <ele>832</ele>
        <time>2013-01-05T08:37:03Z</time>
      </trkpt>
      <trkpt lat="43.73267" lon="7.01441">
        <ele>835</ele>
        <time>2013-01-05T08:37:38Z</time>
      </trkpt>
      <trkpt lat="43.73268" lon="7.0144">
        <ele>835</ele>
        <time>2013-01-05T08:37:45Z</time>
      </trkpt>
      <trkpt lat="43.7327" lon="7.0144">
        <ele>844</ele>
        <time>2013-01-05T08:38:07Z</time>
      </trkpt>
      <trkpt lat="43.73276" lon="7.01446">
        <ele>844</ele>
        <time>2013-01-05T08:38:12Z</time>
      </trkpt>
      <trkpt lat="43.73283" lon="7.01454">
        <ele>843</ele>
        <time>2013-01-05T08:38:18Z</time>
      </trkpt>
      <trkpt lat="43.73301" lon="7.01472">
        <ele>841</ele>
        <time>2013-01-05T08:38:28Z</time>
      </trkpt>
      <trkpt lat="43.73312" lon="7.01483">
        <ele>840</ele>
        <time>2013-01-05T08:38:33Z</time>
      </trkpt>
      <trkpt lat="43.73335" lon="7.01517">
        <ele>837</ele>
        <time>2013-01-05T08:38:43Z</time>
      </trkpt>
      <trkpt lat="43.73348" lon="7.01538">
        <ele>835</ele>
        <time>2013-01-05T08:38:48Z</time>
      </trkpt>
      <trkpt lat="43.73379" lon="7.01567">
        <ele>834</ele>
        <time>2013-01-05T08:38:58Z</time>
      </trkpt>
      <trkpt lat="43.73393" lon="7.01577">
        <ele>834</ele>
        <time>2013-01-05T08:39:03Z</time>
      </trkpt>
      <trkpt lat="43.73421" lon="7.01604">
        <ele>834</ele>
        <time>2013-01-05T08:39:13Z</time>
      </trkpt>
      <trkpt lat="43.73439" lon="7.01619">
        <ele>834</ele>
        <time>2013-01-05T08:39:18Z</time>
      </trkpt>
      <trkpt lat="43.73473" lon="7.01643">
        <ele>833</ele>
        <time>2013-01-05T08:39:28Z</time>
      </trkpt>
      <trkpt lat="43.73488" lon="7.01654">
        <ele>833</ele>
        <time>2013-01-05T08:39:33Z</time>
      </trkpt>
      <trkpt lat="43.735" lon="7.01668">
        <ele>833</ele>
        <time>2013-01-05T08:39:38Z</time>
      </trkpt>
      <trkpt lat="43.7352" lon="7.01694">
        <ele>833</ele>
        <time>2013-01-05T08:39:48Z</time>
      </trkpt>
      <trkpt lat="43.73529" lon="7.01706">
        <ele>833</ele>
        <time>2013-01-05T08:39:53Z</time>
      </trkpt>
      <trkpt lat="43.73542" lon="7.01753">
        <ele>833</ele>
        <time>2013-01-05T08:40:03Z</time>
      </trkpt>
      <trkpt lat="43.73556" lon="7.01782">
        <ele>833</ele>
        <time>2013-01-05T08:40:08Z</time>
      </trkpt>
      <trkpt lat="43.73596" lon="7.01766">
        <ele>830</ele>
        <time>2013-01-05T08:40:18Z</time>
      </trkpt>
      <trkpt lat="43.73607" lon="7.01776">
        <ele>830</ele>
        <time>2013-01-05T08:40:23Z</time>
      </trkpt>
      <trkpt lat="43.73633" lon="7.01794">
        <ele>830</ele>
        <time>2013-01-05T08:40:33Z</time>
      </trkpt>
      <trkpt lat="43.73656" lon="7.01797">
        <ele>827</ele>
        <time>2013-01-05T08:40:38Z</time>
      </trkpt>
      <trkpt lat="43.73697" lon="7.01793">
        <ele>827</ele>
        <time>2013-01-05T08:40:48Z</time>
      </trkpt>
      <trkpt lat="43.73716" lon="7.01787">
        <ele>828</ele>
        <time>2013-01-05T08:40:53Z</time>
      </trkpt>
      <trkpt lat="43.73728" lon="7.01784">
        <ele>833</ele>
        <time>2013-01-05T08:40:58Z</time>
      </trkpt>
      <trkpt lat="43.73751" lon="7.01787">
        <ele>836</ele>
        <time>2013-01-05T08:41:08Z</time>
      </trkpt>
      <trkpt lat="43.73763" lon="7.01787">
        <ele>838</ele>
        <time>2013-01-05T08:41:13Z</time>
      </trkpt>
      <trkpt lat="43.73784" lon="7.01784">
        <ele>841</ele>
        <time>2013-01-05T08:41:23Z</time>
      </trkpt>
      <trkpt lat="43.73798" lon="7.01784">
        <ele>841</ele>
        <time>2013-01-05T08:41:28Z</time>
      </trkpt>
      <trkpt lat="43.73817" lon="7.01776">
        <ele>841</ele>
        <time>2013-01-05T08:41:38Z</time>
      </trkpt>
      <trkpt lat="43.73831" lon="7.01777">
        <ele>841</ele>
        <time>2013-01-05T08:41:43Z</time>
      </trkpt>
      <trkpt lat="43.73856" lon="7.01775">
        <ele>841</ele>
        <time>2013-01-05T08:41:53Z</time>
      </trkpt>
      <trkpt lat="43.73869" lon="7.01778">
        <ele>841</ele>
        <time>2013-01-05T08:41:58Z</time>
      </trkpt>
      <trkpt lat="43.73888" lon="7.01776">
        <ele>841</ele>
        <time>2013-01-05T08:42:08Z</time>
      </trkpt>
      <trkpt lat="43.73894" lon="7.01774">
        <ele>841</ele>
        <time>2013-01-05T08:42:13Z</time>
      </trkpt>
      <trkpt lat="43.73901" lon="7.01775">
        <ele>842</ele>
        <time>2013-01-05T08:42:18Z</time>
      </trkpt>
      <trkpt lat="43.73906" lon="7.01772">
        <ele>844</ele>
        <time>2013-01-05T08:42:29Z</time>
      </trkpt>
      <trkpt lat="43.73907" lon="7.01768">
        <ele>846</ele>
        <time>2013-01-05T08:42:35Z</time>
      </trkpt>
      <trkpt lat="43.7392" lon="7.01767">
        <ele>846</ele>
        <time>2013-01-05T08:42:46Z</time>
      </trkpt>
      <trkpt lat="43.7393" lon="7.01765">
        <ele>846</ele>
        <time>2013-01-05T08:42:51Z</time>
      </trkpt>
      <trkpt lat="43.73955" lon="7.01765">
        <ele>846</ele>
        <time>2013-01-05T08:43:01Z</time>
      </trkpt>
      <trkpt lat="43.73968" lon="7.01769">
        <ele>846</ele>
        <time>2013-01-05T08:43:06Z</time>
      </trkpt>
      <trkpt lat="43.73989" lon="7.01776">
        <ele>846</ele>
        <time>2013-01-05T08:43:16Z</time>
      </trkpt>
      <trkpt lat="43.73997" lon="7.01779">
        <ele>846</ele>
        <time>2013-01-05T08:43:21Z</time>
      </trkpt>
      <trkpt lat="43.74015" lon="7.01784">
        <ele>846</ele>
        <time>2013-01-05T08:43:31Z</time>
      </trkpt>
      <trkpt lat="43.74022" lon="7.01785">
        <ele>846</ele>
        <time>2013-01-05T08:43:36Z</time>
      </trkpt>
      <trkpt lat="43.74039" lon="7.01792">
        <ele>848</ele>
        <time>2013-01-05T08:43:46Z</time>
      </trkpt>
      <trkpt lat="43.74046" lon="7.01796">
        <ele>849</ele>
        <time>2013-01-05T08:43:51Z</time>
      </trkpt>
      <trkpt lat="43.74055" lon="7.01798">
        <ele>849</ele>
        <time>2013-01-05T08:43:56Z</time>
      </trkpt>
      <trkpt lat="43.74075" lon="7.01803">
        <ele>849</ele>
        <time>2013-01-05T08:44:06Z</time>
      </trkpt>
      <trkpt lat="43.74085" lon="7.01809">
        <ele>849</ele>
        <time>2013-01-05T08:44:11Z</time>
      </trkpt>
      <trkpt lat="43.74108" lon="7.01815">
        <ele>850</ele>
        <time>2013-01-05T08:44:21Z</time>
      </trkpt>
      <trkpt lat="43.74119" lon="7.01814">
        <ele>852</ele>
        <time>2013-01-05T08:44:26Z</time>
      </trkpt>
      <trkpt lat="43.7414" lon="7.01809">
        <ele>852</ele>
        <time>2013-01-05T08:44:36Z</time>
      </trkpt>
      <trkpt lat="43.74151" lon="7.01804">
        <ele>852</ele>
        <time>2013-01-05T08:44:41Z</time>
      </trkpt>
      <trkpt lat="43.74171" lon="7.01797">
        <ele>852</ele>
        <time>2013-01-05T08:44:51Z</time>
      </trkpt>
      <trkpt lat="43.74182" lon="7.01794">
        <ele>852</ele>
        <time>2013-01-05T08:44:56Z</time>
      </trkpt>
      <trkpt lat="43.74202" lon="7.01789">
        <ele>852</ele>
        <time>2013-01-05T08:45:06Z</time>
      </trkpt>
      <trkpt lat="43.7421" lon="7.01786">
        <ele>854</ele>
        <time>2013-01-05T08:45:11Z</time>
      </trkpt>
      <trkpt lat="43.74218" lon="7.01784">
        <ele>855</ele>
        <time>2013-01-05T08:45:16Z</time>
      </trkpt>
      <trkpt lat="43.74233" lon="7.01779">
        <ele>855</ele>
        <time>2013-01-05T08:45:26Z</time>
      </trkpt>
      <trkpt lat="43.74241" lon="7.01775">
        <ele>855</ele>
        <time>2013-01-05T08:45:31Z</time>
      </trkpt>
      <trkpt lat="43.7426" lon="7.01771">
        <ele>857</ele>
        <time>2013-01-05T08:45:41Z</time>
      </trkpt>
      <trkpt lat="43.74271" lon="7.01769">
        <ele>857</ele>
        <time>2013-01-05T08:45:46Z</time>
      </trkpt>
      <trkpt lat="43.74294" lon="7.01763">
        <ele>857</ele>
        <time>2013-01-05T08:45:56Z</time>
      </trkpt>
      <trkpt lat="43.74305" lon="7.01759">
        <ele>858</ele>
        <time>2013-01-05T08:46:01Z</time>
      </trkpt>
      <trkpt lat="43.7433" lon="7.01745">
        <ele>859</ele>
        <time>2013-01-05T08:46:11Z</time>
      </trkpt>
      <trkpt lat="43.74341" lon="7.01741">
        <ele>860</ele>
        <time>2013-01-05T08:46:16Z</time>
      </trkpt>
      <trkpt lat="43.74355" lon="7.01723">
        <ele>860</ele>
        <time>2013-01-05T08:46:26Z</time>
      </trkpt>
      <trkpt lat="43.74363" lon="7.01715">
        <ele>861</ele>
        <time>2013-01-05T08:46:31Z</time>
      </trkpt>
      <trkpt lat="43.74371" lon="7.01708">
        <ele>862</ele>
        <time>2013-01-05T08:46:36Z</time>
      </trkpt>
      <trkpt lat="43.74387" lon="7.01693">
        <ele>865</ele>
        <time>2013-01-05T08:46:46Z</time>
      </trkpt>
      <trkpt lat="43.74397" lon="7.01685">
        <ele>866</ele>
        <time>2013-01-05T08:46:51Z</time>
      </trkpt>
      <trkpt lat="43.74415" lon="7.01672">
        <ele>866</ele>
        <time>2013-01-05T08:47:01Z</time>
      </trkpt>
      <trkpt lat="43.74424" lon="7.01663">
        <ele>866</ele>
        <time>2013-01-05T08:47:06Z</time>
      </trkpt>
      <trkpt lat="43.74439" lon="7.01649">
        <ele>867</ele>
        <time>2013-01-05T08:47:16Z</time>
      </trkpt>
      <trkpt lat="43.74447" lon="7.01638">
        <ele>868</ele>
        <time>2013-01-05T08:47:21Z</time>
      </trkpt>
      <trkpt lat="43.74466" lon="7.01619">
        <ele>868</ele>
        <time>2013-01-05T08:47:31Z</time>
      </trkpt>
      <trkpt lat="43.74473" lon="7.01611">
        <ele>868</ele>
        <time>2013-01-05T08:47:36Z</time>
      </trkpt>
      <trkpt lat="43.74486" lon="7.016">
        <ele>869</ele>
        <time>2013-01-05T08:47:46Z</time>
      </trkpt>
      <trkpt lat="43.74493" lon="7.01594">
        <ele>870</ele>
        <time>2013-01-05T08:47:51Z</time>
      </trkpt>
      <trkpt lat="43.74499" lon="7.01588">
        <ele>870</ele>
        <time>2013-01-05T08:47:56Z</time>
      </trkpt>
      <trkpt lat="43.74515" lon="7.01573">
        <ele>872</ele>
        <time>2013-01-05T08:48:06Z</time>
      </trkpt>
      <trkpt lat="43.74522" lon="7.01563">
        <ele>872</ele>
        <time>2013-01-05T08:48:11Z</time>
      </trkpt>
      <trkpt lat="43.74535" lon="7.01546">
        <ele>873</ele>
        <time>2013-01-05T08:48:21Z</time>
      </trkpt>
      <trkpt lat="43.74546" lon="7.01543">
        <ele>873</ele>
        <time>2013-01-05T08:48:26Z</time>
      </trkpt>
      <trkpt lat="43.74563" lon="7.0154">
        <ele>873</ele>
        <time>2013-01-05T08:48:36Z</time>
      </trkpt>
      <trkpt lat="43.74573" lon="7.01535">
        <ele>873</ele>
        <time>2013-01-05T08:48:41Z</time>
      </trkpt>
      <trkpt lat="43.74594" lon="7.01527">
        <ele>873</ele>
        <time>2013-01-05T08:48:51Z</time>
      </trkpt>
      <trkpt lat="43.74603" lon="7.01525">
        <ele>873</ele>
        <time>2013-01-05T08:48:56Z</time>
      </trkpt>
      <trkpt lat="43.7462" lon="7.01524">
        <ele>874</ele>
        <time>2013-01-05T08:49:06Z</time>
      </trkpt>
      <trkpt lat="43.74625" lon="7.01523">
        <ele>874</ele>
        <time>2013-01-05T08:49:11Z</time>
      </trkpt>
      <trkpt lat="43.74634" lon="7.01519">
        <ele>874</ele>
        <time>2013-01-05T08:49:17Z</time>
      </trkpt>
      <trkpt lat="43.74649" lon="7.01511">
        <ele>874</ele>
        <time>2013-01-05T08:49:27Z</time>
      </trkpt>
      <trkpt lat="43.74655" lon="7.01506">
        <ele>875</ele>
        <time>2013-01-05T08:49:32Z</time>
      </trkpt>
      <trkpt lat="43.74669" lon="7.01492">
        <ele>877</ele>
        <time>2013-01-05T08:49:43Z</time>
      </trkpt>
      <trkpt lat="43.74674" lon="7.01485">
        <ele>879</ele>
        <time>2013-01-05T08:49:48Z</time>
      </trkpt>
      <trkpt lat="43.74686" lon="7.0147">
        <ele>880</ele>
        <time>2013-01-05T08:49:58Z</time>
      </trkpt>
      <trkpt lat="43.74692" lon="7.0146">
        <ele>881</ele>
        <time>2013-01-05T08:50:03Z</time>
      </trkpt>
      <trkpt lat="43.74702" lon="7.01442">
        <ele>882</ele>
        <time>2013-01-05T08:50:13Z</time>
      </trkpt>
      <trkpt lat="43.74706" lon="7.01434">
        <ele>884</ele>
        <time>2013-01-05T08:50:19Z</time>
      </trkpt>
      <trkpt lat="43.74711" lon="7.01426">
        <ele>886</ele>
        <time>2013-01-05T08:50:38Z</time>
      </trkpt>
      <trkpt lat="43.74716" lon="7.01415">
        <ele>886</ele>
        <time>2013-01-05T08:50:43Z</time>
      </trkpt>
      <trkpt lat="43.74728" lon="7.01399">
        <ele>887</ele>
        <time>2013-01-05T08:50:53Z</time>
      </trkpt>
      <trkpt lat="43.74734" lon="7.01395">
        <ele>887</ele>
        <time>2013-01-05T08:50:59Z</time>
      </trkpt>
      <trkpt lat="43.74733" lon="7.01397">
        <ele>887</ele>
        <time>2013-01-05T08:51:27Z</time>
      </trkpt>
      <trkpt lat="43.74744" lon="7.01399">
        <ele>887</ele>
        <time>2013-01-05T08:51:42Z</time>
      </trkpt>
      <trkpt lat="43.74751" lon="7.01407">
        <ele>887</ele>
        <time>2013-01-05T08:51:47Z</time>
      </trkpt>
      <trkpt lat="43.74768" lon="7.01429">
        <ele>887</ele>
        <time>2013-01-05T08:51:57Z</time>
      </trkpt>
      <trkpt lat="43.74775" lon="7.01439">
        <ele>887</ele>
        <time>2013-01-05T08:52:02Z</time>
      </trkpt>
      <trkpt lat="43.74789" lon="7.01454">
        <ele>887</ele>
        <time>2013-01-05T08:52:12Z</time>
      </trkpt>
      <trkpt lat="43.74798" lon="7.0146">
        <ele>887</ele>
        <time>2013-01-05T08:52:17Z</time>
      </trkpt>
      <trkpt lat="43.74816" lon="7.01483">
        <ele>887</ele>
        <time>2013-01-05T08:52:27Z</time>
      </trkpt>
      <trkpt lat="43.74824" lon="7.01497">
        <ele>887</ele>
        <time>2013-01-05T08:52:32Z</time>
      </trkpt>
      <trkpt lat="43.7484" lon="7.01522">
        <ele>887</ele>
        <time>2013-01-05T08:52:42Z</time>
      </trkpt>
      <trkpt lat="43.74847" lon="7.01533">
        <ele>887</ele>
        <time>2013-01-05T08:52:47Z</time>
      </trkpt>
      <trkpt lat="43.74852" lon="7.01543">
        <ele>887</ele>
        <time>2013-01-05T08:52:52Z</time>
      </trkpt>
      <trkpt lat="43.74864" lon="7.01557">
        <ele>887</ele>
        <time>2013-01-05T08:53:02Z</time>
      </trkpt>
      <trkpt lat="43.7487" lon="7.01563">
        <ele>887</ele>
        <time>2013-01-05T08:53:07Z</time>
      </trkpt>
      <trkpt lat="43.74886" lon="7.01573">
        <ele>888</ele>
        <time>2013-01-05T08:53:19Z</time>
      </trkpt>
      <trkpt lat="43.74893" lon="7.01574">
        <ele>888</ele>
        <time>2013-01-05T08:53:24Z</time>
      </trkpt>
      <trkpt lat="43.74907" lon="7.0158">
        <ele>890</ele>
        <time>2013-01-05T08:53:34Z</time>
      </trkpt>
      <trkpt lat="43.74914" lon="7.01581">
        <ele>891</ele>
        <time>2013-01-05T08:53:39Z</time>
      </trkpt>
      <trkpt lat="43.74929" lon="7.01587">
        <ele>894</ele>
        <time>2013-01-05T08:53:50Z</time>
      </trkpt>
      <trkpt lat="43.74935" lon="7.0159">
        <ele>895</ele>
        <time>2013-01-05T08:53:55Z</time>
      </trkpt>
      <trkpt lat="43.7495" lon="7.01596">
        <ele>898</ele>
        <time>2013-01-05T08:54:07Z</time>
      </trkpt>
      <trkpt lat="43.74954" lon="7.016">
        <ele>901</ele>
        <time>2013-01-05T08:54:18Z</time>
      </trkpt>
      <trkpt lat="43.74957" lon="7.01602">
        <ele>902</ele>
        <time>2013-01-05T08:54:24Z</time>
      </trkpt>
      <trkpt lat="43.74966" lon="7.01605">
        <ele>907</ele>
        <time>2013-01-05T08:54:36Z</time>
      </trkpt>
      <trkpt lat="43.74971" lon="7.01606">
        <ele>908</ele>
        <time>2013-01-05T08:54:42Z</time>
      </trkpt>
      <trkpt lat="43.74977" lon="7.01609">
        <ele>910</ele>
        <time>2013-01-05T08:54:53Z</time>
      </trkpt>
      <trkpt lat="43.74982" lon="7.01607">
        <ele>911</ele>
        <time>2013-01-05T08:54:59Z</time>
      </trkpt>
      <trkpt lat="43.74989" lon="7.0161">
        <ele>913</ele>
        <time>2013-01-05T08:55:11Z</time>
      </trkpt>
      <trkpt lat="43.74992" lon="7.0161">
        <ele>914</ele>
        <time>2013-01-05T08:55:19Z</time>
      </trkpt>
      <trkpt lat="43.75005" lon="7.01613">
        <ele>915</ele>
        <time>2013-01-05T08:55:29Z</time>
      </trkpt>
      <trkpt lat="43.75011" lon="7.01616">
        <ele>916</ele>
        <time>2013-01-05T08:55:36Z</time>
      </trkpt>
      <trkpt lat="43.75021" lon="7.01616">
        <ele>916</ele>
        <time>2013-01-05T08:55:47Z</time>
      </trkpt>
      <trkpt lat="43.75027" lon="7.01617">
        <ele>916</ele>
        <time>2013-01-05T08:55:52Z</time>
      </trkpt>
      <trkpt lat="43.75035" lon="7.01618">
        <ele>916</ele>
        <time>2013-01-05T08:55:57Z</time>
      </trkpt>
      <trkpt lat="43.75047" lon="7.0162">
        <ele>918</ele>
        <time>2013-01-05T08:56:07Z</time>
      </trkpt>
      <trkpt lat="43.75053" lon="7.01621">
        <ele>918</ele>
        <time>2013-01-05T08:56:12Z</time>
      </trkpt>
      <trkpt lat="43.75066" lon="7.01624">
        <ele>921</ele>
        <time>2013-01-05T08:56:22Z</time>
      </trkpt>
      <trkpt lat="43.75072" lon="7.01625">
        <ele>923</ele>
        <time>2013-01-05T08:56:28Z</time>
      </trkpt>
      <trkpt lat="43.75079" lon="7.01627">
        <ele>925</ele>
        <time>2013-01-05T08:56:40Z</time>
      </trkpt>
      <trkpt lat="43.75084" lon="7.01626">
        <ele>927</ele>
        <time>2013-01-05T08:56:46Z</time>
      </trkpt>
      <trkpt lat="43.75092" lon="7.0162">
        <ele>928</ele>
        <time>2013-01-05T08:56:58Z</time>
      </trkpt>
      <trkpt lat="43.75094" lon="7.01614">
        <ele>928</ele>
        <time>2013-01-05T08:57:04Z</time>
      </trkpt>
      <trkpt lat="43.75101" lon="7.01607">
        <ele>932</ele>
        <time>2013-01-05T08:57:17Z</time>
      </trkpt>
      <trkpt lat="43.75102" lon="7.01604">
        <ele>932</ele>
        <time>2013-01-05T08:57:24Z</time>
      </trkpt>
      <trkpt lat="43.75105" lon="7.01603">
        <ele>932</ele>
        <time>2013-01-05T08:58:00Z</time>
      </trkpt>
      <trkpt lat="43.75106" lon="7.01602">
        <ele>932</ele>
        <time>2013-01-05T08:58:37Z</time>
      </trkpt>
      <trkpt lat="43.75104" lon="7.01604">
        <ele>932</ele>
        <time>2013-01-05T08:58:52Z</time>
      </trkpt>
      <trkpt lat="43.75101" lon="7.01607">
        <ele>932</ele>
        <time>2013-01-05T08:59:16Z</time>
      </trkpt>
      <trkpt lat="43.75102" lon="7.01606">
        <ele>932</ele>
        <time>2013-01-05T08:59:21Z</time>
      </trkpt>
      <trkpt lat="43.75105" lon="7.01602">
        <ele>932</ele>
        <time>2013-01-05T09:00:08Z</time>
      </trkpt>
      <trkpt lat="43.75107" lon="7.01603">
        <ele>932</ele>
        <time>2013-01-05T09:00:26Z</time>
      </trkpt>
      <trkpt lat="43.75119" lon="7.01607">
        <ele>932</ele>
        <time>2013-01-05T09:00:37Z</time>
      </trkpt>
      <trkpt lat="43.75126" lon="7.0161">
        <ele>932</ele>
        <time>2013-01-05T09:00:42Z</time>
      </trkpt>
      <trkpt lat="43.75147" lon="7.0162">
        <ele>932</ele>
        <time>2013-01-05T09:00:52Z</time>
      </trkpt>
      <trkpt lat="43.75161" lon="7.01626">
        <ele>932</ele>
        <time>2013-01-05T09:00:57Z</time>
      </trkpt>
      <trkpt lat="43.75187" lon="7.01647">
        <ele>932</ele>
        <time>2013-01-05T09:01:07Z</time>
      </trkpt>
      <trkpt lat="43.75199" lon="7.01661">
        <ele>932</ele>
        <time>2013-01-05T09:01:12Z</time>
      </trkpt>
      <trkpt lat="43.75211" lon="7.01674">
        <ele>932</ele>
        <time>2013-01-05T09:01:17Z</time>
      </trkpt>
      <trkpt lat="43.75238" lon="7.01694">
        <ele>932</ele>
        <time>2013-01-05T09:01:27Z</time>
      </trkpt>
      <trkpt lat="43.75251" lon="7.01705">
        <ele>932</ele>
        <time>2013-01-05T09:01:32Z</time>
      </trkpt>
      <trkpt lat="43.75275" lon="7.01728">
        <ele>932</ele>
        <time>2013-01-05T09:01:42Z</time>
      </trkpt>
      <trkpt lat="43.75286" lon="7.01737">
        <ele>932</ele>
        <time>2013-01-05T09:01:47Z</time>
      </trkpt>
      <trkpt lat="43.75303" lon="7.0175">
        <ele>932</ele>
        <time>2013-01-05T09:01:57Z</time>
      </trkpt>
      <trkpt lat="43.75311" lon="7.01758">
        <ele>932</ele>
        <time>2013-01-05T09:02:02Z</time>
      </trkpt>
      <trkpt lat="43.75326" lon="7.0177">
        <ele>933</ele>
        <time>2013-01-05T09:02:13Z</time>
      </trkpt>
      <trkpt lat="43.75333" lon="7.01777">
        <ele>935</ele>
        <time>2013-01-05T09:02:18Z</time>
      </trkpt>
      <trkpt lat="43.75339" lon="7.01794">
        <ele>938</ele>
        <time>2013-01-05T09:02:28Z</time>
      </trkpt>
      <trkpt lat="43.75343" lon="7.01802">
        <ele>939</ele>
        <time>2013-01-05T09:02:33Z</time>
      </trkpt>
      <trkpt lat="43.75347" lon="7.0181">
        <ele>940</ele>
        <time>2013-01-05T09:02:38Z</time>
      </trkpt>
      <trkpt lat="43.75355" lon="7.01824">
        <ele>942</ele>
        <time>2013-01-05T09:02:49Z</time>
      </trkpt>
      <trkpt lat="43.75356" lon="7.01844">
        <ele>946</ele>
        <time>2013-01-05T09:03:43Z</time>
      </trkpt>
      <trkpt lat="43.75351" lon="7.01867">
        <ele>946</ele>
        <time>2013-01-05T09:03:53Z</time>
      </trkpt>
      <trkpt lat="43.75346" lon="7.0189">
        <ele>946</ele>
        <time>2013-01-05T09:03:58Z</time>
      </trkpt>
      <trkpt lat="43.75339" lon="7.01948">
        <ele>946</ele>
        <time>2013-01-05T09:04:08Z</time>
      </trkpt>
      <trkpt lat="43.75342" lon="7.01978">
        <ele>946</ele>
        <time>2013-01-05T09:04:13Z</time>
      </trkpt>
      <trkpt lat="43.75347" lon="7.02044">
        <ele>946</ele>
        <time>2013-01-05T09:04:23Z</time>
      </trkpt>
      <trkpt lat="43.75351" lon="7.02077">
        <ele>946</ele>
        <time>2013-01-05T09:04:28Z</time>
      </trkpt>
      <trkpt lat="43.75354" lon="7.02109">
        <ele>946</ele>
        <time>2013-01-05T09:04:33Z</time>
      </trkpt>
      <trkpt lat="43.7537" lon="7.02165">
        <ele>946</ele>
        <time>2013-01-05T09:04:43Z</time>
      </trkpt>
      <trkpt lat="43.75369" lon="7.02191">
        <ele>946</ele>
        <time>2013-01-05T09:04:48Z</time>
      </trkpt>
      <trkpt lat="43.7537" lon="7.0223">
        <ele>946</ele>
        <time>2013-01-05T09:04:58Z</time>
      </trkpt>
      <trkpt lat="43.7537" lon="7.02249">
        <ele>946</ele>
        <time>2013-01-05T09:05:03Z</time>
      </trkpt>
      <trkpt lat="43.75379" lon="7.02284">
        <ele>946</ele>
        <time>2013-01-05T09:05:13Z</time>
      </trkpt>
      <trkpt lat="43.75385" lon="7.023">
        <ele>946</ele>
        <time>2013-01-05T09:05:18Z</time>
      </trkpt>
      <trkpt lat="43.75398" lon="7.02336">
        <ele>946</ele>
        <time>2013-01-05T09:05:28Z</time>
      </trkpt>
      <trkpt lat="43.75409" lon="7.02351">
        <ele>946</ele>
        <time>2013-01-05T09:05:33Z</time>
      </trkpt>
      <trkpt lat="43.75428" lon="7.02384">
        <ele>946</ele>
        <time>2013-01-05T09:05:43Z</time>
      </trkpt>
      <trkpt lat="43.75438" lon="7.02401">
        <ele>946</ele>
        <time>2013-01-05T09:05:48Z</time>
      </trkpt>
      <trkpt lat="43.75452" lon="7.02416">
        <ele>946</ele>
        <time>2013-01-05T09:05:53Z</time>
      </trkpt>
      <trkpt lat="43.7548" lon="7.02439">
        <ele>946</ele>
        <time>2013-01-05T09:06:03Z</time>
      </trkpt>
      <trkpt lat="43.75492" lon="7.02452">
        <ele>946</ele>
        <time>2013-01-05T09:06:08Z</time>
      </trkpt>
      <trkpt lat="43.75528" lon="7.02467">
        <ele>947</ele>
        <time>2013-01-05T09:06:18Z</time>
      </trkpt>
      <trkpt lat="43.75545" lon="7.02481">
        <ele>947</ele>
        <time>2013-01-05T09:06:23Z</time>
      </trkpt>
      <trkpt lat="43.75586" lon="7.02496">
        <ele>947</ele>
        <time>2013-01-05T09:06:33Z</time>
      </trkpt>
      <trkpt lat="43.75605" lon="7.02515">
        <ele>947</ele>
        <time>2013-01-05T09:06:38Z</time>
      </trkpt>
      <trkpt lat="43.75625" lon="7.02537">
        <ele>943</ele>
      </trkpt>
      <trkpt lat="43.75654" lon="7.0255">
        <ele>946</ele>
        <time>2013-01-05T09:06:48Z</time>
      </trkpt>
      <trkpt lat="43.75674" lon="7.02566">
        <ele>945</ele>
        <time>2013-01-05T09:06:53Z</time>
      </trkpt>
      <trkpt lat="43.75712" lon="7.02604">
        <ele>943</ele>
        <time>2013-01-05T09:07:03Z</time>
      </trkpt>
      <trkpt lat="43.7573" lon="7.02627">
        <ele>942</ele>
        <time>2013-01-05T09:07:08Z</time>
      </trkpt>
      <trkpt lat="43.75755" lon="7.02674">
        <ele>942</ele>
        <time>2013-01-05T09:07:18Z</time>
      </trkpt>
      <trkpt lat="43.75764" lon="7.02701">
        <ele>942</ele>
        <time>2013-01-05T09:07:23Z</time>
      </trkpt>
      <trkpt lat="43.75761" lon="7.02725">
        <ele>942</ele>
        <time>2013-01-05T09:07:28Z</time>
      </trkpt>
      <trkpt lat="43.75739" lon="7.02732">
        <ele>940</ele>
      </trkpt>
      <trkpt lat="43.75725" lon="7.02743">
        <ele>940.4</ele>
      </trkpt>
      <trkpt lat="43.75714" lon="7.02768">
        <ele>939.6</ele>
      </trkpt>
      <trkpt lat="43.75714" lon="7.02831">
        <ele>938</ele>
        <time>2013-01-05T09:07:53Z</time>
      </trkpt>
      <trkpt lat="43.75709" lon="7.02866">
        <ele>938</ele>
        <time>2013-01-05T09:07:58Z</time>
      </trkpt>
      <trkpt lat="43.75699" lon="7.02906">
        <ele>938</ele>
        <time>2013-01-05T09:08:08Z</time>
      </trkpt>
      <trkpt lat="43.75687" lon="7.0291">
        <ele>938</ele>
        <time>2013-01-05T09:08:13Z</time>
      </trkpt>
      <trkpt lat="43.75666" lon="7.02916">
        <ele>938</ele>
        <time>2013-01-05T09:08:23Z</time>
      </trkpt>
      <trkpt lat="43.75657" lon="7.02917">
        <ele>938</ele>
        <time>2013-01-05T09:08:28Z</time>
      </trkpt>
      <trkpt lat="43.7564" lon="7.0293">
        <ele>939</ele>
        <time>2013-01-05T09:08:38Z</time>
      </trkpt>
      <trkpt lat="43.75632" lon="7.0294">
        <ele>940</ele>
        <time>2013-01-05T09:08:43Z</time>
      </trkpt>
      <trkpt lat="43.75624" lon="7.02951">
        <ele>940</ele>
        <time>2013-01-05T09:08:48Z</time>
      </trkpt>
      <trkpt lat="43.75606" lon="7.0297">
        <ele>941</ele>
        <time>2013-01-05T09:08:58Z</time>
      </trkpt>
      <trkpt lat="43.75603" lon="7.02984">
        <ele>941</ele>
        <time>2013-01-05T09:09:03Z</time>
      </trkpt>
      <trkpt lat="43.75612" lon="7.03007">
        <ele>942</ele>
        <time>2013-01-05T09:09:13Z</time>
      </trkpt>
      <trkpt lat="43.75619" lon="7.03021">
        <ele>942</ele>
        <time>2013-01-05T09:09:18Z</time>
      </trkpt>
      <trkpt lat="43.75636" lon="7.03053">
        <ele>943</ele>
        <time>2013-01-05T09:09:28Z</time>
      </trkpt>
      <trkpt lat="43.75641" lon="7.03072">
        <ele>943</ele>
        <time>2013-01-05T09:09:33Z</time>
      </trkpt>
      <trkpt lat="43.75641" lon="7.03112">
        <ele>944</ele>
        <time>2013-01-05T09:09:43Z</time>
      </trkpt>
      <trkpt lat="43.75639" lon="7.03133">
        <ele>945</ele>
        <time>2013-01-05T09:09:48Z</time>
      </trkpt>
      <trkpt lat="43.75645" lon="7.03177">
        <ele>946</ele>
        <time>2013-01-05T09:09:58Z</time>
      </trkpt>
      <trkpt lat="43.75653" lon="7.032">
        <ele>946</ele>
        <time>2013-01-05T09:10:03Z</time>
      </trkpt>
      <trkpt lat="43.75662" lon="7.03222">
        <ele>946</ele>
        <time>2013-01-05T09:10:08Z</time>
      </trkpt>
      <trkpt lat="43.75687" lon="7.03274">
        <ele>943.8</ele>
      </trkpt>
      <trkpt lat="43.75691" lon="7.03302">
        <ele>943.4</ele>
      </trkpt>
      <trkpt lat="43.75704" lon="7.03346">
        <ele>942.9</ele>
      </trkpt>
      <trkpt lat="43.75719" lon="7.03368">
        <ele>946</ele>
        <time>2013-01-05T09:10:38Z</time>
      </trkpt>
      <trkpt lat="43.75739" lon="7.03398">
        <ele>946</ele>
        <time>2013-01-05T09:10:48Z</time>
      </trkpt>
      <trkpt lat="43.75751" lon="7.03419">
        <ele>945</ele>
        <time>2013-01-05T09:10:53Z</time>
      </trkpt>
      <trkpt lat="43.75774" lon="7.0345">
        <ele>944</ele>
        <time>2013-01-05T09:11:03Z</time>
      </trkpt>
      <trkpt lat="43.75781" lon="7.03463">
        <ele>944</ele>
        <time>2013-01-05T09:11:08Z</time>
      </trkpt>
      <trkpt lat="43.75788" lon="7.03486">
        <ele>944</ele>
        <time>2013-01-05T09:11:18Z</time>
      </trkpt>
      <trkpt lat="43.75793" lon="7.03498">
        <ele>944</ele>
        <time>2013-01-05T09:11:23Z</time>
      </trkpt>
      <trkpt lat="43.75798" lon="7.03509">
        <ele>944</ele>
        <time>2013-01-05T09:11:28Z</time>
      </trkpt>
      <trkpt lat="43.75804" lon="7.03538">
        <ele>944</ele>
        <time>2013-01-05T09:11:38Z</time>
      </trkpt>
      <trkpt lat="43.75805" lon="7.03554">
        <ele>944</ele>
        <time>2013-01-05T09:11:43Z</time>
      </trkpt>
      <trkpt lat="43.75804" lon="7.03581">
        <ele>944</ele>
        <time>2013-01-05T09:11:53Z</time>
      </trkpt>
      <trkpt lat="43.75804" lon="7.03594">
        <ele>945</ele>
        <time>2013-01-05T09:11:58Z</time>
      </trkpt>
      <trkpt lat="43.75811" lon="7.03624">
        <ele>945</ele>
        <time>2013-01-05T09:12:08Z</time>
      </trkpt>
      <trkpt lat="43.75813" lon="7.03636">
        <ele>945</ele>
        <time>2013-01-05T09:12:13Z</time>
      </trkpt>
      <trkpt lat="43.75814" lon="7.03656">
        <ele>947</ele>
        <time>2013-01-05T09:12:23Z</time>
      </trkpt>
      <trkpt lat="43.75814" lon="7.03667">
        <ele>948</ele>
        <time>2013-01-05T09:12:28Z</time>
      </trkpt>
      <trkpt lat="43.75815" lon="7.03689">
        <ele>949</ele>
        <time>2013-01-05T09:12:38Z</time>
      </trkpt>
      <trkpt lat="43.75815" lon="7.037">
        <ele>950</ele>
        <time>2013-01-05T09:12:43Z</time>
      </trkpt>
      <trkpt lat="43.75816" lon="7.0371">
        <ele>951</ele>
        <time>2013-01-05T09:12:48Z</time>
      </trkpt>
      <trkpt lat="43.75821" lon="7.03727">
        <ele>953</ele>
        <time>2013-01-05T09:12:58Z</time>
      </trkpt>
      <trkpt lat="43.75825" lon="7.03735">
        <ele>954</ele>
        <time>2013-01-05T09:13:04Z</time>
      </trkpt>
      <trkpt lat="43.75828" lon="7.03752">
        <ele>956</ele>
        <time>2013-01-05T09:13:14Z</time>
      </trkpt>
      <trkpt lat="43.75829" lon="7.0376">
        <ele>957</ele>
        <time>2013-01-05T09:13:19Z</time>
      </trkpt>
      <trkpt lat="43.7583" lon="7.03776">
        <ele>958</ele>
        <time>2013-01-05T09:13:29Z</time>
      </trkpt>
      <trkpt lat="43.75829" lon="7.03785">
        <ele>959</ele>
        <time>2013-01-05T09:13:36Z</time>
      </trkpt>
      <trkpt lat="43.75827" lon="7.03802">
        <ele>959</ele>
        <time>2013-01-05T09:13:46Z</time>
      </trkpt>
      <trkpt lat="43.75828" lon="7.03811">
        <ele>960</ele>
        <time>2013-01-05T09:13:51Z</time>
      </trkpt>
      <trkpt lat="43.75828" lon="7.03833">
        <ele>960</ele>
        <time>2013-01-05T09:14:01Z</time>
      </trkpt>
      <trkpt lat="43.75824" lon="7.03847">
        <ele>960</ele>
        <time>2013-01-05T09:14:06Z</time>
      </trkpt>
      <trkpt lat="43.75815" lon="7.03871">
        <ele>960</ele>
        <time>2013-01-05T09:14:16Z</time>
      </trkpt>
      <trkpt lat="43.75818" lon="7.03885">
        <ele>960</ele>
        <time>2013-01-05T09:14:21Z</time>
      </trkpt>
      <trkpt lat="43.75822" lon="7.03897">
        <ele>960</ele>
        <time>2013-01-05T09:14:26Z</time>
      </trkpt>
      <trkpt lat="43.75813" lon="7.03935">
        <ele>960</ele>
        <time>2013-01-05T09:14:36Z</time>
      </trkpt>
      <trkpt lat="43.75811" lon="7.03954">
        <ele>960</ele>
        <time>2013-01-05T09:14:41Z</time>
      </trkpt>
      <trkpt lat="43.75821" lon="7.0398">
        <ele>960</ele>
        <time>2013-01-05T09:14:51Z</time>
      </trkpt>
      <trkpt lat="43.75827" lon="7.03994">
        <ele>960</ele>
        <time>2013-01-05T09:14:56Z</time>
      </trkpt>
      <trkpt lat="43.75839" lon="7.0402">
        <ele>960</ele>
        <time>2013-01-05T09:15:06Z</time>
      </trkpt>
      <trkpt lat="43.75848" lon="7.04027">
        <ele>960</ele>
        <time>2013-01-05T09:15:11Z</time>
      </trkpt>
      <trkpt lat="43.75856" lon="7.04051">
        <ele>960</ele>
        <time>2013-01-05T09:15:21Z</time>
      </trkpt>
      <trkpt lat="43.75861" lon="7.04065">
        <ele>960</ele>
        <time>2013-01-05T09:15:26Z</time>
      </trkpt>
      <trkpt lat="43.75862" lon="7.04091">
        <ele>960</ele>
        <time>2013-01-05T09:15:36Z</time>
      </trkpt>
      <trkpt lat="43.75856" lon="7.041">
        <ele>961</ele>
        <time>2013-01-05T09:15:41Z</time>
      </trkpt>
      <trkpt lat="43.75853" lon="7.0411">
        <ele>961</ele>
        <time>2013-01-05T09:15:46Z</time>
      </trkpt>
      <trkpt lat="43.7585" lon="7.04128">
        <ele>963</ele>
        <time>2013-01-05T09:15:56Z</time>
      </trkpt>
      <trkpt lat="43.75847" lon="7.04138">
        <ele>964</ele>
        <time>2013-01-05T09:16:01Z</time>
      </trkpt>
      <trkpt lat="43.75846" lon="7.04157">
        <ele>966</ele>
        <time>2013-01-05T09:16:11Z</time>
      </trkpt>
      <trkpt lat="43.75843" lon="7.04166">
        <ele>967</ele>
        <time>2013-01-05T09:16:16Z</time>
      </trkpt>
      <trkpt lat="43.75843" lon="7.04186">
        <ele>967</ele>
        <time>2013-01-05T09:16:26Z</time>
      </trkpt>
      <trkpt lat="43.75835" lon="7.04192">
        <ele>967</ele>
        <time>2013-01-05T09:16:31Z</time>
      </trkpt>
      <trkpt lat="43.7582" lon="7.04214">
        <ele>967</ele>
        <time>2013-01-05T09:16:41Z</time>
      </trkpt>
      <trkpt lat="43.75814" lon="7.04228">
        <ele>967</ele>
        <time>2013-01-05T09:16:46Z</time>
      </trkpt>
      <trkpt lat="43.75804" lon="7.04264">
        <ele>967</ele>
        <time>2013-01-05T09:16:56Z</time>
      </trkpt>
      <trkpt lat="43.75805" lon="7.04281">
        <ele>967</ele>
        <time>2013-01-05T09:17:01Z</time>
      </trkpt>
      <trkpt lat="43.75803" lon="7.04296">
        <ele>968</ele>
        <time>2013-01-05T09:17:06Z</time>
      </trkpt>
      <trkpt lat="43.75797" lon="7.04318">
        <ele>969</ele>
        <time>2013-01-05T09:17:16Z</time>
      </trkpt>
      <trkpt lat="43.75787" lon="7.04325">
        <ele>969</ele>
        <time>2013-01-05T09:17:21Z</time>
      </trkpt>
      <trkpt lat="43.75765" lon="7.04344">
        <ele>969</ele>
        <time>2013-01-05T09:17:31Z</time>
      </trkpt>
      <trkpt lat="43.75759" lon="7.04356">
        <ele>969</ele>
        <time>2013-01-05T09:17:36Z</time>
      </trkpt>
      <trkpt lat="43.75753" lon="7.04388">
        <ele>969</ele>
        <time>2013-01-05T09:17:46Z</time>
      </trkpt>
      <trkpt lat="43.75751" lon="7.04404">
        <ele>970</ele>
        <time>2013-01-05T09:17:51Z</time>
      </trkpt>
      <trkpt lat="43.75754" lon="7.04433">
        <ele>971</ele>
        <time>2013-01-05T09:18:01Z</time>
      </trkpt>
      <trkpt lat="43.7575" lon="7.04447">
        <ele>972</ele>
        <time>2013-01-05T09:18:06Z</time>
      </trkpt>
      <trkpt lat="43.75742" lon="7.04473">
        <ele>973</ele>
        <time>2013-01-05T09:18:16Z</time>
      </trkpt>
      <trkpt lat="43.75744" lon="7.04487">
        <ele>973</ele>
        <time>2013-01-05T09:18:21Z</time>
      </trkpt>
      <trkpt lat="43.75745" lon="7.04504">
        <ele>973</ele>
        <time>2013-01-05T09:18:26Z</time>
      </trkpt>
      <trkpt lat="43.75749" lon="7.04536">
        <ele>973</ele>
        <time>2013-01-05T09:18:36Z</time>
      </trkpt>
      <trkpt lat="43.75736" lon="7.04551">
        <ele>973</ele>
        <time>2013-01-05T09:18:41Z</time>
      </trkpt>
      <trkpt lat="43.75726" lon="7.04559">
        <ele>973</ele>
        <time>2013-01-05T09:19:05Z</time>
      </trkpt>
      <trkpt lat="43.75721" lon="7.04567">
        <ele>973</ele>
        <time>2013-01-05T09:19:10Z</time>
      </trkpt>
      <trkpt lat="43.75714" lon="7.04575">
        <ele>973</ele>
        <time>2013-01-05T09:19:21Z</time>
      </trkpt>
      <trkpt lat="43.75708" lon="7.04582">
        <ele>973</ele>
        <time>2013-01-05T09:19:26Z</time>
      </trkpt>
      <trkpt lat="43.75693" lon="7.04597">
        <ele>973</ele>
        <time>2013-01-05T09:19:41Z</time>
      </trkpt>
      <trkpt lat="43.75686" lon="7.04606">
        <ele>973</ele>
        <time>2013-01-05T09:19:46Z</time>
      </trkpt>
      <trkpt lat="43.75656" lon="7.0464">
        <ele>973</ele>
        <time>2013-01-05T09:19:56Z</time>
      </trkpt>
      <trkpt lat="43.75636" lon="7.0466">
        <ele>972</ele>
        <time>2013-01-05T09:20:01Z</time>
      </trkpt>
      <trkpt lat="43.75606" lon="7.0469">
        <ele>971</ele>
        <time>2013-01-05T09:20:11Z</time>
      </trkpt>
      <trkpt lat="43.75592" lon="7.0471">
        <ele>970</ele>
        <time>2013-01-05T09:20:16Z</time>
      </trkpt>
      <trkpt lat="43.75575" lon="7.04732">
        <ele>970</ele>
        <time>2013-01-05T09:20:21Z</time>
      </trkpt>
      <trkpt lat="43.75548" lon="7.04775">
        <ele>967</ele>
        <time>2013-01-05T09:20:31Z</time>
      </trkpt>
      <trkpt lat="43.75539" lon="7.04795">
        <ele>967</ele>
        <time>2013-01-05T09:20:36Z</time>
      </trkpt>
      <trkpt lat="43.75524" lon="7.04833">
        <ele>967</ele>
        <time>2013-01-05T09:20:46Z</time>
      </trkpt>
      <trkpt lat="43.75517" lon="7.0485">
        <ele>967</ele>
        <time>2013-01-05T09:20:51Z</time>
      </trkpt>
      <trkpt lat="43.75506" lon="7.04883">
        <ele>967</ele>
        <time>2013-01-05T09:21:01Z</time>
      </trkpt>
      <trkpt lat="43.75505" lon="7.04896">
        <ele>967</ele>
        <time>2013-01-05T09:21:06Z</time>
      </trkpt>
      <trkpt lat="43.75504" lon="7.04918">
        <ele>967</ele>
        <time>2013-01-05T09:21:16Z</time>
      </trkpt>
      <trkpt lat="43.75501" lon="7.04929">
        <ele>967</ele>
        <time>2013-01-05T09:21:21Z</time>
      </trkpt>
      <trkpt lat="43.75497" lon="7.04949">
        <ele>969</ele>
        <time>2013-01-05T09:21:31Z</time>
      </trkpt>
      <trkpt lat="43.75493" lon="7.04959">
        <ele>970</ele>
        <time>2013-01-05T09:21:36Z</time>
      </trkpt>
      <trkpt lat="43.75487" lon="7.04967">
        <ele>971</ele>
        <time>2013-01-05T09:21:41Z</time>
      </trkpt>
      <trkpt lat="43.75463" lon="7.04994">
        <ele>971</ele>
        <time>2013-01-05T09:21:51Z</time>
      </trkpt>
      <trkpt lat="43.75457" lon="7.05027">
        <ele>971</ele>
        <time>2013-01-05T09:21:56Z</time>
      </trkpt>
      <trkpt lat="43.75451" lon="7.05078">
        <ele>971</ele>
        <time>2013-01-05T09:22:06Z</time>
      </trkpt>
      <trkpt lat="43.75444" lon="7.05099">
        <ele>971</ele>
        <time>2013-01-05T09:22:11Z</time>
      </trkpt>
      <trkpt lat="43.75424" lon="7.05136">
        <ele>971</ele>
        <time>2013-01-05T09:22:21Z</time>
      </trkpt>
      <trkpt lat="43.75406" lon="7.05142">
        <ele>971</ele>
        <time>2013-01-05T09:22:26Z</time>
      </trkpt>
      <trkpt lat="43.75379" lon="7.05172">
        <ele>969</ele>
        <time>2013-01-05T09:22:36Z</time>
      </trkpt>
      <trkpt lat="43.75369" lon="7.0519">
        <ele>969</ele>
        <time>2013-01-05T09:22:41Z</time>
      </trkpt>
      <trkpt lat="43.75347" lon="7.05229">
        <ele>969</ele>
        <time>2013-01-05T09:22:51Z</time>
      </trkpt>
      <trkpt lat="43.75335" lon="7.05247">
        <ele>969</ele>
        <time>2013-01-05T09:22:56Z</time>
      </trkpt>
      <trkpt lat="43.75323" lon="7.05266">
        <ele>969</ele>
        <time>2013-01-05T09:23:01Z</time>
      </trkpt>
      <trkpt lat="43.75301" lon="7.05301">
        <ele>969</ele>
        <time>2013-01-05T09:23:11Z</time>
      </trkpt>
      <trkpt lat="43.75292" lon="7.05318">
        <ele>969</ele>
        <time>2013-01-05T09:23:16Z</time>
      </trkpt>
      <trkpt lat="43.75284" lon="7.05358">
        <ele>969</ele>
        <time>2013-01-05T09:23:26Z</time>
      </trkpt>
      <trkpt lat="43.75274" lon="7.05377">
        <ele>969</ele>
        <time>2013-01-05T09:23:31Z</time>
      </trkpt>
      <trkpt lat="43.75256" lon="7.05425">
        <ele>969</ele>
        <time>2013-01-05T09:23:41Z</time>
      </trkpt>
      <trkpt lat="43.7524" lon="7.05444">
        <ele>969</ele>
        <time>2013-01-05T09:23:46Z</time>
      </trkpt>
      <trkpt lat="43.75201" lon="7.05477">
        <ele>967</ele>
        <time>2013-01-05T09:23:56Z</time>
      </trkpt>
      <trkpt lat="43.75185" lon="7.05489">
        <ele>967</ele>
        <time>2013-01-05T09:24:01Z</time>
      </trkpt>
      <trkpt lat="43.75163" lon="7.05522">
        <ele>967</ele>
        <time>2013-01-05T09:24:11Z</time>
      </trkpt>
      <trkpt lat="43.75153" lon="7.05534">
        <ele>967</ele>
        <time>2013-01-05T09:24:16Z</time>
      </trkpt>
      <trkpt lat="43.75144" lon="7.05547">
        <ele>967</ele>
        <time>2013-01-05T09:24:21Z</time>
      </trkpt>
      <trkpt lat="43.75127" lon="7.05562">
        <ele>967</ele>
        <time>2013-01-05T09:24:31Z</time>
      </trkpt>
      <trkpt lat="43.75116" lon="7.05566">
        <ele>967</ele>
        <time>2013-01-05T09:24:36Z</time>
      </trkpt>
      <trkpt lat="43.75104" lon="7.05571">
        <ele>967</ele>
        <time>2013-01-05T09:24:47Z</time>
      </trkpt>
      <trkpt lat="43.75097" lon="7.05566">
        <ele>967</ele>
        <time>2013-01-05T09:24:52Z</time>
      </trkpt>
      <trkpt lat="43.75082" lon="7.0555">
        <ele>967</ele>
        <time>2013-01-05T09:25:02Z</time>
      </trkpt>
      <trkpt lat="43.75067" lon="7.05547">
        <ele>971.5</ele>
      </trkpt>
      <trkpt lat="43.75041" lon="7.05546">
        <ele>971.8</ele>
      </trkpt>
      <trkpt lat="43.75029" lon="7.05539">
        <ele>971.9</ele>
      </trkpt>
      <trkpt lat="43.75004" lon="7.05524">
        <ele>971.9</ele>
      </trkpt>
      <trkpt lat="43.74996" lon="7.05518">
        <ele>972.4</ele>
      </trkpt>
      <trkpt lat="43.74988" lon="7.05511">
        <ele>972.4</ele>
      </trkpt>
      <trkpt lat="43.74965" lon="7.05503">
        <ele>972.7</ele>
      </trkpt>
      <trkpt lat="43.74959" lon="7.05489">
        <ele>973.5</ele>
      </trkpt>
      <trkpt lat="43.74942" lon="7.05484">
        <ele>973.7</ele>
      </trkpt>
      <trkpt lat="43.74936" lon="7.05482">
        <ele>973.8</ele>
      </trkpt>
      <trkpt lat="43.74925" lon="7.05468">
        <ele>973.8</ele>
      </trkpt>
      <trkpt lat="43.74917" lon="7.05457">
        <ele>975.1</ele>
      </trkpt>
      <trkpt lat="43.74901" lon="7.05445">
        <ele>977</ele>
        <time>2013-01-05T09:30:13Z</time>
      </trkpt>
      <trkpt lat="43.74895" lon="7.05432">
        <ele>975.3</ele>
      </trkpt>
      <trkpt lat="43.74879" lon="7.05418">
        <ele>975.9</ele>
      </trkpt>
      <trkpt lat="43.74874" lon="7.05415">
        <ele>978.1</ele>
      </trkpt>
      <trkpt lat="43.74852" lon="7.0541">
        <ele>978.9</ele>
      </trkpt>
      <trkpt lat="43.74841" lon="7.0541">
        <ele>979</ele>
      </trkpt>
      <trkpt lat="43.74832" lon="7.05405">
        <ele>981.3</ele>
      </trkpt>
      <trkpt lat="43.74816" lon="7.05403">
        <ele>982.8</ele>
      </trkpt>
      <trkpt lat="43.74808" lon="7.05397">
        <ele>983.7</ele>
      </trkpt>
      <trkpt lat="43.74784" lon="7.05379">
        <ele>985.6</ele>
      </trkpt>
      <trkpt lat="43.74782" lon="7.05361">
        <ele>986.6</ele>
      </trkpt>
      <trkpt lat="43.74777" lon="7.05327">
        <ele>992.1</ele>
      </trkpt>
      <trkpt lat="43.74775" lon="7.05314">
        <ele>992.4</ele>
      </trkpt>
      <trkpt lat="43.7477" lon="7.05282">
        <ele>994</ele>
      </trkpt>
      <trkpt lat="43.74772" lon="7.05269">
        <ele>994.8</ele>
      </trkpt>
      <trkpt lat="43.74765" lon="7.05248">
        <ele>995</ele>
        <time>2013-01-05T09:34:11Z</time>
      </trkpt>
      <trkpt lat="43.74762" lon="7.05239">
        <ele>996</ele>
        <time>2013-01-05T09:34:16Z</time>
      </trkpt>
      <trkpt lat="43.74759" lon="7.05231">
        <ele>997</ele>
        <time>2013-01-05T09:34:21Z</time>
      </trkpt>
      <trkpt lat="43.74754" lon="7.05215">
        <ele>998</ele>
        <time>2013-01-05T09:34:31Z</time>
      </trkpt>
      <trkpt lat="43.74752" lon="7.05207">
        <ele>999</ele>
        <time>2013-01-05T09:34:36Z</time>
      </trkpt>
      <trkpt lat="43.74752" lon="7.05188">
        <ele>1000</ele>
        <time>2013-01-05T09:34:46Z</time>
      </trkpt>
      <trkpt lat="43.74751" lon="7.05179">
        <ele>1001</ele>
        <time>2013-01-05T09:34:51Z</time>
      </trkpt>
      <trkpt lat="43.74749" lon="7.05163">
        <ele>1003</ele>
        <time>2013-01-05T09:35:02Z</time>
      </trkpt>
      <trkpt lat="43.74747" lon="7.05162">
        <ele>1004</ele>
        <time>2013-01-05T09:35:09Z</time>
      </trkpt>
      <trkpt lat="43.74741" lon="7.05154">
        <ele>1005</ele>
        <time>2013-01-05T09:35:22Z</time>
      </trkpt>
      <trkpt lat="43.74736" lon="7.05152">
        <ele>1007</ele>
        <time>2013-01-05T09:35:29Z</time>
      </trkpt>
      <trkpt lat="43.74726" lon="7.05149">
        <ele>1010</ele>
        <time>2013-01-05T09:35:41Z</time>
      </trkpt>
      <trkpt lat="43.74722" lon="7.05145">
        <ele>1010</ele>
        <time>2013-01-05T09:35:47Z</time>
      </trkpt>
      <trkpt lat="43.7472" lon="7.05139">
        <ele>1011</ele>
        <time>2013-01-05T09:35:53Z</time>
      </trkpt>
      <trkpt lat="43.74715" lon="7.05128">
        <ele>1011</ele>
        <time>2013-01-05T09:36:03Z</time>
      </trkpt>
      <trkpt lat="43.74711" lon="7.05121">
        <ele>1011</ele>
        <time>2013-01-05T09:36:08Z</time>
      </trkpt>
      <trkpt lat="43.74702" lon="7.05106">
        <ele>1012</ele>
        <time>2013-01-05T09:36:18Z</time>
      </trkpt>
      <trkpt lat="43.74699" lon="7.05097">
        <ele>1012</ele>
        <time>2013-01-05T09:36:23Z</time>
      </trkpt>
      <trkpt lat="43.74689" lon="7.05081">
        <ele>1013</ele>
        <time>2013-01-05T09:36:33Z</time>
      </trkpt>
      <trkpt lat="43.74684" lon="7.05073">
        <ele>1014</ele>
        <time>2013-01-05T09:36:38Z</time>
      </trkpt>
      <trkpt lat="43.74672" lon="7.05057">
        <ele>1015</ele>
        <time>2013-01-05T09:36:48Z</time>
      </trkpt>
      <trkpt lat="43.74667" lon="7.0505">
        <ele>1016</ele>
        <time>2013-01-05T09:36:53Z</time>
      </trkpt>
      <trkpt lat="43.74655" lon="7.05037">
        <ele>1017</ele>
        <time>2013-01-05T09:37:03Z</time>
      </trkpt>
      <trkpt lat="43.74648" lon="7.05031">
        <ele>1018</ele>
        <time>2013-01-05T09:37:08Z</time>
      </trkpt>
      <trkpt lat="43.74642" lon="7.05026">
        <ele>1019</ele>
        <time>2013-01-05T09:37:13Z</time>
      </trkpt>
      <trkpt lat="43.74629" lon="7.05014">
        <ele>1020</ele>
        <time>2013-01-05T09:37:24Z</time>
      </trkpt>
      <trkpt lat="43.74623" lon="7.05011">
        <ele>1021</ele>
        <time>2013-01-05T09:37:29Z</time>
      </trkpt>
      <trkpt lat="43.74609" lon="7.05008">
        <ele>1024</ele>
        <time>2013-01-05T09:37:39Z</time>
      </trkpt>
      <trkpt lat="43.74603" lon="7.05007">
        <ele>1025</ele>
        <time>2013-01-05T09:37:44Z</time>
      </trkpt>
      <trkpt lat="43.74591" lon="7.05004">
        <ele>1026</ele>
        <time>2013-01-05T09:37:54Z</time>
      </trkpt>
      <trkpt lat="43.74584" lon="7.05005">
        <ele>1026</ele>
        <time>2013-01-05T09:37:59Z</time>
      </trkpt>
      <trkpt lat="43.74567" lon="7.05006">
        <ele>1027</ele>
        <time>2013-01-05T09:38:09Z</time>
      </trkpt>
      <trkpt lat="43.74558" lon="7.05007">
        <ele>1027</ele>
        <time>2013-01-05T09:38:14Z</time>
      </trkpt>
      <trkpt lat="43.74537" lon="7.05">
        <ele>1028</ele>
        <time>2013-01-05T09:38:24Z</time>
      </trkpt>
      <trkpt lat="43.74525" lon="7.04999">
        <ele>1028</ele>
        <time>2013-01-05T09:38:29Z</time>
      </trkpt>
      <trkpt lat="43.74513" lon="7.04998">
        <ele>1028</ele>
        <time>2013-01-05T09:38:34Z</time>
      </trkpt>
      <trkpt lat="43.74503" lon="7.04998">
        <ele>1028</ele>
        <time>2013-01-05T09:40:28Z</time>
      </trkpt>
      <trkpt lat="43.74501" lon="7.05">
        <ele>1028</ele>
        <time>2013-01-05T09:40:36Z</time>
      </trkpt>
      <trkpt lat="43.74483" lon="7.05012">
        <ele>1028</ele>
        <time>2013-01-05T09:40:46Z</time>
      </trkpt>
      <trkpt lat="43.74471" lon="7.05008">
        <ele>1028</ele>
        <time>2013-01-05T09:40:51Z</time>
      </trkpt>
      <trkpt lat="43.74458" lon="7.04991">
        <ele>1028</ele>
        <time>2013-01-05T09:41:01Z</time>
      </trkpt>
      <trkpt lat="43.7445" lon="7.04985">
        <ele>1028</ele>
        <time>2013-01-05T09:41:06Z</time>
      </trkpt>
      <trkpt lat="43.74449" lon="7.04971">
        <ele>1028</ele>
        <time>2013-01-05T09:41:16Z</time>
      </trkpt>
      <trkpt lat="43.74443" lon="7.04966">
        <ele>1028</ele>
        <time>2013-01-05T09:41:21Z</time>
      </trkpt>
      <trkpt lat="43.74427" lon="7.04967">
        <ele>1028</ele>
        <time>2013-01-05T09:41:31Z</time>
      </trkpt>
      <trkpt lat="43.74424" lon="7.0497">
        <ele>1028</ele>
        <time>2013-01-05T09:41:36Z</time>
      </trkpt>
      <trkpt lat="43.74397" lon="7.04983">
        <ele>1028</ele>
        <time>2013-01-05T09:41:46Z</time>
      </trkpt>
      <trkpt lat="43.74379" lon="7.04992">
        <ele>1027</ele>
        <time>2013-01-05T09:41:51Z</time>
      </trkpt>
      <trkpt lat="43.74368" lon="7.04994">
        <ele>1027</ele>
        <time>2013-01-05T09:41:56Z</time>
      </trkpt>
      <trkpt lat="43.74348" lon="7.0501">
        <ele>1026</ele>
        <time>2013-01-05T09:42:06Z</time>
      </trkpt>
      <trkpt lat="43.74339" lon="7.05012">
        <ele>1026</ele>
        <time>2013-01-05T09:42:11Z</time>
      </trkpt>
      <trkpt lat="43.74317" lon="7.05012">
        <ele>1026</ele>
        <time>2013-01-05T09:42:21Z</time>
      </trkpt>
      <trkpt lat="43.74308" lon="7.05007">
        <ele>1026</ele>
        <time>2013-01-05T09:42:26Z</time>
      </trkpt>
      <trkpt lat="43.74295" lon="7.05005">
        <ele>1026</ele>
        <time>2013-01-05T09:42:40Z</time>
      </trkpt>
      <trkpt lat="43.74289" lon="7.05008">
        <ele>1025</ele>
        <time>2013-01-05T09:42:45Z</time>
      </trkpt>
      <trkpt lat="43.74283" lon="7.05024">
        <ele>1025</ele>
        <time>2013-01-05T09:42:57Z</time>
      </trkpt>
      <trkpt lat="43.74281" lon="7.05032">
        <ele>1025</ele>
        <time>2013-01-05T09:43:03Z</time>
      </trkpt>
      <trkpt lat="43.74269" lon="7.0505">
        <ele>1025</ele>
        <time>2013-01-05T09:43:13Z</time>
      </trkpt>
      <trkpt lat="43.7426" lon="7.05056">
        <ele>1025</ele>
        <time>2013-01-05T09:43:18Z</time>
      </trkpt>
      <trkpt lat="43.74251" lon="7.05063">
        <ele>1025</ele>
        <time>2013-01-05T09:43:23Z</time>
      </trkpt>
      <trkpt lat="43.74243" lon="7.0507">
        <ele>1025</ele>
        <time>2013-01-05T09:43:36Z</time>
      </trkpt>
      <trkpt lat="43.74237" lon="7.05076">
        <ele>1025</ele>
        <time>2013-01-05T09:43:41Z</time>
      </trkpt>
      <trkpt lat="43.74223" lon="7.05084">
        <ele>1025</ele>
        <time>2013-01-05T09:43:51Z</time>
      </trkpt>
      <trkpt lat="43.74217" lon="7.05087">
        <ele>1025</ele>
        <time>2013-01-05T09:43:56Z</time>
      </trkpt>
      <trkpt lat="43.74203" lon="7.05091">
        <ele>1026</ele>
        <time>2013-01-05T09:44:06Z</time>
      </trkpt>
      <trkpt lat="43.74195" lon="7.05092">
        <ele>1027</ele>
        <time>2013-01-05T09:44:11Z</time>
      </trkpt>
      <trkpt lat="43.7418" lon="7.051">
        <ele>1029</ele>
        <time>2013-01-05T09:44:21Z</time>
      </trkpt>
      <trkpt lat="43.74175" lon="7.05106">
        <ele>1029</ele>
        <time>2013-01-05T09:44:26Z</time>
      </trkpt>
      <trkpt lat="43.74169" lon="7.05114">
        <ele>1029</ele>
        <time>2013-01-05T09:44:37Z</time>
      </trkpt>
      <trkpt lat="43.74169" lon="7.05112">
        <ele>1029</ele>
        <time>2013-01-05T09:44:51Z</time>
      </trkpt>
      <trkpt lat="43.74171" lon="7.05111">
        <ele>1030</ele>
        <time>2013-01-05T09:45:04Z</time>
      </trkpt>
      <trkpt lat="43.74164" lon="7.05106">
        <ele>1030</ele>
        <time>2013-01-05T09:45:15Z</time>
      </trkpt>
      <trkpt lat="43.74155" lon="7.05103">
        <ele>1030</ele>
        <time>2013-01-05T09:45:20Z</time>
      </trkpt>
      <trkpt lat="43.74141" lon="7.05097">
        <ele>1031</ele>
        <time>2013-01-05T09:45:39Z</time>
      </trkpt>
      <trkpt lat="43.74136" lon="7.05097">
        <ele>1031</ele>
        <time>2013-01-05T09:45:44Z</time>
      </trkpt>
      <trkpt lat="43.74128" lon="7.05106">
        <ele>1031</ele>
        <time>2013-01-05T09:45:56Z</time>
      </trkpt>
      <trkpt lat="43.74121" lon="7.05114">
        <ele>1031</ele>
        <time>2013-01-05T09:46:01Z</time>
      </trkpt>
      <trkpt lat="43.74115" lon="7.0512">
        <ele>1031</ele>
        <time>2013-01-05T09:46:11Z</time>
      </trkpt>
      <trkpt lat="43.7411" lon="7.0512">
        <ele>1031</ele>
        <time>2013-01-05T09:46:16Z</time>
      </trkpt>
      <trkpt lat="43.74104" lon="7.05131">
        <ele>1031</ele>
        <time>2013-01-05T09:46:27Z</time>
      </trkpt>
      <trkpt lat="43.74098" lon="7.0513">
        <ele>1031</ele>
        <time>2013-01-05T09:46:33Z</time>
      </trkpt>
      <trkpt lat="43.74093" lon="7.05129">
        <ele>1031</ele>
        <time>2013-01-05T09:46:39Z</time>
      </trkpt>
      <trkpt lat="43.74085" lon="7.05126">
        <ele>1031</ele>
        <time>2013-01-05T09:46:50Z</time>
      </trkpt>
      <trkpt lat="43.74082" lon="7.05126">
        <ele>1031</ele>
        <time>2013-01-05T09:46:56Z</time>
      </trkpt>
      <trkpt lat="43.74067" lon="7.05127">
        <ele>1031</ele>
        <time>2013-01-05T09:47:06Z</time>
      </trkpt>
      <trkpt lat="43.74059" lon="7.05124">
        <ele>1031</ele>
        <time>2013-01-05T09:47:11Z</time>
      </trkpt>
      <trkpt lat="43.74044" lon="7.05118">
        <ele>1031</ele>
        <time>2013-01-05T09:47:21Z</time>
      </trkpt>
      <trkpt lat="43.74035" lon="7.05115">
        <ele>1031</ele>
        <time>2013-01-05T09:47:26Z</time>
      </trkpt>
      <trkpt lat="43.7401" lon="7.05107">
        <ele>1031</ele>
        <time>2013-01-05T09:47:36Z</time>
      </trkpt>
      <trkpt lat="43.74002" lon="7.05105">
        <ele>1031</ele>
        <time>2013-01-05T09:47:41Z</time>
      </trkpt>
      <trkpt lat="43.73988" lon="7.05122">
        <ele>1031</ele>
        <time>2013-01-05T09:47:53Z</time>
      </trkpt>
      <trkpt lat="43.73987" lon="7.05126">
        <ele>1031</ele>
        <time>2013-01-05T09:47:59Z</time>
      </trkpt>
      <trkpt lat="43.73989" lon="7.05128">
        <ele>1026</ele>
        <time>2013-01-05T09:50:49Z</time>
      </trkpt>
      <trkpt lat="43.73991" lon="7.05128">
        <ele>1026</ele>
        <time>2013-01-05T09:51:13Z</time>
      </trkpt>
      <trkpt lat="43.73991" lon="7.05129">
        <ele>1026</ele>
        <time>2013-01-05T09:52:05Z</time>
      </trkpt>
      <trkpt lat="43.73988" lon="7.05128">
        <ele>1026</ele>
        <time>2013-01-05T09:52:55Z</time>
      </trkpt>
      <trkpt lat="43.73987" lon="7.05128">
        <ele>1026</ele>
        <time>2013-01-05T09:53:15Z</time>
      </trkpt>
      <trkpt lat="43.73988" lon="7.05126">
        <ele>1026</ele>
        <time>2013-01-05T09:53:51Z</time>
      </trkpt>
      <trkpt lat="43.73989" lon="7.05126">
        <ele>1026</ele>
        <time>2013-01-05T09:54:01Z</time>
      </trkpt>
      <trkpt lat="43.73988" lon="7.05125">
        <ele>1025</ele>
        <time>2013-01-05T09:54:48Z</time>
      </trkpt>
      <trkpt lat="43.73988" lon="7.05127">
        <ele>1025</ele>
        <time>2013-01-05T09:55:01Z</time>
      </trkpt>
      <trkpt lat="43.73989" lon="7.05125">
        <ele>1025</ele>
        <time>2013-01-05T09:55:57Z</time>
      </trkpt>
      <trkpt lat="43.7399" lon="7.05125">
        <ele>1025</ele>
        <time>2013-01-05T09:56:38Z</time>
      </trkpt>
      <trkpt lat="43.73988" lon="7.05127">
        <ele>1025</ele>
        <time>2013-01-05T09:57:36Z</time>
      </trkpt>
      <trkpt lat="43.73987" lon="7.05129">
        <ele>1025</ele>
        <time>2013-01-05T09:58:34Z</time>
      </trkpt>
      <trkpt lat="43.73983" lon="7.05141">
        <ele>1025</ele>
        <time>2013-01-05T09:58:39Z</time>
      </trkpt>
      <trkpt lat="43.73973" lon="7.05164">
        <ele>1025</ele>
        <time>2013-01-05T09:58:49Z</time>
      </trkpt>
      <trkpt lat="43.73969" lon="7.05174">
        <ele>1025</ele>
        <time>2013-01-05T09:58:54Z</time>
      </trkpt>
      <trkpt lat="43.73959" lon="7.05194">
        <ele>1026</ele>
        <time>2013-01-05T09:59:04Z</time>
      </trkpt>
      <trkpt lat="43.73955" lon="7.05204">
        <ele>1027</ele>
        <time>2013-01-05T09:59:10Z</time>
      </trkpt>
      <trkpt lat="43.73947" lon="7.0522">
        <ele>1027</ele>
        <time>2013-01-05T09:59:20Z</time>
      </trkpt>
      <trkpt lat="43.73946" lon="7.05228">
        <ele>1027</ele>
        <time>2013-01-05T09:59:25Z</time>
      </trkpt>
      <trkpt lat="43.73943" lon="7.05243">
        <ele>1027</ele>
        <time>2013-01-05T09:59:35Z</time>
      </trkpt>
      <trkpt lat="43.73942" lon="7.05248">
        <ele>1027</ele>
        <time>2013-01-05T09:59:42Z</time>
      </trkpt>
      <trkpt lat="43.7394" lon="7.05274">
        <ele>1027</ele>
        <time>2013-01-05T09:59:53Z</time>
      </trkpt>
      <trkpt lat="43.73941" lon="7.05276">
        <ele>1027</ele>
        <time>2013-01-05T10:00:03Z</time>
      </trkpt>
      <trkpt lat="43.73939" lon="7.05279">
        <ele>1027</ele>
        <time>2013-01-05T10:00:12Z</time>
      </trkpt>
      <trkpt lat="43.73937" lon="7.05285">
        <ele>1025</ele>
        <time>2013-01-05T10:00:33Z</time>
      </trkpt>
      <trkpt lat="43.73935" lon="7.05289">
        <ele>1025</ele>
        <time>2013-01-05T10:00:38Z</time>
      </trkpt>
      <trkpt lat="43.73915" lon="7.05335">
        <ele>1022</ele>
        <time>2013-01-05T10:00:48Z</time>
      </trkpt>
      <trkpt lat="43.73906" lon="7.05362">
        <ele>1019</ele>
        <time>2013-01-05T10:00:53Z</time>
      </trkpt>
      <trkpt lat="43.73894" lon="7.0538">
        <ele>1010</ele>
        <time>2013-01-05T10:01:26Z</time>
      </trkpt>
      <trkpt lat="43.73894" lon="7.05378">
        <ele>1009</ele>
        <time>2013-01-05T10:01:32Z</time>
      </trkpt>
      <trkpt lat="43.73895" lon="7.0538">
        <ele>1006</ele>
        <time>2013-01-05T10:02:28Z</time>
      </trkpt>
      <trkpt lat="43.73883" lon="7.05414">
        <ele>1005</ele>
        <time>2013-01-05T10:02:34Z</time>
      </trkpt>
      <trkpt lat="43.73856" lon="7.05484">
        <ele>998</ele>
        <time>2013-01-05T10:02:44Z</time>
      </trkpt>
      <trkpt lat="43.73853" lon="7.05516">
        <ele>994</ele>
        <time>2013-01-05T10:02:49Z</time>
      </trkpt>
      <trkpt lat="43.7385" lon="7.05536">
        <ele>989</ele>
        <time>2013-01-05T10:02:54Z</time>
      </trkpt>
      <trkpt lat="43.73839" lon="7.05581">
        <ele>987</ele>
        <time>2013-01-05T10:03:04Z</time>
      </trkpt>
      <trkpt lat="43.73835" lon="7.05589">
        <ele>987</ele>
        <time>2013-01-05T10:03:09Z</time>
      </trkpt>
      <trkpt lat="43.73829" lon="7.05611">
        <ele>987</ele>
        <time>2013-01-05T10:03:19Z</time>
      </trkpt>
      <trkpt lat="43.73829" lon="7.05612">
        <ele>987</ele>
        <time>2013-01-05T10:03:24Z</time>
      </trkpt>
      <trkpt lat="43.73832" lon="7.05624">
        <ele>987</ele>
        <time>2013-01-05T10:03:34Z</time>
      </trkpt>
      <trkpt lat="43.7383" lon="7.0563">
        <ele>987</ele>
        <time>2013-01-05T10:03:45Z</time>
      </trkpt>
      <trkpt lat="43.73829" lon="7.05649">
        <ele>987</ele>
        <time>2013-01-05T10:03:55Z</time>
      </trkpt>
      <trkpt lat="43.73828" lon="7.05664">
        <ele>987</ele>
        <time>2013-01-05T10:04:00Z</time>
      </trkpt>
      <trkpt lat="43.7382" lon="7.05698">
        <ele>987</ele>
        <time>2013-01-05T10:04:10Z</time>
      </trkpt>
      <trkpt lat="43.73817" lon="7.05715">
        <ele>987</ele>
        <time>2013-01-05T10:04:15Z</time>
      </trkpt>
      <trkpt lat="43.73812" lon="7.05733">
        <ele>987</ele>
        <time>2013-01-05T10:04:20Z</time>
      </trkpt>
      <trkpt lat="43.73798" lon="7.05768">
        <ele>987</ele>
        <time>2013-01-05T10:04:30Z</time>
      </trkpt>
      <trkpt lat="43.73791" lon="7.05787">
        <ele>987</ele>
        <time>2013-01-05T10:04:35Z</time>
      </trkpt>
      <trkpt lat="43.73791" lon="7.058">
        <ele>987</ele>
        <time>2013-01-05T10:05:17Z</time>
      </trkpt>
      <trkpt lat="43.73793" lon="7.05799">
        <ele>987</ele>
        <time>2013-01-05T10:07:15Z</time>
      </trkpt>
      <trkpt lat="43.73829" lon="7.05839">
        <ele>986</ele>
        <time>2013-01-05T10:07:25Z</time>
      </trkpt>
      <trkpt lat="43.73851" lon="7.05851">
        <ele>983</ele>
        <time>2013-01-05T10:07:30Z</time>
      </trkpt>
      <trkpt lat="43.73877" lon="7.05807">
        <ele>973</ele>
        <time>2013-01-05T10:07:41Z</time>
      </trkpt>
      <trkpt lat="43.73893" lon="7.05794">
        <ele>968</ele>
        <time>2013-01-05T10:07:46Z</time>
      </trkpt>
      <trkpt lat="43.73926" lon="7.05789">
        <ele>955</ele>
        <time>2013-01-05T10:07:56Z</time>
      </trkpt>
      <trkpt lat="43.73936" lon="7.05781">
        <ele>949</ele>
        <time>2013-01-05T10:08:01Z</time>
      </trkpt>
      <trkpt lat="43.73976" lon="7.0576">
        <ele>934</ele>
        <time>2013-01-05T10:08:11Z</time>
      </trkpt>
      <trkpt lat="43.73993" lon="7.05769">
        <ele>929</ele>
        <time>2013-01-05T10:08:16Z</time>
      </trkpt>
      <trkpt lat="43.74011" lon="7.05778">
        <ele>923</ele>
        <time>2013-01-05T10:08:21Z</time>
      </trkpt>
      <trkpt lat="43.74055" lon="7.05779">
        <ele>913</ele>
        <time>2013-01-05T10:08:31Z</time>
      </trkpt>
      <trkpt lat="43.74081" lon="7.05783">
        <ele>908</ele>
        <time>2013-01-05T10:08:36Z</time>
      </trkpt>
      <trkpt lat="43.74115" lon="7.0581">
        <ele>900</ele>
        <time>2013-01-05T10:08:46Z</time>
      </trkpt>
      <trkpt lat="43.74137" lon="7.05818">
        <ele>895</ele>
        <time>2013-01-05T10:08:51Z</time>
      </trkpt>
      <trkpt lat="43.74181" lon="7.05829">
        <ele>889</ele>
        <time>2013-01-05T10:09:01Z</time>
      </trkpt>
      <trkpt lat="43.74191" lon="7.05845">
        <ele>885</ele>
        <time>2013-01-05T10:09:06Z</time>
      </trkpt>
      <trkpt lat="43.74201" lon="7.05897">
        <ele>878</ele>
        <time>2013-01-05T10:09:17Z</time>
      </trkpt>
      <trkpt lat="43.742" lon="7.05898">
        <ele>875</ele>
        <time>2013-01-05T10:09:42Z</time>
      </trkpt>
      <trkpt lat="43.742" lon="7.05898">
        <ele>875</ele>
        <time>2013-01-05T10:10:40Z</time>
      </trkpt>
      <trkpt lat="43.742" lon="7.059">
        <ele>875</ele>
        <time>2013-01-05T10:11:07Z</time>
      </trkpt>
      <trkpt lat="43.74199" lon="7.05911">
        <ele>875</ele>
        <time>2013-01-05T10:11:12Z</time>
      </trkpt>
      <trkpt lat="43.7419" lon="7.05952">
        <ele>873</ele>
        <time>2013-01-05T10:11:22Z</time>
      </trkpt>
      <trkpt lat="43.74191" lon="7.05981">
        <ele>871</ele>
        <time>2013-01-05T10:11:27Z</time>
      </trkpt>
      <trkpt lat="43.74194" lon="7.06042">
        <ele>863</ele>
        <time>2013-01-05T10:11:37Z</time>
      </trkpt>
      <trkpt lat="43.74194" lon="7.06058">
        <ele>859</ele>
        <time>2013-01-05T10:11:42Z</time>
      </trkpt>
      <trkpt lat="43.74191" lon="7.06103">
        <ele>853</ele>
        <time>2013-01-05T10:11:52Z</time>
      </trkpt>
      <trkpt lat="43.74185" lon="7.06128">
        <ele>851</ele>
        <time>2013-01-05T10:11:57Z</time>
      </trkpt>
      <trkpt lat="43.74185" lon="7.06204">
        <ele>846</ele>
        <time>2013-01-05T10:12:07Z</time>
      </trkpt>
      <trkpt lat="43.74193" lon="7.0624">
        <ele>842</ele>
        <time>2013-01-05T10:12:12Z</time>
      </trkpt>
      <trkpt lat="43.74193" lon="7.06306">
        <ele>834</ele>
        <time>2013-01-05T10:12:22Z</time>
      </trkpt>
      <trkpt lat="43.74191" lon="7.06331">
        <ele>832</ele>
        <time>2013-01-05T10:12:33Z</time>
      </trkpt>
      <trkpt lat="43.74192" lon="7.06341">
        <ele>832</ele>
        <time>2013-01-05T10:12:38Z</time>
      </trkpt>
      <trkpt lat="43.74193" lon="7.06361">
        <ele>830</ele>
        <time>2013-01-05T10:12:49Z</time>
      </trkpt>
      <trkpt lat="43.74201" lon="7.06379">
        <ele>828</ele>
        <time>2013-01-05T10:12:54Z</time>
      </trkpt>
      <trkpt lat="43.74214" lon="7.06441">
        <ele>821</ele>
        <time>2013-01-05T10:13:04Z</time>
      </trkpt>
      <trkpt lat="43.74215" lon="7.06451">
        <ele>816</ele>
        <time>2013-01-05T10:13:16Z</time>
      </trkpt>
      <trkpt lat="43.74219" lon="7.06497">
        <ele>810</ele>
        <time>2013-01-05T10:13:26Z</time>
      </trkpt>
      <trkpt lat="43.7422" lon="7.06521">
        <ele>807</ele>
        <time>2013-01-05T10:13:31Z</time>
      </trkpt>
      <trkpt lat="43.74235" lon="7.06556">
        <ele>799</ele>
        <time>2013-01-05T10:13:41Z</time>
      </trkpt>
      <trkpt lat="43.74246" lon="7.0658">
        <ele>794</ele>
        <time>2013-01-05T10:13:46Z</time>
      </trkpt>
      <trkpt lat="43.74275" lon="7.06644">
        <ele>784</ele>
        <time>2013-01-05T10:13:56Z</time>
      </trkpt>
      <trkpt lat="43.74296" lon="7.06691">
        <ele>779</ele>
        <time>2013-01-05T10:14:01Z</time>
      </trkpt>
      <trkpt lat="43.74309" lon="7.06716">
        <ele>774</ele>
        <time>2013-01-05T10:14:06Z</time>
      </trkpt>
      <trkpt lat="43.74317" lon="7.06719">
        <ele>766</ele>
        <time>2013-01-05T10:14:30Z</time>
      </trkpt>
      <trkpt lat="43.74319" lon="7.06721">
        <ele>766</ele>
        <time>2013-01-05T10:14:44Z</time>
      </trkpt>
      <trkpt lat="43.7434" lon="7.06752">
        <ele>763</ele>
        <time>2013-01-05T10:14:54Z</time>
      </trkpt>
      <trkpt lat="43.74353" lon="7.06767">
        <ele>761</ele>
        <time>2013-01-05T10:14:59Z</time>
      </trkpt>
      <trkpt lat="43.74372" lon="7.0678">
        <ele>759</ele>
        <time>2013-01-05T10:15:10Z</time>
      </trkpt>
      <trkpt lat="43.74374" lon="7.06776">
        <ele>759</ele>
        <time>2013-01-05T10:15:16Z</time>
      </trkpt>
      <trkpt lat="43.74382" lon="7.06777">
        <ele>757</ele>
        <time>2013-01-05T10:15:27Z</time>
      </trkpt>
      <trkpt lat="43.74383" lon="7.06787">
        <ele>757</ele>
        <time>2013-01-05T10:15:32Z</time>
      </trkpt>
      <trkpt lat="43.74386" lon="7.06811">
        <ele>757</ele>
        <time>2013-01-05T10:15:42Z</time>
      </trkpt>
      <trkpt lat="43.74387" lon="7.06816">
        <ele>757</ele>
        <time>2013-01-05T10:15:48Z</time>
      </trkpt>
      <trkpt lat="43.74385" lon="7.06835">
        <ele>757</ele>
        <time>2013-01-05T10:15:53Z</time>
      </trkpt>
      <trkpt lat="43.74376" lon="7.06904">
        <ele>752</ele>
        <time>2013-01-05T10:16:03Z</time>
      </trkpt>
      <trkpt lat="43.74381" lon="7.0694">
        <ele>749</ele>
        <time>2013-01-05T10:16:08Z</time>
      </trkpt>
      <trkpt lat="43.74383" lon="7.06988">
        <ele>743</ele>
        <time>2013-01-05T10:16:18Z</time>
      </trkpt>
      <trkpt lat="43.74389" lon="7.07018">
        <ele>740</ele>
        <time>2013-01-05T10:16:23Z</time>
      </trkpt>
      <trkpt lat="43.74403" lon="7.07083">
        <ele>732</ele>
        <time>2013-01-05T10:16:33Z</time>
      </trkpt>
      <trkpt lat="43.74406" lon="7.07113">
        <ele>729</ele>
        <time>2013-01-05T10:16:38Z</time>
      </trkpt>
      <trkpt lat="43.74405" lon="7.07149">
        <ele>724</ele>
        <time>2013-01-05T10:16:48Z</time>
      </trkpt>
      <trkpt lat="43.74408" lon="7.07178">
        <ele>722</ele>
        <time>2013-01-05T10:16:53Z</time>
      </trkpt>
      <trkpt lat="43.74409" lon="7.07221">
        <ele>716</ele>
        <time>2013-01-05T10:17:03Z</time>
      </trkpt>
      <trkpt lat="43.74404" lon="7.07252">
        <ele>715</ele>
        <time>2013-01-05T10:17:08Z</time>
      </trkpt>
      <trkpt lat="43.74392" lon="7.07305">
        <ele>709</ele>
        <time>2013-01-05T10:17:18Z</time>
      </trkpt>
      <trkpt lat="43.74387" lon="7.0733">
        <ele>708</ele>
        <time>2013-01-05T10:17:23Z</time>
      </trkpt>
      <trkpt lat="43.74384" lon="7.07354">
        <ele>707</ele>
        <time>2013-01-05T10:17:28Z</time>
      </trkpt>
      <trkpt lat="43.74375" lon="7.07399">
        <ele>706</ele>
        <time>2013-01-05T10:17:38Z</time>
      </trkpt>
      <trkpt lat="43.74369" lon="7.07426">
        <ele>706</ele>
        <time>2013-01-05T10:17:43Z</time>
      </trkpt>
      <trkpt lat="43.74362" lon="7.07455">
        <ele>701</ele>
        <time>2013-01-05T10:17:56Z</time>
      </trkpt>
      <trkpt lat="43.74362" lon="7.07461">
        <ele>700</ele>
        <time>2013-01-05T10:18:01Z</time>
      </trkpt>
      <trkpt lat="43.74356" lon="7.07508">
        <ele>697</ele>
        <time>2013-01-05T10:18:11Z</time>
      </trkpt>
      <trkpt lat="43.74348" lon="7.07534">
        <ele>694</ele>
        <time>2013-01-05T10:18:16Z</time>
      </trkpt>
      <trkpt lat="43.74352" lon="7.07584">
        <ele>688</ele>
        <time>2013-01-05T10:18:26Z</time>
      </trkpt>
      <trkpt lat="43.74355" lon="7.07609">
        <ele>685</ele>
        <time>2013-01-05T10:18:31Z</time>
      </trkpt>
      <trkpt lat="43.74358" lon="7.07685">
        <ele>681</ele>
        <time>2013-01-05T10:18:41Z</time>
      </trkpt>
      <trkpt lat="43.74375" lon="7.07706">
        <ele>678</ele>
        <time>2013-01-05T10:18:46Z</time>
      </trkpt>
      <trkpt lat="43.74385" lon="7.0773">
        <ele>676</ele>
        <time>2013-01-05T10:18:51Z</time>
      </trkpt>
      <trkpt lat="43.74403" lon="7.07783">
        <ele>673</ele>
        <time>2013-01-05T10:19:01Z</time>
      </trkpt>
      <trkpt lat="43.74402" lon="7.07793">
        <ele>670</ele>
        <time>2013-01-05T10:19:07Z</time>
      </trkpt>
      <trkpt lat="43.74393" lon="7.07799">
        <ele>668</ele>
        <time>2013-01-05T10:19:17Z</time>
      </trkpt>
      <trkpt lat="43.74385" lon="7.07799">
        <ele>666</ele>
        <time>2013-01-05T10:19:22Z</time>
      </trkpt>
      <trkpt lat="43.74371" lon="7.078">
        <ele>661</ele>
        <time>2013-01-05T10:19:35Z</time>
      </trkpt>
      <trkpt lat="43.7436" lon="7.07802">
        <ele>659</ele>
        <time>2013-01-05T10:19:40Z</time>
      </trkpt>
      <trkpt lat="43.74333" lon="7.07777">
        <ele>652</ele>
        <time>2013-01-05T10:19:50Z</time>
      </trkpt>
      <trkpt lat="43.74317" lon="7.07764">
        <ele>647</ele>
        <time>2013-01-05T10:19:55Z</time>
      </trkpt>
      <trkpt lat="43.74301" lon="7.07757">
        <ele>644</ele>
      </trkpt>
      <trkpt lat="43.74287" lon="7.07759">
        <ele>642</ele>
      </trkpt>
      <trkpt lat="43.74294" lon="7.07769">
        <ele>643</ele>
        <time>2013-01-05T10:20:05Z</time>
      </trkpt>
      <trkpt lat="43.74301" lon="7.07786">
        <ele>641</ele>
        <time>2013-01-05T10:20:11Z</time>
      </trkpt>
      <trkpt lat="43.74296" lon="7.07794">
        <ele>641</ele>
      </trkpt>
      <trkpt lat="43.74286" lon="7.07788">
        <ele>640.6</ele>
      </trkpt>
      <trkpt lat="43.74294" lon="7.07806">
        <ele>633</ele>
        <time>2013-01-05T10:20:27Z</time>
      </trkpt>
      <trkpt lat="43.74287" lon="7.07804">
        <ele>630</ele>
        <time>2013-01-05T10:20:32Z</time>
      </trkpt>
      <trkpt lat="43.74277" lon="7.07794">
        <ele>639.4</ele>
      </trkpt>
      <trkpt lat="43.7427" lon="7.07803">
        <ele>623</ele>
        <time>2013-01-05T10:21:10Z</time>
      </trkpt>
      <trkpt lat="43.74262" lon="7.07801">
        <ele>637.4</ele>
      </trkpt>
      <trkpt lat="43.74252" lon="7.0781">
        <ele>635</ele>
      </trkpt>
      <trkpt lat="43.74246" lon="7.07822">
        <ele>622</ele>
        <time>2013-01-05T10:22:18Z</time>
      </trkpt>
      <trkpt lat="43.74242" lon="7.07835">
        <ele>622</ele>
        <time>2013-01-05T10:22:23Z</time>
      </trkpt>
      <trkpt lat="43.74233" lon="7.0786">
        <ele>622</ele>
        <time>2013-01-05T10:22:33Z</time>
      </trkpt>
      <trkpt lat="43.7423" lon="7.0787">
        <ele>622</ele>
        <time>2013-01-05T10:22:38Z</time>
      </trkpt>
      <trkpt lat="43.74229" lon="7.07893">
        <ele>622</ele>
        <time>2013-01-05T10:22:48Z</time>
      </trkpt>
      <trkpt lat="43.74231" lon="7.07911">
        <ele>621</ele>
        <time>2013-01-05T10:22:53Z</time>
      </trkpt>
      <trkpt lat="43.74237" lon="7.07948">
        <ele>617</ele>
        <time>2013-01-05T10:23:03Z</time>
      </trkpt>
      <trkpt lat="43.74241" lon="7.07959">
        <ele>617</ele>
        <time>2013-01-05T10:23:08Z</time>
      </trkpt>
      <trkpt lat="43.74243" lon="7.0797">
        <ele>617</ele>
        <time>2013-01-05T10:23:20Z</time>
      </trkpt>
      <trkpt lat="43.7424" lon="7.07974">
        <ele>617</ele>
        <time>2013-01-05T10:23:25Z</time>
      </trkpt>
      <trkpt lat="43.74236" lon="7.07988">
        <ele>617</ele>
        <time>2013-01-05T10:23:36Z</time>
      </trkpt>
      <trkpt lat="43.74232" lon="7.07995">
        <ele>618</ele>
        <time>2013-01-05T10:23:42Z</time>
      </trkpt>
      <trkpt lat="43.74228" lon="7.08001">
        <ele>619</ele>
        <time>2013-01-05T10:23:47Z</time>
      </trkpt>
      <trkpt lat="43.7422" lon="7.08016">
        <ele>619</ele>
        <time>2013-01-05T10:23:57Z</time>
      </trkpt>
      <trkpt lat="43.74213" lon="7.08033">
        <ele>627.7</ele>
      </trkpt>
      <trkpt lat="43.74207" lon="7.08063">
        <ele>623</ele>
        <time>2013-01-05T10:24:12Z</time>
      </trkpt>
      <trkpt lat="43.74191" lon="7.08085">
        <ele>636.7</ele>
      </trkpt>
      <trkpt lat="43.7419" lon="7.08092">
        <ele>637</ele>
      </trkpt>
      <trkpt lat="43.74197" lon="7.08092">
        <ele>626</ele>
        <time>2013-01-05T10:24:57Z</time>
      </trkpt>
      <trkpt lat="43.74206" lon="7.08083">
        <ele>626</ele>
        <time>2013-01-05T10:25:09Z</time>
      </trkpt>
      <trkpt lat="43.74211" lon="7.0808">
        <ele>626</ele>
        <time>2013-01-05T10:25:15Z</time>
      </trkpt>
      <trkpt lat="43.74215" lon="7.08078">
        <ele>627</ele>
        <time>2013-01-05T10:25:21Z</time>
      </trkpt>
      <trkpt lat="43.74222" lon="7.08073">
        <ele>630</ele>
        <time>2013-01-05T10:25:33Z</time>
      </trkpt>
      <trkpt lat="43.74225" lon="7.08072">
        <ele>631</ele>
        <time>2013-01-05T10:25:39Z</time>
      </trkpt>
      <trkpt lat="43.74232" lon="7.08068">
        <ele>633</ele>
        <time>2013-01-05T10:25:50Z</time>
      </trkpt>
      <trkpt lat="43.74234" lon="7.08067">
        <ele>634</ele>
        <time>2013-01-05T10:25:55Z</time>
      </trkpt>
      <trkpt lat="43.74244" lon="7.08062">
        <ele>635</ele>
        <time>2013-01-05T10:26:05Z</time>
      </trkpt>
      <trkpt lat="43.74252" lon="7.08059">
        <ele>636</ele>
        <time>2013-01-05T10:26:10Z</time>
      </trkpt>
      <trkpt lat="43.74266" lon="7.08053">
        <ele>637</ele>
        <time>2013-01-05T10:26:20Z</time>
      </trkpt>
      <trkpt lat="43.74273" lon="7.08049">
        <ele>638</ele>
        <time>2013-01-05T10:26:26Z</time>
      </trkpt>
      <trkpt lat="43.74284" lon="7.0804">
        <ele>639</ele>
        <time>2013-01-05T10:26:37Z</time>
      </trkpt>
      <trkpt lat="43.74293" lon="7.08033">
        <ele>641</ele>
        <time>2013-01-05T10:26:49Z</time>
      </trkpt>
      <trkpt lat="43.74298" lon="7.08029">
        <ele>642</ele>
        <time>2013-01-05T10:27:09Z</time>
      </trkpt>
      <trkpt lat="43.74302" lon="7.08026">
        <ele>642</ele>
        <time>2013-01-05T10:27:15Z</time>
      </trkpt>
      <trkpt lat="43.74309" lon="7.08018">
        <ele>642</ele>
        <time>2013-01-05T10:27:26Z</time>
      </trkpt>
      <trkpt lat="43.74312" lon="7.08014">
        <ele>642</ele>
        <time>2013-01-05T10:27:32Z</time>
      </trkpt>
      <trkpt lat="43.74318" lon="7.08006">
        <ele>645</ele>
        <time>2013-01-05T10:27:44Z</time>
      </trkpt>
      <trkpt lat="43.74323" lon="7.07997">
        <ele>649</ele>
        <time>2013-01-05T10:28:02Z</time>
      </trkpt>
      <trkpt lat="43.74326" lon="7.07994">
        <ele>650</ele>
        <time>2013-01-05T10:28:09Z</time>
      </trkpt>
      <trkpt lat="43.74334" lon="7.07992">
        <ele>653</ele>
        <time>2013-01-05T10:28:26Z</time>
      </trkpt>
      <trkpt lat="43.74338" lon="7.0799">
        <ele>654</ele>
        <time>2013-01-05T10:28:33Z</time>
      </trkpt>
      <trkpt lat="43.74351" lon="7.07993">
        <ele>663</ele>
        <time>2013-01-05T10:29:14Z</time>
      </trkpt>
      <trkpt lat="43.74361" lon="7.07983">
        <ele>666</ele>
        <time>2013-01-05T10:29:33Z</time>
      </trkpt>
      <trkpt lat="43.74371" lon="7.07984">
        <ele>667</ele>
        <time>2013-01-05T10:29:50Z</time>
      </trkpt>
      <trkpt lat="43.74378" lon="7.07984">
        <ele>671</ele>
        <time>2013-01-05T10:30:02Z</time>
      </trkpt>
      <trkpt lat="43.74384" lon="7.07981">
        <ele>672</ele>
      </trkpt>
      <trkpt lat="43.74392" lon="7.0799">
        <ele>675</ele>
        <time>2013-01-05T10:30:32Z</time>
      </trkpt>
      <trkpt lat="43.74396" lon="7.07994">
        <ele>675</ele>
        <time>2013-01-05T10:30:46Z</time>
      </trkpt>
      <trkpt lat="43.74399" lon="7.07995">
        <ele>675</ele>
        <time>2013-01-05T10:30:52Z</time>
      </trkpt>
      <trkpt lat="43.74401" lon="7.08004">
        <ele>677</ele>
        <time>2013-01-05T10:31:04Z</time>
      </trkpt>
      <trkpt lat="43.74404" lon="7.08007">
        <ele>678</ele>
        <time>2013-01-05T10:31:10Z</time>
      </trkpt>
      <trkpt lat="43.74411" lon="7.08009">
        <ele>683</ele>
        <time>2013-01-05T10:31:26Z</time>
      </trkpt>
      <trkpt lat="43.74418" lon="7.07999">
        <ele>688</ele>
      </trkpt>
      <trkpt lat="43.74426" lon="7.07994">
        <ele>687</ele>
        <time>2013-01-05T10:33:50Z</time>
      </trkpt>
      <trkpt lat="43.74436" lon="7.07993">
        <ele>687</ele>
        <time>2013-01-05T10:34:00Z</time>
      </trkpt>
      <trkpt lat="43.74443" lon="7.07989">
        <ele>687</ele>
        <time>2013-01-05T10:34:06Z</time>
      </trkpt>
      <trkpt lat="43.74458" lon="7.07982">
        <ele>688</ele>
        <time>2013-01-05T10:34:17Z</time>
      </trkpt>
      <trkpt lat="43.74465" lon="7.07976">
        <ele>690</ele>
        <time>2013-01-05T10:34:22Z</time>
      </trkpt>
      <trkpt lat="43.7448" lon="7.07962">
        <ele>691</ele>
        <time>2013-01-05T10:34:32Z</time>
      </trkpt>
      <trkpt lat="43.74487" lon="7.07957">
        <ele>691</ele>
        <time>2013-01-05T10:34:37Z</time>
      </trkpt>
      <trkpt lat="43.74502" lon="7.07945">
        <ele>693</ele>
        <time>2013-01-05T10:34:47Z</time>
      </trkpt>
      <trkpt lat="43.74511" lon="7.07936">
        <ele>693</ele>
        <time>2013-01-05T10:34:52Z</time>
      </trkpt>
      <trkpt lat="43.74529" lon="7.07917">
        <ele>693</ele>
        <time>2013-01-05T10:35:02Z</time>
      </trkpt>
      <trkpt lat="43.74537" lon="7.07904">
        <ele>693</ele>
        <time>2013-01-05T10:35:07Z</time>
      </trkpt>
      <trkpt lat="43.74546" lon="7.07894">
        <ele>693</ele>
        <time>2013-01-05T10:35:12Z</time>
      </trkpt>
      <trkpt lat="43.74563" lon="7.07882">
        <ele>693</ele>
        <time>2013-01-05T10:35:22Z</time>
      </trkpt>
      <trkpt lat="43.74572" lon="7.07876">
        <ele>693</ele>
        <time>2013-01-05T10:35:27Z</time>
      </trkpt>
      <trkpt lat="43.74589" lon="7.07865">
        <ele>693</ele>
        <time>2013-01-05T10:35:37Z</time>
      </trkpt>
      <trkpt lat="43.74601" lon="7.07869">
        <ele>694</ele>
        <time>2013-01-05T10:35:43Z</time>
      </trkpt>
      <trkpt lat="43.74619" lon="7.07865">
        <ele>697</ele>
        <time>2013-01-05T10:35:53Z</time>
      </trkpt>
      <trkpt lat="43.74627" lon="7.07864">
        <ele>698</ele>
        <time>2013-01-05T10:35:58Z</time>
      </trkpt>
      <trkpt lat="43.74643" lon="7.07853">
        <ele>699</ele>
        <time>2013-01-05T10:36:08Z</time>
      </trkpt>
      <trkpt lat="43.7465" lon="7.07849">
        <ele>700</ele>
        <time>2013-01-05T10:36:13Z</time>
      </trkpt>
      <trkpt lat="43.74665" lon="7.07842">
        <ele>701</ele>
        <time>2013-01-05T10:36:24Z</time>
      </trkpt>
      <trkpt lat="43.74675" lon="7.0784">
        <ele>704</ele>
        <time>2013-01-05T10:36:42Z</time>
      </trkpt>
      <trkpt lat="43.74685" lon="7.07839">
        <ele>704</ele>
        <time>2013-01-05T10:36:52Z</time>
      </trkpt>
      <trkpt lat="43.74692" lon="7.07839">
        <ele>705</ele>
        <time>2013-01-05T10:36:57Z</time>
      </trkpt>
      <trkpt lat="43.74706" lon="7.07839">
        <ele>708</ele>
        <time>2013-01-05T10:37:07Z</time>
      </trkpt>
      <trkpt lat="43.74712" lon="7.07839">
        <ele>709</ele>
        <time>2013-01-05T10:37:13Z</time>
      </trkpt>
      <trkpt lat="43.74725" lon="7.07839">
        <ele>711</ele>
        <time>2013-01-05T10:37:23Z</time>
      </trkpt>
      <trkpt lat="43.74733" lon="7.07839">
        <ele>711</ele>
        <time>2013-01-05T10:37:28Z</time>
      </trkpt>
      <trkpt lat="43.74747" lon="7.07841">
        <ele>712</ele>
        <time>2013-01-05T10:37:39Z</time>
      </trkpt>
      <trkpt lat="43.74754" lon="7.07842">
        <ele>713</ele>
        <time>2013-01-05T10:37:44Z</time>
      </trkpt>
      <trkpt lat="43.74768" lon="7.07843">
        <ele>713</ele>
        <time>2013-01-05T10:37:54Z</time>
      </trkpt>
      <trkpt lat="43.74782" lon="7.07844">
        <ele>715</ele>
        <time>2013-01-05T10:38:04Z</time>
      </trkpt>
      <trkpt lat="43.74797" lon="7.07845">
        <ele>715</ele>
        <time>2013-01-05T10:38:14Z</time>
      </trkpt>
      <trkpt lat="43.74806" lon="7.07847">
        <ele>715</ele>
        <time>2013-01-05T10:38:20Z</time>
      </trkpt>
      <trkpt lat="43.7482" lon="7.07852">
        <ele>717</ele>
        <time>2013-01-05T10:38:30Z</time>
      </trkpt>
      <trkpt lat="43.74828" lon="7.07849">
        <ele>718</ele>
        <time>2013-01-05T10:38:35Z</time>
      </trkpt>
      <trkpt lat="43.74842" lon="7.0784">
        <ele>719</ele>
        <time>2013-01-05T10:38:45Z</time>
      </trkpt>
      <trkpt lat="43.74849" lon="7.07833">
        <ele>719</ele>
        <time>2013-01-05T10:38:51Z</time>
      </trkpt>
      <trkpt lat="43.74863" lon="7.07822">
        <ele>721</ele>
        <time>2013-01-05T10:39:02Z</time>
      </trkpt>
      <trkpt lat="43.74871" lon="7.07818">
        <ele>721</ele>
        <time>2013-01-05T10:39:08Z</time>
      </trkpt>
      <trkpt lat="43.74884" lon="7.0781">
        <ele>722</ele>
        <time>2013-01-05T10:39:18Z</time>
      </trkpt>
      <trkpt lat="43.74892" lon="7.07806">
        <ele>722</ele>
        <time>2013-01-05T10:39:23Z</time>
      </trkpt>
      <trkpt lat="43.749" lon="7.07803">
        <ele>723</ele>
        <time>2013-01-05T10:39:28Z</time>
      </trkpt>
      <trkpt lat="43.74916" lon="7.07794">
        <ele>724</ele>
        <time>2013-01-05T10:39:39Z</time>
      </trkpt>
      <trkpt lat="43.74924" lon="7.0779">
        <ele>724</ele>
        <time>2013-01-05T10:39:44Z</time>
      </trkpt>
      <trkpt lat="43.74942" lon="7.07782">
        <ele>725</ele>
        <time>2013-01-05T10:39:56Z</time>
      </trkpt>
      <trkpt lat="43.7495" lon="7.07778">
        <ele>726</ele>
        <time>2013-01-05T10:40:01Z</time>
      </trkpt>
      <trkpt lat="43.74967" lon="7.07772">
        <ele>728</ele>
        <time>2013-01-05T10:40:12Z</time>
      </trkpt>
      <trkpt lat="43.74974" lon="7.0777">
        <ele>728</ele>
        <time>2013-01-05T10:40:17Z</time>
      </trkpt>
      <trkpt lat="43.7499" lon="7.07776">
        <ele>731</ele>
        <time>2013-01-05T10:40:28Z</time>
      </trkpt>
      <trkpt lat="43.74998" lon="7.07778">
        <ele>733</ele>
        <time>2013-01-05T10:40:33Z</time>
      </trkpt>
      <trkpt lat="43.75011" lon="7.07781">
        <ele>736</ele>
        <time>2013-01-05T10:40:44Z</time>
      </trkpt>
      <trkpt lat="43.75016" lon="7.07783">
        <ele>737</ele>
        <time>2013-01-05T10:40:49Z</time>
      </trkpt>
      <trkpt lat="43.75029" lon="7.07788">
        <ele>739</ele>
        <time>2013-01-05T10:40:59Z</time>
      </trkpt>
      <trkpt lat="43.75035" lon="7.07791">
        <ele>740</ele>
        <time>2013-01-05T10:41:04Z</time>
      </trkpt>
      <trkpt lat="43.75042" lon="7.07792">
        <ele>741</ele>
        <time>2013-01-05T10:41:09Z</time>
      </trkpt>
      <trkpt lat="43.75055" lon="7.07792">
        <ele>742</ele>
        <time>2013-01-05T10:41:19Z</time>
      </trkpt>
      <trkpt lat="43.75061" lon="7.0779">
        <ele>742</ele>
        <time>2013-01-05T10:41:24Z</time>
      </trkpt>
      <trkpt lat="43.75073" lon="7.07784">
        <ele>742</ele>
        <time>2013-01-05T10:41:34Z</time>
      </trkpt>
      <trkpt lat="43.75081" lon="7.0778">
        <ele>743</ele>
        <time>2013-01-05T10:41:40Z</time>
      </trkpt>
      <trkpt lat="43.75093" lon="7.0778">
        <ele>745</ele>
        <time>2013-01-05T10:41:50Z</time>
      </trkpt>
      <trkpt lat="43.751" lon="7.07782">
        <ele>746</ele>
        <time>2013-01-05T10:41:55Z</time>
      </trkpt>
      <trkpt lat="43.75111" lon="7.07789">
        <ele>748</ele>
        <time>2013-01-05T10:42:05Z</time>
      </trkpt>
      <trkpt lat="43.75116" lon="7.07795">
        <ele>749</ele>
        <time>2013-01-05T10:42:11Z</time>
      </trkpt>
      <trkpt lat="43.75123" lon="7.07799">
        <ele>752</ele>
        <time>2013-01-05T10:42:23Z</time>
      </trkpt>
      <trkpt lat="43.75133" lon="7.07802">
        <ele>752</ele>
        <time>2013-01-05T10:42:35Z</time>
      </trkpt>
      <trkpt lat="43.75142" lon="7.07804">
        <ele>752</ele>
        <time>2013-01-05T10:42:47Z</time>
      </trkpt>
      <trkpt lat="43.75146" lon="7.07806">
        <ele>753</ele>
        <time>2013-01-05T10:42:53Z</time>
      </trkpt>
      <trkpt lat="43.75157" lon="7.07808">
        <ele>754</ele>
        <time>2013-01-05T10:43:04Z</time>
      </trkpt>
      <trkpt lat="43.75163" lon="7.0781">
        <ele>754</ele>
        <time>2013-01-05T10:43:10Z</time>
      </trkpt>
      <trkpt lat="43.75172" lon="7.07813">
        <ele>755</ele>
        <time>2013-01-05T10:43:22Z</time>
      </trkpt>
      <trkpt lat="43.75177" lon="7.07814">
        <ele>755</ele>
        <time>2013-01-05T10:43:28Z</time>
      </trkpt>
      <trkpt lat="43.75187" lon="7.07817">
        <ele>757</ele>
        <time>2013-01-05T10:43:39Z</time>
      </trkpt>
      <trkpt lat="43.75191" lon="7.07818">
        <ele>758</ele>
        <time>2013-01-05T10:43:45Z</time>
      </trkpt>
      <trkpt lat="43.752" lon="7.07821">
        <ele>759</ele>
        <time>2013-01-05T10:43:57Z</time>
      </trkpt>
      <trkpt lat="43.75208" lon="7.07826">
        <ele>761</ele>
        <time>2013-01-05T10:44:10Z</time>
      </trkpt>
      <trkpt lat="43.75221" lon="7.07834">
        <ele>776.8</ele>
      </trkpt>
      <trkpt lat="43.75237" lon="7.07844">
        <ele>777.6</ele>
      </trkpt>
      <trkpt lat="43.75243" lon="7.07852">
        <ele>778.2</ele>
      </trkpt>
      <trkpt lat="43.75234" lon="7.07857">
        <ele>778</ele>
      </trkpt>
      <trkpt lat="43.7523" lon="7.07863">
        <ele>778.7</ele>
      </trkpt>
      <trkpt lat="43.75239" lon="7.07873">
        <ele>776</ele>
        <time>2013-01-05T10:45:34Z</time>
      </trkpt>
      <trkpt lat="43.75244" lon="7.07881">
        <ele>779</ele>
        <time>2013-01-05T10:45:46Z</time>
      </trkpt>
      <trkpt lat="43.75248" lon="7.07891">
        <ele>783</ele>
        <time>2013-01-05T10:45:57Z</time>
      </trkpt>
      <trkpt lat="43.75249" lon="7.07894">
        <ele>784</ele>
        <time>2013-01-05T10:46:03Z</time>
      </trkpt>
      <trkpt lat="43.75251" lon="7.07903">
        <ele>784</ele>
        <time>2013-01-05T10:46:15Z</time>
      </trkpt>
      <trkpt lat="43.75253" lon="7.07909">
        <ele>786</ele>
        <time>2013-01-05T10:46:22Z</time>
      </trkpt>
      <trkpt lat="43.75254" lon="7.07924">
        <ele>788</ele>
        <time>2013-01-05T10:46:38Z</time>
      </trkpt>
      <trkpt lat="43.75261" lon="7.07937">
        <ele>790</ele>
        <time>2013-01-05T10:46:50Z</time>
      </trkpt>
      <trkpt lat="43.75264" lon="7.07943">
        <ele>791</ele>
        <time>2013-01-05T10:46:56Z</time>
      </trkpt>
      <trkpt lat="43.75269" lon="7.07957">
        <ele>793</ele>
        <time>2013-01-05T10:47:10Z</time>
      </trkpt>
      <trkpt lat="43.75271" lon="7.07961">
        <ele>795</ele>
        <time>2013-01-05T10:47:16Z</time>
      </trkpt>
      <trkpt lat="43.75274" lon="7.07976">
        <ele>796</ele>
        <time>2013-01-05T10:47:33Z</time>
      </trkpt>
      <trkpt lat="43.75275" lon="7.07984">
        <ele>797</ele>
        <time>2013-01-05T10:47:39Z</time>
      </trkpt>
      <trkpt lat="43.75273" lon="7.08004">
        <ele>800</ele>
        <time>2013-01-05T10:47:55Z</time>
      </trkpt>
      <trkpt lat="43.75278" lon="7.08018">
        <ele>804</ele>
        <time>2013-01-05T10:48:07Z</time>
      </trkpt>
      <trkpt lat="43.75279" lon="7.08023">
        <ele>804</ele>
        <time>2013-01-05T10:48:15Z</time>
      </trkpt>
      <trkpt lat="43.75277" lon="7.0804">
        <ele>806</ele>
        <time>2013-01-05T10:48:25Z</time>
      </trkpt>
      <trkpt lat="43.75274" lon="7.0805">
        <ele>807</ele>
        <time>2013-01-05T10:48:31Z</time>
      </trkpt>
      <trkpt lat="43.75276" lon="7.08065">
        <ele>808</ele>
        <time>2013-01-05T10:50:45Z</time>
      </trkpt>
      <trkpt lat="43.75287" lon="7.08067">
        <ele>808</ele>
        <time>2013-01-05T10:51:52Z</time>
      </trkpt>
      <trkpt lat="43.75293" lon="7.0807">
        <ele>808</ele>
        <time>2013-01-05T10:51:57Z</time>
      </trkpt>
      <trkpt lat="43.75307" lon="7.08076">
        <ele>808</ele>
        <time>2013-01-05T10:52:07Z</time>
      </trkpt>
      <trkpt lat="43.75315" lon="7.08079">
        <ele>809</ele>
        <time>2013-01-05T10:52:13Z</time>
      </trkpt>
      <trkpt lat="43.75328" lon="7.08083">
        <ele>811</ele>
        <time>2013-01-05T10:52:23Z</time>
      </trkpt>
      <trkpt lat="43.75339" lon="7.08084">
        <ele>814</ele>
        <time>2013-01-05T10:52:33Z</time>
      </trkpt>
      <trkpt lat="43.75348" lon="7.08098">
        <ele>817</ele>
        <time>2013-01-05T10:52:44Z</time>
      </trkpt>
      <trkpt lat="43.75354" lon="7.08103">
        <ele>818</ele>
        <time>2013-01-05T10:52:50Z</time>
      </trkpt>
      <trkpt lat="43.75364" lon="7.08111">
        <ele>820</ele>
        <time>2013-01-05T10:53:01Z</time>
      </trkpt>
      <trkpt lat="43.75369" lon="7.08114">
        <ele>821</ele>
        <time>2013-01-05T10:53:07Z</time>
      </trkpt>
      <trkpt lat="43.75373" lon="7.08119">
        <ele>821</ele>
        <time>2013-01-05T10:53:17Z</time>
      </trkpt>
      <trkpt lat="43.75377" lon="7.08123">
        <ele>822</ele>
        <time>2013-01-05T10:53:22Z</time>
      </trkpt>
      <trkpt lat="43.75384" lon="7.08135">
        <ele>823</ele>
        <time>2013-01-05T10:53:33Z</time>
      </trkpt>
      <trkpt lat="43.75389" lon="7.08138">
        <ele>824</ele>
        <time>2013-01-05T10:53:39Z</time>
      </trkpt>
      <trkpt lat="43.754" lon="7.0814">
        <ele>824</ele>
        <time>2013-01-05T10:53:51Z</time>
      </trkpt>
      <trkpt lat="43.75405" lon="7.08142">
        <ele>824</ele>
        <time>2013-01-05T10:53:57Z</time>
      </trkpt>
      <trkpt lat="43.7541" lon="7.08146">
        <ele>824</ele>
        <time>2013-01-05T10:54:03Z</time>
      </trkpt>
      <trkpt lat="43.7542" lon="7.08154">
        <ele>825</ele>
        <time>2013-01-05T10:54:14Z</time>
      </trkpt>
      <trkpt lat="43.75425" lon="7.08158">
        <ele>826</ele>
        <time>2013-01-05T10:54:20Z</time>
      </trkpt>
      <trkpt lat="43.75433" lon="7.08165">
        <ele>828</ele>
        <time>2013-01-05T10:54:31Z</time>
      </trkpt>
      <trkpt lat="43.75438" lon="7.08168">
        <ele>829</ele>
        <time>2013-01-05T10:54:37Z</time>
      </trkpt>
      <trkpt lat="43.75443" lon="7.08172">
        <ele>830</ele>
        <time>2013-01-05T10:54:54Z</time>
      </trkpt>
      <trkpt lat="43.75449" lon="7.08176">
        <ele>831</ele>
        <time>2013-01-05T10:54:59Z</time>
      </trkpt>
      <trkpt lat="43.7546" lon="7.08183">
        <ele>833</ele>
        <time>2013-01-05T10:55:09Z</time>
      </trkpt>
      <trkpt lat="43.75465" lon="7.08186">
        <ele>833</ele>
        <time>2013-01-05T10:55:14Z</time>
      </trkpt>
      <trkpt lat="43.75476" lon="7.08181">
        <ele>834</ele>
        <time>2013-01-05T10:55:24Z</time>
      </trkpt>
      <trkpt lat="43.75483" lon="7.08178">
        <ele>835</ele>
        <time>2013-01-05T10:55:29Z</time>
      </trkpt>
      <trkpt lat="43.75489" lon="7.08174">
        <ele>836</ele>
        <time>2013-01-05T10:55:35Z</time>
      </trkpt>
      <trkpt lat="43.75501" lon="7.08171">
        <ele>838</ele>
        <time>2013-01-05T10:55:45Z</time>
      </trkpt>
      <trkpt lat="43.75508" lon="7.08171">
        <ele>839</ele>
        <time>2013-01-05T10:55:51Z</time>
      </trkpt>
      <trkpt lat="43.7552" lon="7.08174">
        <ele>841</ele>
        <time>2013-01-05T10:56:02Z</time>
      </trkpt>
      <trkpt lat="43.75526" lon="7.08176">
        <ele>842</ele>
        <time>2013-01-05T10:56:08Z</time>
      </trkpt>
      <trkpt lat="43.75539" lon="7.08174">
        <ele>843</ele>
        <time>2013-01-05T10:56:20Z</time>
      </trkpt>
      <trkpt lat="43.75545" lon="7.08171">
        <ele>843</ele>
        <time>2013-01-05T10:56:25Z</time>
      </trkpt>
      <trkpt lat="43.75551" lon="7.0817">
        <ele>844</ele>
        <time>2013-01-05T10:56:35Z</time>
      </trkpt>
      <trkpt lat="43.75556" lon="7.08171">
        <ele>844</ele>
        <time>2013-01-05T10:56:41Z</time>
      </trkpt>
      <trkpt lat="43.75566" lon="7.08171">
        <ele>845</ele>
        <time>2013-01-05T10:56:52Z</time>
      </trkpt>
      <trkpt lat="43.75572" lon="7.08171">
        <ele>845</ele>
        <time>2013-01-05T10:56:57Z</time>
      </trkpt>
      <trkpt lat="43.75583" lon="7.08171">
        <ele>845</ele>
        <time>2013-01-05T10:57:08Z</time>
      </trkpt>
      <trkpt lat="43.75588" lon="7.08171">
        <ele>845</ele>
        <time>2013-01-05T10:57:13Z</time>
      </trkpt>
      <trkpt lat="43.75593" lon="7.0817">
        <ele>846</ele>
        <time>2013-01-05T10:57:19Z</time>
      </trkpt>
      <trkpt lat="43.75602" lon="7.08168">
        <ele>846</ele>
        <time>2013-01-05T10:57:29Z</time>
      </trkpt>
      <trkpt lat="43.75607" lon="7.08168">
        <ele>847</ele>
        <time>2013-01-05T10:57:35Z</time>
      </trkpt>
      <trkpt lat="43.75616" lon="7.08169">
        <ele>848</ele>
        <time>2013-01-05T10:57:47Z</time>
      </trkpt>
      <trkpt lat="43.75622" lon="7.08169">
        <ele>849</ele>
        <time>2013-01-05T10:57:52Z</time>
      </trkpt>
      <trkpt lat="43.75632" lon="7.08169">
        <ele>852</ele>
        <time>2013-01-05T10:58:02Z</time>
      </trkpt>
      <trkpt lat="43.75638" lon="7.08169">
        <ele>853</ele>
        <time>2013-01-05T10:58:07Z</time>
      </trkpt>
      <trkpt lat="43.75649" lon="7.0817">
        <ele>854</ele>
        <time>2013-01-05T10:58:18Z</time>
      </trkpt>
      <trkpt lat="43.75655" lon="7.0817">
        <ele>855</ele>
        <time>2013-01-05T10:58:23Z</time>
      </trkpt>
      <trkpt lat="43.75666" lon="7.08171">
        <ele>857</ele>
        <time>2013-01-05T10:58:33Z</time>
      </trkpt>
      <trkpt lat="43.75672" lon="7.08172">
        <ele>857</ele>
        <time>2013-01-05T10:58:38Z</time>
      </trkpt>
      <trkpt lat="43.75676" lon="7.08172">
        <ele>858</ele>
        <time>2013-01-05T10:58:43Z</time>
      </trkpt>
      <trkpt lat="43.75684" lon="7.08172">
        <ele>860</ele>
        <time>2013-01-05T10:58:53Z</time>
      </trkpt>
      <trkpt lat="43.75689" lon="7.0817">
        <ele>860</ele>
        <time>2013-01-05T10:58:59Z</time>
      </trkpt>
      <trkpt lat="43.75699" lon="7.08166">
        <ele>861</ele>
        <time>2013-01-05T10:59:11Z</time>
      </trkpt>
      <trkpt lat="43.75704" lon="7.08166">
        <ele>861</ele>
        <time>2013-01-05T10:59:17Z</time>
      </trkpt>
      <trkpt lat="43.75714" lon="7.08165">
        <ele>861</ele>
        <time>2013-01-05T10:59:29Z</time>
      </trkpt>
      <trkpt lat="43.75719" lon="7.08164">
        <ele>861</ele>
        <time>2013-01-05T10:59:35Z</time>
      </trkpt>
      <trkpt lat="43.75729" lon="7.08156">
        <ele>863</ele>
        <time>2013-01-05T10:59:53Z</time>
      </trkpt>
      <trkpt lat="43.75723" lon="7.08145">
        <ele>863</ele>
        <time>2013-01-05T11:00:05Z</time>
      </trkpt>
      <trkpt lat="43.7572" lon="7.08139">
        <ele>864</ele>
        <time>2013-01-05T11:00:11Z</time>
      </trkpt>
      <trkpt lat="43.75717" lon="7.08133">
        <ele>864</ele>
        <time>2013-01-05T11:00:17Z</time>
      </trkpt>
      <trkpt lat="43.75711" lon="7.0812">
        <ele>865</ele>
        <time>2013-01-05T11:00:29Z</time>
      </trkpt>
      <trkpt lat="43.75708" lon="7.08113">
        <ele>866</ele>
        <time>2013-01-05T11:00:35Z</time>
      </trkpt>
      <trkpt lat="43.75716" lon="7.08107">
        <ele>868</ele>
        <time>2013-01-05T11:00:47Z</time>
      </trkpt>
      <trkpt lat="43.75721" lon="7.08105">
        <ele>869</ele>
        <time>2013-01-05T11:00:53Z</time>
      </trkpt>
      <trkpt lat="43.75732" lon="7.08106">
        <ele>872</ele>
        <time>2013-01-05T11:01:05Z</time>
      </trkpt>
      <trkpt lat="43.75737" lon="7.08103">
        <ele>873</ele>
        <time>2013-01-05T11:01:12Z</time>
      </trkpt>
      <trkpt lat="43.75747" lon="7.08099">
        <ele>875</ele>
        <time>2013-01-05T11:01:24Z</time>
      </trkpt>
      <trkpt lat="43.75755" lon="7.08084">
        <ele>880</ele>
        <time>2013-01-05T11:01:42Z</time>
      </trkpt>
      <trkpt lat="43.75746" lon="7.08079">
        <ele>886.7</ele>
      </trkpt>
      <trkpt lat="43.7574" lon="7.08064">
        <ele>886</ele>
        <time>2013-01-05T11:06:36Z</time>
      </trkpt>
      <trkpt lat="43.75733" lon="7.08057">
        <ele>886</ele>
        <time>2013-01-05T11:06:41Z</time>
      </trkpt>
      <trkpt lat="43.75718" lon="7.08046">
        <ele>886</ele>
        <time>2013-01-05T11:06:51Z</time>
      </trkpt>
      <trkpt lat="43.75711" lon="7.0804">
        <ele>886</ele>
        <time>2013-01-05T11:06:56Z</time>
      </trkpt>
      <trkpt lat="43.75696" lon="7.08025">
        <ele>886</ele>
        <time>2013-01-05T11:07:06Z</time>
      </trkpt>
      <trkpt lat="43.75691" lon="7.08016">
        <ele>886</ele>
        <time>2013-01-05T11:07:11Z</time>
      </trkpt>
      <trkpt lat="43.75686" lon="7.07994">
        <ele>886</ele>
        <time>2013-01-05T11:07:21Z</time>
      </trkpt>
      <trkpt lat="43.75684" lon="7.07982">
        <ele>886</ele>
        <time>2013-01-05T11:07:26Z</time>
      </trkpt>
      <trkpt lat="43.75682" lon="7.07957">
        <ele>886</ele>
        <time>2013-01-05T11:07:36Z</time>
      </trkpt>
      <trkpt lat="43.75681" lon="7.07944">
        <ele>887</ele>
        <time>2013-01-05T11:07:41Z</time>
      </trkpt>
      <trkpt lat="43.75679" lon="7.07919">
        <ele>888</ele>
        <time>2013-01-05T11:07:51Z</time>
      </trkpt>
      <trkpt lat="43.75677" lon="7.07906">
        <ele>889</ele>
        <time>2013-01-05T11:07:56Z</time>
      </trkpt>
      <trkpt lat="43.75676" lon="7.07893">
        <ele>889</ele>
        <time>2013-01-05T11:08:01Z</time>
      </trkpt>
      <trkpt lat="43.75674" lon="7.07868">
        <ele>891</ele>
        <time>2013-01-05T11:08:11Z</time>
      </trkpt>
      <trkpt lat="43.75674" lon="7.07854">
        <ele>892</ele>
        <time>2013-01-05T11:08:16Z</time>
      </trkpt>
      <trkpt lat="43.75672" lon="7.07825">
        <ele>894</ele>
        <time>2013-01-05T11:08:26Z</time>
      </trkpt>
      <trkpt lat="43.75671" lon="7.07811">
        <ele>895</ele>
        <time>2013-01-05T11:08:31Z</time>
      </trkpt>
      <trkpt lat="43.75671" lon="7.07784">
        <ele>898</ele>
        <time>2013-01-05T11:08:41Z</time>
      </trkpt>
      <trkpt lat="43.75671" lon="7.0777">
        <ele>899</ele>
        <time>2013-01-05T11:08:46Z</time>
      </trkpt>
      <trkpt lat="43.75675" lon="7.07742">
        <ele>901</ele>
        <time>2013-01-05T11:08:56Z</time>
      </trkpt>
      <trkpt lat="43.75678" lon="7.07728">
        <ele>902</ele>
        <time>2013-01-05T11:09:01Z</time>
      </trkpt>
      <trkpt lat="43.75687" lon="7.07702">
        <ele>904</ele>
        <time>2013-01-05T11:09:11Z</time>
      </trkpt>
      <trkpt lat="43.75691" lon="7.07689">
        <ele>905</ele>
        <time>2013-01-05T11:09:16Z</time>
      </trkpt>
      <trkpt lat="43.75695" lon="7.07677">
        <ele>906</ele>
        <time>2013-01-05T11:09:21Z</time>
      </trkpt>
      <trkpt lat="43.75703" lon="7.07651">
        <ele>907</ele>
        <time>2013-01-05T11:09:31Z</time>
      </trkpt>
      <trkpt lat="43.75708" lon="7.07638">
        <ele>908</ele>
        <time>2013-01-05T11:09:36Z</time>
      </trkpt>
      <trkpt lat="43.75716" lon="7.07612">
        <ele>910</ele>
        <time>2013-01-05T11:09:46Z</time>
      </trkpt>
      <trkpt lat="43.75718" lon="7.07596">
        <ele>912</ele>
        <time>2013-01-05T11:09:51Z</time>
      </trkpt>
      <trkpt lat="43.75721" lon="7.07568">
        <ele>914</ele>
        <time>2013-01-05T11:10:01Z</time>
      </trkpt>
      <trkpt lat="43.75721" lon="7.07554">
        <ele>915</ele>
        <time>2013-01-05T11:10:06Z</time>
      </trkpt>
      <trkpt lat="43.75723" lon="7.07527">
        <ele>916</ele>
        <time>2013-01-05T11:10:16Z</time>
      </trkpt>
      <trkpt lat="43.75721" lon="7.07513">
        <ele>917</ele>
        <time>2013-01-05T11:10:21Z</time>
      </trkpt>
      <trkpt lat="43.75716" lon="7.07486">
        <ele>917</ele>
        <time>2013-01-05T11:10:31Z</time>
      </trkpt>
      <trkpt lat="43.75714" lon="7.07471">
        <ele>918</ele>
        <time>2013-01-05T11:10:36Z</time>
      </trkpt>
      <trkpt lat="43.75719" lon="7.07458">
        <ele>918</ele>
        <time>2013-01-05T11:10:41Z</time>
      </trkpt>
      <trkpt lat="43.75737" lon="7.07465">
        <ele>920</ele>
        <time>2013-01-05T11:10:51Z</time>
      </trkpt>
      <trkpt lat="43.75745" lon="7.07478">
        <ele>920</ele>
        <time>2013-01-05T11:10:56Z</time>
      </trkpt>
      <trkpt lat="43.75756" lon="7.07505">
        <ele>923</ele>
        <time>2013-01-05T11:11:06Z</time>
      </trkpt>
      <trkpt lat="43.75759" lon="7.07519">
        <ele>924</ele>
        <time>2013-01-05T11:11:11Z</time>
      </trkpt>
      <trkpt lat="43.75765" lon="7.07547">
        <ele>927</ele>
        <time>2013-01-05T11:11:21Z</time>
      </trkpt>
      <trkpt lat="43.75768" lon="7.07561">
        <ele>928</ele>
        <time>2013-01-05T11:11:26Z</time>
      </trkpt>
      <trkpt lat="43.75774" lon="7.0759">
        <ele>930</ele>
        <time>2013-01-05T11:11:36Z</time>
      </trkpt>
      <trkpt lat="43.75777" lon="7.07603">
        <ele>930</ele>
        <time>2013-01-05T11:11:41Z</time>
      </trkpt>
      <trkpt lat="43.75782" lon="7.07631">
        <ele>932</ele>
        <time>2013-01-05T11:11:51Z</time>
      </trkpt>
      <trkpt lat="43.75785" lon="7.07645">
        <ele>933</ele>
        <time>2013-01-05T11:11:56Z</time>
      </trkpt>
      <trkpt lat="43.7579" lon="7.07659">
        <ele>934</ele>
        <time>2013-01-05T11:12:01Z</time>
      </trkpt>
      <trkpt lat="43.75803" lon="7.0768">
        <ele>936</ele>
        <time>2013-01-05T11:12:11Z</time>
      </trkpt>
      <trkpt lat="43.75811" lon="7.07688">
        <ele>937</ele>
        <time>2013-01-05T11:12:16Z</time>
      </trkpt>
      <trkpt lat="43.75831" lon="7.07699">
        <ele>938</ele>
        <time>2013-01-05T11:12:26Z</time>
      </trkpt>
      <trkpt lat="43.75841" lon="7.07702">
        <ele>938</ele>
        <time>2013-01-05T11:12:31Z</time>
      </trkpt>
      <trkpt lat="43.7586" lon="7.07705">
        <ele>939</ele>
        <time>2013-01-05T11:12:41Z</time>
      </trkpt>
      <trkpt lat="43.7587" lon="7.07703">
        <ele>939</ele>
        <time>2013-01-05T11:12:46Z</time>
      </trkpt>
      <trkpt lat="43.7589" lon="7.07689">
        <ele>941</ele>
        <time>2013-01-05T11:12:56Z</time>
      </trkpt>
      <trkpt lat="43.75898" lon="7.07679">
        <ele>941</ele>
        <time>2013-01-05T11:13:01Z</time>
      </trkpt>
      <trkpt lat="43.75912" lon="7.07656">
        <ele>942</ele>
        <time>2013-01-05T11:13:11Z</time>
      </trkpt>
      <trkpt lat="43.75918" lon="7.07645">
        <ele>943</ele>
        <time>2013-01-05T11:13:16Z</time>
      </trkpt>
      <trkpt lat="43.7593" lon="7.07624">
        <ele>944</ele>
        <time>2013-01-05T11:13:26Z</time>
      </trkpt>
      <trkpt lat="43.75937" lon="7.07615">
        <ele>944</ele>
        <time>2013-01-05T11:13:31Z</time>
      </trkpt>
      <trkpt lat="43.75945" lon="7.07604">
        <ele>944</ele>
        <time>2013-01-05T11:13:36Z</time>
      </trkpt>
      <trkpt lat="43.75961" lon="7.07582">
        <ele>946</ele>
        <time>2013-01-05T11:13:46Z</time>
      </trkpt>
      <trkpt lat="43.75968" lon="7.07572">
        <ele>946</ele>
        <time>2013-01-05T11:13:51Z</time>
      </trkpt>
      <trkpt lat="43.75987" lon="7.07559">
        <ele>947</ele>
        <time>2013-01-05T11:14:01Z</time>
      </trkpt>
      <trkpt lat="43.75998" lon="7.07555">
        <ele>948</ele>
        <time>2013-01-05T11:14:06Z</time>
      </trkpt>
      <trkpt lat="43.76019" lon="7.07548">
        <ele>951</ele>
        <time>2013-01-05T11:14:17Z</time>
      </trkpt>
      <trkpt lat="43.7602" lon="7.07548">
        <ele>952</ele>
        <time>2013-01-05T11:14:30Z</time>
      </trkpt>
      <trkpt lat="43.76022" lon="7.07547">
        <ele>952</ele>
        <time>2013-01-05T11:15:04Z</time>
      </trkpt>
      <trkpt lat="43.76023" lon="7.07545">
        <ele>952</ele>
        <time>2013-01-05T11:15:22Z</time>
      </trkpt>
      <trkpt lat="43.76035" lon="7.07538">
        <ele>952</ele>
        <time>2013-01-05T11:15:32Z</time>
      </trkpt>
      <trkpt lat="43.76043" lon="7.07533">
        <ele>953</ele>
        <time>2013-01-05T11:15:37Z</time>
      </trkpt>
      <trkpt lat="43.76051" lon="7.07527">
        <ele>953</ele>
        <time>2013-01-05T11:15:42Z</time>
      </trkpt>
      <trkpt lat="43.76069" lon="7.07513">
        <ele>954</ele>
        <time>2013-01-05T11:15:52Z</time>
      </trkpt>
      <trkpt lat="43.76076" lon="7.07508">
        <ele>954</ele>
        <time>2013-01-05T11:15:57Z</time>
      </trkpt>
      <trkpt lat="43.76087" lon="7.075">
        <ele>954</ele>
        <time>2013-01-05T11:16:08Z</time>
      </trkpt>
      <trkpt lat="43.76088" lon="7.07499">
        <ele>956</ele>
        <time>2013-01-05T11:17:01Z</time>
      </trkpt>
      <trkpt lat="43.76089" lon="7.07484">
        <ele>956</ele>
        <time>2013-01-05T11:17:50Z</time>
      </trkpt>
      <trkpt lat="43.76081" lon="7.07457">
        <ele>956</ele>
        <time>2013-01-05T11:17:55Z</time>
      </trkpt>
      <trkpt lat="43.76091" lon="7.07426">
        <ele>956</ele>
        <time>2013-01-05T11:18:10Z</time>
      </trkpt>
      <trkpt lat="43.76096" lon="7.07416">
        <ele>963</ele>
      </trkpt>
      <trkpt lat="43.76103" lon="7.07413">
        <ele>956</ele>
        <time>2013-01-05T11:18:33Z</time>
      </trkpt>
      <trkpt lat="43.76111" lon="7.07403">
        <ele>956</ele>
        <time>2013-01-05T11:18:38Z</time>
      </trkpt>
      <trkpt lat="43.76126" lon="7.07346">
        <ele>955</ele>
        <time>2013-01-05T11:18:48Z</time>
      </trkpt>
      <trkpt lat="43.76129" lon="7.07306">
        <ele>953</ele>
        <time>2013-01-05T11:18:53Z</time>
      </trkpt>
      <trkpt lat="43.76112" lon="7.0725">
        <ele>951</ele>
        <time>2013-01-05T11:19:03Z</time>
      </trkpt>
      <trkpt lat="43.76105" lon="7.07247">
        <ele>951</ele>
        <time>2013-01-05T11:19:08Z</time>
      </trkpt>
      <trkpt lat="43.7609" lon="7.0724">
        <ele>951</ele>
        <time>2013-01-05T11:19:18Z</time>
      </trkpt>
      <trkpt lat="43.76084" lon="7.07236">
        <ele>951</ele>
        <time>2013-01-05T11:19:23Z</time>
      </trkpt>
      <trkpt lat="43.7607" lon="7.07232">
        <ele>952</ele>
        <time>2013-01-05T11:19:33Z</time>
      </trkpt>
      <trkpt lat="43.76063" lon="7.07233">
        <ele>952</ele>
        <time>2013-01-05T11:19:38Z</time>
      </trkpt>
      <trkpt lat="43.76049" lon="7.07235">
        <ele>953</ele>
        <time>2013-01-05T11:19:49Z</time>
      </trkpt>
      <trkpt lat="43.76043" lon="7.07241">
        <ele>953</ele>
        <time>2013-01-05T11:19:54Z</time>
      </trkpt>
      <trkpt lat="43.76037" lon="7.07243">
        <ele>954</ele>
        <time>2013-01-05T11:19:59Z</time>
      </trkpt>
      <trkpt lat="43.76025" lon="7.07244">
        <ele>955</ele>
        <time>2013-01-05T11:20:09Z</time>
      </trkpt>
      <trkpt lat="43.76018" lon="7.07244">
        <ele>955</ele>
        <time>2013-01-05T11:20:14Z</time>
      </trkpt>
      <trkpt lat="43.76011" lon="7.07222">
        <ele>956</ele>
        <time>2013-01-05T11:20:24Z</time>
      </trkpt>
      <trkpt lat="43.76013" lon="7.07207">
        <ele>956</ele>
        <time>2013-01-05T11:20:29Z</time>
      </trkpt>
      <trkpt lat="43.76002" lon="7.07188">
        <ele>957</ele>
        <time>2013-01-05T11:20:39Z</time>
      </trkpt>
      <trkpt lat="43.75996" lon="7.07183">
        <ele>958</ele>
        <time>2013-01-05T11:20:44Z</time>
      </trkpt>
      <trkpt lat="43.75981" lon="7.07173">
        <ele>959</ele>
        <time>2013-01-05T11:20:54Z</time>
      </trkpt>
      <trkpt lat="43.75973" lon="7.07168">
        <ele>959</ele>
        <time>2013-01-05T11:20:59Z</time>
      </trkpt>
      <trkpt lat="43.75959" lon="7.07153">
        <ele>960</ele>
        <time>2013-01-05T11:21:09Z</time>
      </trkpt>
      <trkpt lat="43.75951" lon="7.07138">
        <ele>960</ele>
        <time>2013-01-05T11:21:14Z</time>
      </trkpt>
      <trkpt lat="43.75944" lon="7.07121">
        <ele>960</ele>
        <time>2013-01-05T11:21:19Z</time>
      </trkpt>
      <trkpt lat="43.75927" lon="7.0708">
        <ele>960</ele>
        <time>2013-01-05T11:21:29Z</time>
      </trkpt>
      <trkpt lat="43.75925" lon="7.07057">
        <ele>960</ele>
        <time>2013-01-05T11:21:34Z</time>
      </trkpt>
      <trkpt lat="43.75938" lon="7.07026">
        <ele>960</ele>
        <time>2013-01-05T11:21:46Z</time>
      </trkpt>
      <trkpt lat="43.75936" lon="7.07022">
        <ele>960</ele>
        <time>2013-01-05T11:21:53Z</time>
      </trkpt>
      <trkpt lat="43.7593" lon="7.07018">
        <ele>960</ele>
        <time>2013-01-05T11:22:07Z</time>
      </trkpt>
      <trkpt lat="43.75927" lon="7.07016">
        <ele>960</ele>
        <time>2013-01-05T11:22:13Z</time>
      </trkpt>
      <trkpt lat="43.75919" lon="7.07011">
        <ele>961</ele>
        <time>2013-01-05T11:22:24Z</time>
      </trkpt>
      <trkpt lat="43.7592" lon="7.07004">
        <ele>961</ele>
        <time>2013-01-05T11:22:30Z</time>
      </trkpt>
      <trkpt lat="43.75928" lon="7.06985">
        <ele>961</ele>
        <time>2013-01-05T11:22:40Z</time>
      </trkpt>
      <trkpt lat="43.75929" lon="7.06965">
        <ele>961</ele>
        <time>2013-01-05T11:22:45Z</time>
      </trkpt>
      <trkpt lat="43.75915" lon="7.06935">
        <ele>961</ele>
        <time>2013-01-05T11:22:55Z</time>
      </trkpt>
      <trkpt lat="43.75905" lon="7.06934">
        <ele>961</ele>
        <time>2013-01-05T11:23:00Z</time>
      </trkpt>
      <trkpt lat="43.75897" lon="7.0693">
        <ele>961</ele>
        <time>2013-01-05T11:23:05Z</time>
      </trkpt>
      <trkpt lat="43.75876" lon="7.06924">
        <ele>961</ele>
        <time>2013-01-05T11:23:15Z</time>
      </trkpt>
      <trkpt lat="43.75866" lon="7.0692">
        <ele>961</ele>
        <time>2013-01-05T11:23:20Z</time>
      </trkpt>
      <trkpt lat="43.75848" lon="7.06925">
        <ele>961</ele>
        <time>2013-01-05T11:23:30Z</time>
      </trkpt>
      <trkpt lat="43.75838" lon="7.06917">
        <ele>961</ele>
        <time>2013-01-05T11:23:35Z</time>
      </trkpt>
      <trkpt lat="43.75821" lon="7.06889">
        <ele>961</ele>
        <time>2013-01-05T11:23:45Z</time>
      </trkpt>
      <trkpt lat="43.75806" lon="7.06874">
        <ele>961</ele>
        <time>2013-01-05T11:23:50Z</time>
      </trkpt>
      <trkpt lat="43.75788" lon="7.06867">
        <ele>961</ele>
        <time>2013-01-05T11:24:00Z</time>
      </trkpt>
      <trkpt lat="43.75777" lon="7.06865">
        <ele>961</ele>
        <time>2013-01-05T11:24:05Z</time>
      </trkpt>
      <trkpt lat="43.75749" lon="7.06854">
        <ele>961</ele>
        <time>2013-01-05T11:24:15Z</time>
      </trkpt>
      <trkpt lat="43.75739" lon="7.0685">
        <ele>961</ele>
        <time>2013-01-05T11:24:20Z</time>
      </trkpt>
      <trkpt lat="43.75726" lon="7.06844">
        <ele>960</ele>
        <time>2013-01-05T11:24:25Z</time>
      </trkpt>
      <trkpt lat="43.7571" lon="7.06805">
        <ele>958</ele>
        <time>2013-01-05T11:24:35Z</time>
      </trkpt>
      <trkpt lat="43.75693" lon="7.06783">
        <ele>956</ele>
        <time>2013-01-05T11:24:40Z</time>
      </trkpt>
      <trkpt lat="43.75666" lon="7.06738">
        <ele>953</ele>
        <time>2013-01-05T11:24:50Z</time>
      </trkpt>
      <trkpt lat="43.75654" lon="7.0671">
        <ele>952</ele>
        <time>2013-01-05T11:24:55Z</time>
      </trkpt>
      <trkpt lat="43.75638" lon="7.06673">
        <ele>952</ele>
        <time>2013-01-05T11:25:05Z</time>
      </trkpt>
      <trkpt lat="43.75631" lon="7.06661">
        <ele>952</ele>
        <time>2013-01-05T11:25:10Z</time>
      </trkpt>
      <trkpt lat="43.75613" lon="7.0664">
        <ele>952</ele>
        <time>2013-01-05T11:25:20Z</time>
      </trkpt>
      <trkpt lat="43.75606" lon="7.06629">
        <ele>952</ele>
        <time>2013-01-05T11:25:25Z</time>
      </trkpt>
      <trkpt lat="43.75593" lon="7.06614">
        <ele>952</ele>
        <time>2013-01-05T11:25:35Z</time>
      </trkpt>
      <trkpt lat="43.75587" lon="7.06607">
        <ele>953</ele>
        <time>2013-01-05T11:25:40Z</time>
      </trkpt>
      <trkpt lat="43.75582" lon="7.06602">
        <ele>953</ele>
        <time>2013-01-05T11:25:45Z</time>
      </trkpt>
      <trkpt lat="43.75572" lon="7.06589">
        <ele>954</ele>
        <time>2013-01-05T11:25:55Z</time>
      </trkpt>
      <trkpt lat="43.75567" lon="7.06582">
        <ele>955</ele>
        <time>2013-01-05T11:26:00Z</time>
      </trkpt>
      <trkpt lat="43.75556" lon="7.06551">
        <ele>960.4</ele>
      </trkpt>
      <trkpt lat="43.75546" lon="7.0654">
        <ele>960.5</ele>
      </trkpt>
      <trkpt lat="43.75528" lon="7.06503">
        <ele>959</ele>
        <time>2013-01-05T11:55:59Z</time>
      </trkpt>
      <trkpt lat="43.75517" lon="7.0649">
        <ele>959</ele>
        <time>2013-01-05T11:56:04Z</time>
      </trkpt>
      <trkpt lat="43.75502" lon="7.06472">
        <ele>958</ele>
        <time>2013-01-05T11:56:15Z</time>
      </trkpt>
      <trkpt lat="43.75493" lon="7.06463">
        <ele>958</ele>
        <time>2013-01-05T11:56:20Z</time>
      </trkpt>
      <trkpt lat="43.75481" lon="7.06448">
        <ele>958</ele>
        <time>2013-01-05T11:56:30Z</time>
      </trkpt>
      <trkpt lat="43.75472" lon="7.06442">
        <ele>958</ele>
        <time>2013-01-05T11:56:36Z</time>
      </trkpt>
      <trkpt lat="43.75465" lon="7.06439">
        <ele>958</ele>
        <time>2013-01-05T11:56:41Z</time>
      </trkpt>
      <trkpt lat="43.75449" lon="7.06436">
        <ele>958</ele>
        <time>2013-01-05T11:56:51Z</time>
      </trkpt>
      <trkpt lat="43.75441" lon="7.06436">
        <ele>958</ele>
        <time>2013-01-05T11:56:56Z</time>
      </trkpt>
      <trkpt lat="43.7542" lon="7.06445">
        <ele>959</ele>
        <time>2013-01-05T11:57:06Z</time>
      </trkpt>
      <trkpt lat="43.75413" lon="7.06449">
        <ele>959</ele>
        <time>2013-01-05T11:57:11Z</time>
      </trkpt>
      <trkpt lat="43.754" lon="7.06441">
        <ele>959</ele>
        <time>2013-01-05T11:57:21Z</time>
      </trkpt>
      <trkpt lat="43.75393" lon="7.06438">
        <ele>959</ele>
        <time>2013-01-05T11:57:26Z</time>
      </trkpt>
      <trkpt lat="43.75374" lon="7.06436">
        <ele>959</ele>
        <time>2013-01-05T11:57:37Z</time>
      </trkpt>
      <trkpt lat="43.75368" lon="7.0643">
        <ele>960</ele>
        <time>2013-01-05T11:57:42Z</time>
      </trkpt>
      <trkpt lat="43.75361" lon="7.06413">
        <ele>962</ele>
        <time>2013-01-05T11:57:53Z</time>
      </trkpt>
      <trkpt lat="43.75357" lon="7.06403">
        <ele>962</ele>
        <time>2013-01-05T11:57:59Z</time>
      </trkpt>
      <trkpt lat="43.75351" lon="7.06398">
        <ele>963</ele>
        <time>2013-01-05T11:58:04Z</time>
      </trkpt>
      <trkpt lat="43.75336" lon="7.06399">
        <ele>964</ele>
        <time>2013-01-05T11:58:14Z</time>
      </trkpt>
      <trkpt lat="43.75328" lon="7.064">
        <ele>965</ele>
        <time>2013-01-05T11:58:19Z</time>
      </trkpt>
      <trkpt lat="43.75311" lon="7.06397">
        <ele>965</ele>
        <time>2013-01-05T11:58:29Z</time>
      </trkpt>
      <trkpt lat="43.75303" lon="7.06395">
        <ele>965</ele>
        <time>2013-01-05T11:58:34Z</time>
      </trkpt>
      <trkpt lat="43.75286" lon="7.06386">
        <ele>967</ele>
        <time>2013-01-05T11:58:45Z</time>
      </trkpt>
      <trkpt lat="43.7528" lon="7.06382">
        <ele>968</ele>
        <time>2013-01-05T11:58:50Z</time>
      </trkpt>
      <trkpt lat="43.75259" lon="7.06365">
        <ele>968</ele>
        <time>2013-01-05T11:59:01Z</time>
      </trkpt>
      <trkpt lat="43.75246" lon="7.06347">
        <ele>968</ele>
        <time>2013-01-05T11:59:06Z</time>
      </trkpt>
      <trkpt lat="43.75218" lon="7.06308">
        <ele>968</ele>
        <time>2013-01-05T11:59:16Z</time>
      </trkpt>
      <trkpt lat="43.75203" lon="7.06296">
        <ele>968</ele>
        <time>2013-01-05T11:59:21Z</time>
      </trkpt>
      <trkpt lat="43.75149" lon="7.0626">
        <ele>966</ele>
        <time>2013-01-05T11:59:31Z</time>
      </trkpt>
      <trkpt lat="43.75136" lon="7.06231">
        <ele>962</ele>
        <time>2013-01-05T11:59:36Z</time>
      </trkpt>
      <trkpt lat="43.7513" lon="7.06201">
        <ele>960</ele>
        <time>2013-01-05T11:59:41Z</time>
      </trkpt>
      <trkpt lat="43.75116" lon="7.06151">
        <ele>958</ele>
        <time>2013-01-05T11:59:51Z</time>
      </trkpt>
      <trkpt lat="43.75116" lon="7.06152">
        <ele>958</ele>
        <time>2013-01-05T11:59:58Z</time>
      </trkpt>
      <trkpt lat="43.75115" lon="7.06142">
        <ele>958</ele>
        <time>2013-01-05T12:00:12Z</time>
      </trkpt>
      <trkpt lat="43.75109" lon="7.06131">
        <ele>958</ele>
        <time>2013-01-05T12:00:17Z</time>
      </trkpt>
      <trkpt lat="43.75093" lon="7.06109">
        <ele>958</ele>
        <time>2013-01-05T12:00:27Z</time>
      </trkpt>
      <trkpt lat="43.75086" lon="7.06092">
        <ele>958</ele>
        <time>2013-01-05T12:00:32Z</time>
      </trkpt>
      <trkpt lat="43.75084" lon="7.06062">
        <ele>957</ele>
        <time>2013-01-05T12:00:42Z</time>
      </trkpt>
      <trkpt lat="43.75077" lon="7.0605">
        <ele>957</ele>
        <time>2013-01-05T12:00:48Z</time>
      </trkpt>
      <trkpt lat="43.75056" lon="7.0604">
        <ele>957</ele>
        <time>2013-01-05T12:00:58Z</time>
      </trkpt>
      <trkpt lat="43.75047" lon="7.0603">
        <ele>957</ele>
        <time>2013-01-05T12:01:03Z</time>
      </trkpt>
      <trkpt lat="43.75035" lon="7.06023">
        <ele>957</ele>
        <time>2013-01-05T12:01:08Z</time>
      </trkpt>
      <trkpt lat="43.75027" lon="7.05989">
        <ele>957</ele>
        <time>2013-01-05T12:01:19Z</time>
      </trkpt>
      <trkpt lat="43.75026" lon="7.0597">
        <ele>957</ele>
        <time>2013-01-05T12:01:24Z</time>
      </trkpt>
      <trkpt lat="43.75015" lon="7.05927">
        <ele>957</ele>
        <time>2013-01-05T12:01:35Z</time>
      </trkpt>
      <trkpt lat="43.75012" lon="7.05916">
        <ele>957</ele>
        <time>2013-01-05T12:01:40Z</time>
      </trkpt>
      <trkpt lat="43.75004" lon="7.059">
        <ele>962.5</ele>
      </trkpt>
      <trkpt lat="43.75005" lon="7.05876">
        <ele>957</ele>
        <time>2013-01-05T12:02:08Z</time>
      </trkpt>
      <trkpt lat="43.75003" lon="7.05866">
        <ele>957</ele>
        <time>2013-01-05T12:02:13Z</time>
      </trkpt>
      <trkpt lat="43.74995" lon="7.05839">
        <ele>957</ele>
        <time>2013-01-05T12:02:23Z</time>
      </trkpt>
      <trkpt lat="43.74991" lon="7.05824">
        <ele>957</ele>
        <time>2013-01-05T12:02:28Z</time>
      </trkpt>
      <trkpt lat="43.74986" lon="7.05808">
        <ele>957</ele>
        <time>2013-01-05T12:02:33Z</time>
      </trkpt>
      <trkpt lat="43.74965" lon="7.05783">
        <ele>957</ele>
        <time>2013-01-05T12:02:44Z</time>
      </trkpt>
      <trkpt lat="43.74957" lon="7.05764">
        <ele>957</ele>
        <time>2013-01-05T12:02:49Z</time>
      </trkpt>
      <trkpt lat="43.7496" lon="7.05743">
        <ele>957</ele>
        <time>2013-01-05T12:03:28Z</time>
      </trkpt>
      <trkpt lat="43.74965" lon="7.05735">
        <ele>958</ele>
        <time>2013-01-05T12:03:33Z</time>
      </trkpt>
      <trkpt lat="43.74974" lon="7.05716">
        <ele>959</ele>
        <time>2013-01-05T12:03:43Z</time>
      </trkpt>
      <trkpt lat="43.74979" lon="7.05705">
        <ele>960</ele>
        <time>2013-01-05T12:03:48Z</time>
      </trkpt>
      <trkpt lat="43.74991" lon="7.05685">
        <ele>961</ele>
        <time>2013-01-05T12:03:58Z</time>
      </trkpt>
      <trkpt lat="43.75" lon="7.0568">
        <ele>962</ele>
        <time>2013-01-05T12:04:03Z</time>
      </trkpt>
      <trkpt lat="43.75018" lon="7.05675">
        <ele>963</ele>
        <time>2013-01-05T12:04:13Z</time>
      </trkpt>
      <trkpt lat="43.75028" lon="7.05668">
        <ele>964</ele>
        <time>2013-01-05T12:04:18Z</time>
      </trkpt>
      <trkpt lat="43.75034" lon="7.0566">
        <ele>965</ele>
        <time>2013-01-05T12:04:23Z</time>
      </trkpt>
      <trkpt lat="43.75043" lon="7.05644">
        <ele>966</ele>
        <time>2013-01-05T12:04:33Z</time>
      </trkpt>
      <trkpt lat="43.75046" lon="7.0563">
        <ele>966</ele>
        <time>2013-01-05T12:04:38Z</time>
      </trkpt>
      <trkpt lat="43.75068" lon="7.05606">
        <ele>966</ele>
        <time>2013-01-05T12:04:48Z</time>
      </trkpt>
      <trkpt lat="43.75079" lon="7.05595">
        <ele>966</ele>
        <time>2013-01-05T12:04:53Z</time>
      </trkpt>
      <trkpt lat="43.75114" lon="7.05561">
        <ele>966</ele>
        <time>2013-01-05T12:05:03Z</time>
      </trkpt>
      <trkpt lat="43.75137" lon="7.05549">
        <ele>966</ele>
        <time>2013-01-05T12:05:08Z</time>
      </trkpt>
      <trkpt lat="43.7517" lon="7.05494">
        <ele>962</ele>
        <time>2013-01-05T12:05:18Z</time>
      </trkpt>
      <trkpt lat="43.75192" lon="7.05472">
        <ele>962</ele>
        <time>2013-01-05T12:05:23Z</time>
      </trkpt>
      <trkpt lat="43.75226" lon="7.05447">
        <ele>961</ele>
        <time>2013-01-05T12:05:33Z</time>
      </trkpt>
      <trkpt lat="43.75239" lon="7.05431">
        <ele>961</ele>
        <time>2013-01-05T12:05:38Z</time>
      </trkpt>
      <trkpt lat="43.75264" lon="7.05405">
        <ele>961</ele>
        <time>2013-01-05T12:05:48Z</time>
      </trkpt>
      <trkpt lat="43.75269" lon="7.05386">
        <ele>961</ele>
        <time>2013-01-05T12:05:53Z</time>
      </trkpt>
      <trkpt lat="43.75274" lon="7.0537">
        <ele>961</ele>
        <time>2013-01-05T12:05:58Z</time>
      </trkpt>
      <trkpt lat="43.75284" lon="7.05349">
        <ele>961</ele>
        <time>2013-01-05T12:06:08Z</time>
      </trkpt>
      <trkpt lat="43.75288" lon="7.05337">
        <ele>961</ele>
        <time>2013-01-05T12:06:13Z</time>
      </trkpt>
      <trkpt lat="43.75294" lon="7.05303">
        <ele>961</ele>
        <time>2013-01-05T12:06:23Z</time>
      </trkpt>
      <trkpt lat="43.75306" lon="7.05284">
        <ele>961</ele>
        <time>2013-01-05T12:06:28Z</time>
      </trkpt>
      <trkpt lat="43.75328" lon="7.05253">
        <ele>961</ele>
        <time>2013-01-05T12:06:38Z</time>
      </trkpt>
      <trkpt lat="43.75339" lon="7.05238">
        <ele>962</ele>
        <time>2013-01-05T12:06:43Z</time>
      </trkpt>
      <trkpt lat="43.7536" lon="7.05206">
        <ele>963</ele>
        <time>2013-01-05T12:06:54Z</time>
      </trkpt>
      <trkpt lat="43.75368" lon="7.0519">
        <ele>963</ele>
        <time>2013-01-05T12:06:59Z</time>
      </trkpt>
      <trkpt lat="43.75396" lon="7.05143">
        <ele>963</ele>
        <time>2013-01-05T12:07:09Z</time>
      </trkpt>
      <trkpt lat="43.75415" lon="7.05136">
        <ele>963</ele>
        <time>2013-01-05T12:07:14Z</time>
      </trkpt>
      <trkpt lat="43.75429" lon="7.05126">
        <ele>963</ele>
        <time>2013-01-05T12:07:19Z</time>
      </trkpt>
      <trkpt lat="43.75447" lon="7.0509">
        <ele>963</ele>
        <time>2013-01-05T12:07:29Z</time>
      </trkpt>
      <trkpt lat="43.75452" lon="7.05064">
        <ele>963</ele>
        <time>2013-01-05T12:07:34Z</time>
      </trkpt>
      <trkpt lat="43.7546" lon="7.05011">
        <ele>960</ele>
        <time>2013-01-05T12:07:44Z</time>
      </trkpt>
      <trkpt lat="43.75466" lon="7.04985">
        <ele>960</ele>
        <time>2013-01-05T12:07:50Z</time>
      </trkpt>
      <trkpt lat="43.75484" lon="7.04967">
        <ele>960</ele>
        <time>2013-01-05T12:08:00Z</time>
      </trkpt>
      <trkpt lat="43.75494" lon="7.04958">
        <ele>962</ele>
        <time>2013-01-05T12:08:05Z</time>
      </trkpt>
      <trkpt lat="43.75507" lon="7.04891">
        <ele>962</ele>
        <time>2013-01-05T12:08:16Z</time>
      </trkpt>
      <trkpt lat="43.75517" lon="7.04842">
        <ele>962</ele>
        <time>2013-01-05T12:08:21Z</time>
      </trkpt>
      <trkpt lat="43.75553" lon="7.04757">
        <ele>958</ele>
        <time>2013-01-05T12:08:31Z</time>
      </trkpt>
      <trkpt lat="43.7557" lon="7.04732">
        <ele>957</ele>
        <time>2013-01-05T12:08:36Z</time>
      </trkpt>
      <trkpt lat="43.75583" lon="7.04713">
        <ele>957</ele>
        <time>2013-01-05T12:08:41Z</time>
      </trkpt>
      <trkpt lat="43.75606" lon="7.04682">
        <ele>957</ele>
        <time>2013-01-05T12:08:51Z</time>
      </trkpt>
      <trkpt lat="43.75619" lon="7.04669">
        <ele>958</ele>
        <time>2013-01-05T12:08:56Z</time>
      </trkpt>
      <trkpt lat="43.75644" lon="7.04645">
        <ele>958</ele>
        <time>2013-01-05T12:09:06Z</time>
      </trkpt>
      <trkpt lat="43.75653" lon="7.04634">
        <ele>959</ele>
        <time>2013-01-05T12:09:11Z</time>
      </trkpt>
      <trkpt lat="43.75671" lon="7.04614">
        <ele>961</ele>
        <time>2013-01-05T12:09:21Z</time>
      </trkpt>
      <trkpt lat="43.75681" lon="7.04606">
        <ele>962</ele>
        <time>2013-01-05T12:09:26Z</time>
      </trkpt>
      <trkpt lat="43.75699" lon="7.04586">
        <ele>963</ele>
        <time>2013-01-05T12:09:37Z</time>
      </trkpt>
      <trkpt lat="43.75708" lon="7.04575">
        <ele>963</ele>
        <time>2013-01-05T12:09:42Z</time>
      </trkpt>
      <trkpt lat="43.75721" lon="7.0456">
        <ele>963</ele>
        <time>2013-01-05T12:09:54Z</time>
      </trkpt>
      <trkpt lat="43.7573" lon="7.0455">
        <ele>963</ele>
        <time>2013-01-05T12:10:00Z</time>
      </trkpt>
      <trkpt lat="43.75739" lon="7.04539">
        <ele>963</ele>
        <time>2013-01-05T12:10:05Z</time>
      </trkpt>
      <trkpt lat="43.75753" lon="7.04517">
        <ele>963</ele>
        <time>2013-01-05T12:10:15Z</time>
      </trkpt>
      <trkpt lat="43.75763" lon="7.04505">
        <ele>963</ele>
        <time>2013-01-05T12:10:20Z</time>
      </trkpt>
      <trkpt lat="43.75787" lon="7.04474">
        <ele>963</ele>
        <time>2013-01-05T12:10:31Z</time>
      </trkpt>
      <trkpt lat="43.75802" lon="7.04452">
        <ele>963</ele>
        <time>2013-01-05T12:10:37Z</time>
      </trkpt>
      <trkpt lat="43.75831" lon="7.04414">
        <ele>963</ele>
        <time>2013-01-05T12:10:47Z</time>
      </trkpt>
      <trkpt lat="43.75847" lon="7.04395">
        <ele>963</ele>
        <time>2013-01-05T12:10:52Z</time>
      </trkpt>
      <trkpt lat="43.75879" lon="7.04371">
        <ele>963</ele>
        <time>2013-01-05T12:11:02Z</time>
      </trkpt>
      <trkpt lat="43.75896" lon="7.04363">
        <ele>963</ele>
        <time>2013-01-05T12:11:07Z</time>
      </trkpt>
      <trkpt lat="43.75935" lon="7.04349">
        <ele>963</ele>
        <time>2013-01-05T12:11:17Z</time>
      </trkpt>
      <trkpt lat="43.75957" lon="7.04343">
        <ele>963</ele>
        <time>2013-01-05T12:11:23Z</time>
      </trkpt>
      <trkpt lat="43.75975" lon="7.04334">
        <ele>963</ele>
        <time>2013-01-05T12:11:28Z</time>
      </trkpt>
      <trkpt lat="43.76002" lon="7.04302">
        <ele>963</ele>
        <time>2013-01-05T12:11:38Z</time>
      </trkpt>
      <trkpt lat="43.76018" lon="7.0428">
        <ele>963</ele>
        <time>2013-01-05T12:11:43Z</time>
      </trkpt>
      <trkpt lat="43.76062" lon="7.04227">
        <ele>962</ele>
        <time>2013-01-05T12:11:53Z</time>
      </trkpt>
      <trkpt lat="43.7609" lon="7.042">
        <ele>962</ele>
        <time>2013-01-05T12:11:59Z</time>
      </trkpt>
      <trkpt lat="43.76138" lon="7.0415">
        <ele>960</ele>
        <time>2013-01-05T12:12:10Z</time>
      </trkpt>
      <trkpt lat="43.76157" lon="7.04129">
        <ele>959</ele>
        <time>2013-01-05T12:12:15Z</time>
      </trkpt>
      <trkpt lat="43.76196" lon="7.04078">
        <ele>959</ele>
        <time>2013-01-05T12:12:26Z</time>
      </trkpt>
      <trkpt lat="43.76209" lon="7.04057">
        <ele>959</ele>
        <time>2013-01-05T12:12:31Z</time>
      </trkpt>
      <trkpt lat="43.76252" lon="7.04024">
        <ele>959</ele>
        <time>2013-01-05T12:12:42Z</time>
      </trkpt>
      <trkpt lat="43.76274" lon="7.04011">
        <ele>959</ele>
        <time>2013-01-05T12:12:47Z</time>
      </trkpt>
      <trkpt lat="43.76321" lon="7.03962">
        <ele>959</ele>
        <time>2013-01-05T12:12:58Z</time>
      </trkpt>
      <trkpt lat="43.76342" lon="7.0394">
        <ele>957</ele>
        <time>2013-01-05T12:13:03Z</time>
      </trkpt>
      <trkpt lat="43.76358" lon="7.03918">
        <ele>956</ele>
        <time>2013-01-05T12:13:08Z</time>
      </trkpt>
      <trkpt lat="43.76376" lon="7.03869">
        <ele>955</ele>
        <time>2013-01-05T12:13:20Z</time>
      </trkpt>
      <trkpt lat="43.7639" lon="7.03856">
        <ele>955</ele>
        <time>2013-01-05T12:13:25Z</time>
      </trkpt>
      <trkpt lat="43.76419" lon="7.03847">
        <ele>955</ele>
        <time>2013-01-05T12:13:35Z</time>
      </trkpt>
      <trkpt lat="43.76432" lon="7.03846">
        <ele>955</ele>
        <time>2013-01-05T12:13:40Z</time>
      </trkpt>
      <trkpt lat="43.76433" lon="7.0381">
        <ele>955</ele>
        <time>2013-01-05T12:13:51Z</time>
      </trkpt>
      <trkpt lat="43.76429" lon="7.03787">
        <ele>955</ele>
        <time>2013-01-05T12:13:56Z</time>
      </trkpt>
      <trkpt lat="43.76426" lon="7.03773">
        <ele>956</ele>
        <time>2013-01-05T12:14:15Z</time>
      </trkpt>
      <trkpt lat="43.76425" lon="7.03771">
        <ele>956</ele>
        <time>2013-01-05T12:14:24Z</time>
      </trkpt>
      <trkpt lat="43.76407" lon="7.03752">
        <ele>954</ele>
        <time>2013-01-05T12:14:35Z</time>
      </trkpt>
      <trkpt lat="43.76395" lon="7.03715">
        <ele>953</ele>
        <time>2013-01-05T12:14:40Z</time>
      </trkpt>
      <trkpt lat="43.76375" lon="7.03678">
        <ele>951</ele>
        <time>2013-01-05T12:14:45Z</time>
      </trkpt>
      <trkpt lat="43.76326" lon="7.03626">
        <ele>947</ele>
        <time>2013-01-05T12:14:55Z</time>
      </trkpt>
      <trkpt lat="43.7631" lon="7.03615">
        <ele>947</ele>
        <time>2013-01-05T12:15:00Z</time>
      </trkpt>
      <trkpt lat="43.7627" lon="7.03573">
        <ele>946</ele>
        <time>2013-01-05T12:15:11Z</time>
      </trkpt>
      <trkpt lat="43.76252" lon="7.03556">
        <ele>946</ele>
        <time>2013-01-05T12:15:16Z</time>
      </trkpt>
      <trkpt lat="43.7621" lon="7.03514">
        <ele>945</ele>
        <time>2013-01-05T12:15:26Z</time>
      </trkpt>
      <trkpt lat="43.76188" lon="7.03479">
        <ele>943</ele>
        <time>2013-01-05T12:15:31Z</time>
      </trkpt>
      <trkpt lat="43.76138" lon="7.03418">
        <ele>938</ele>
        <time>2013-01-05T12:15:41Z</time>
      </trkpt>
      <trkpt lat="43.76125" lon="7.03385">
        <ele>937</ele>
        <time>2013-01-05T12:15:46Z</time>
      </trkpt>
      <trkpt lat="43.76104" lon="7.03335">
        <ele>936</ele>
        <time>2013-01-05T12:15:56Z</time>
      </trkpt>
      <trkpt lat="43.76095" lon="7.03321">
        <ele>936</ele>
        <time>2013-01-05T12:16:01Z</time>
      </trkpt>
      <trkpt lat="43.76088" lon="7.03308">
        <ele>936</ele>
        <time>2013-01-05T12:16:06Z</time>
      </trkpt>
      <trkpt lat="43.76059" lon="7.03282">
        <ele>936</ele>
        <time>2013-01-05T12:16:16Z</time>
      </trkpt>
      <trkpt lat="43.76042" lon="7.0326">
        <ele>934</ele>
        <time>2013-01-05T12:16:21Z</time>
      </trkpt>
      <trkpt lat="43.76011" lon="7.03214">
        <ele>934</ele>
        <time>2013-01-05T12:16:32Z</time>
      </trkpt>
      <trkpt lat="43.76004" lon="7.03193">
        <ele>934</ele>
        <time>2013-01-05T12:16:37Z</time>
      </trkpt>
      <trkpt lat="43.75996" lon="7.0315">
        <ele>934</ele>
        <time>2013-01-05T12:16:47Z</time>
      </trkpt>
      <trkpt lat="43.75986" lon="7.03133">
        <ele>933</ele>
        <time>2013-01-05T12:16:52Z</time>
      </trkpt>
      <trkpt lat="43.75962" lon="7.03095">
        <ele>933</ele>
        <time>2013-01-05T12:17:02Z</time>
      </trkpt>
      <trkpt lat="43.75956" lon="7.03073">
        <ele>933</ele>
        <time>2013-01-05T12:17:07Z</time>
      </trkpt>
      <trkpt lat="43.75924" lon="7.0303">
        <ele>931</ele>
        <time>2013-01-05T12:17:18Z</time>
      </trkpt>
      <trkpt lat="43.75911" lon="7.03">
        <ele>931</ele>
        <time>2013-01-05T12:17:24Z</time>
      </trkpt>
      <trkpt lat="43.75898" lon="7.02981">
        <ele>931</ele>
        <time>2013-01-05T12:17:29Z</time>
      </trkpt>
      <trkpt lat="43.75882" lon="7.02927">
        <ele>931</ele>
        <time>2013-01-05T12:17:40Z</time>
      </trkpt>
      <trkpt lat="43.75871" lon="7.02913">
        <ele>931</ele>
        <time>2013-01-05T12:17:45Z</time>
      </trkpt>
      <trkpt lat="43.75847" lon="7.02885">
        <ele>931</ele>
        <time>2013-01-05T12:17:57Z</time>
      </trkpt>
      <trkpt lat="43.7584" lon="7.02866">
        <ele>931</ele>
        <time>2013-01-05T12:18:03Z</time>
      </trkpt>
      <trkpt lat="43.75818" lon="7.02829">
        <ele>931</ele>
        <time>2013-01-05T12:18:14Z</time>
      </trkpt>
      <trkpt lat="43.75816" lon="7.02813">
        <ele>931</ele>
        <time>2013-01-05T12:18:19Z</time>
      </trkpt>
      <trkpt lat="43.75806" lon="7.02783">
        <ele>931</ele>
        <time>2013-01-05T12:18:29Z</time>
      </trkpt>
      <trkpt lat="43.75798" lon="7.0277">
        <ele>931</ele>
        <time>2013-01-05T12:18:34Z</time>
      </trkpt>
      <trkpt lat="43.75787" lon="7.02729">
        <ele>932</ele>
        <time>2013-01-05T12:18:45Z</time>
      </trkpt>
      <trkpt lat="43.75781" lon="7.02705">
        <ele>933</ele>
        <time>2013-01-05T12:18:51Z</time>
      </trkpt>
      <trkpt lat="43.75777" lon="7.02683">
        <ele>933</ele>
        <time>2013-01-05T12:18:57Z</time>
      </trkpt>
      <trkpt lat="43.75778" lon="7.02636">
        <ele>933</ele>
        <time>2013-01-05T12:19:07Z</time>
      </trkpt>
      <trkpt lat="43.75783" lon="7.02608">
        <ele>933</ele>
        <time>2013-01-05T12:19:12Z</time>
      </trkpt>
      <trkpt lat="43.75784" lon="7.02539">
        <ele>933</ele>
        <time>2013-01-05T12:19:23Z</time>
      </trkpt>
      <trkpt lat="43.7578" lon="7.02508">
        <ele>931</ele>
        <time>2013-01-05T12:19:28Z</time>
      </trkpt>
      <trkpt lat="43.75777" lon="7.02452">
        <ele>929</ele>
        <time>2013-01-05T12:19:39Z</time>
      </trkpt>
      <trkpt lat="43.75771" lon="7.02431">
        <ele>929</ele>
        <time>2013-01-05T12:19:44Z</time>
      </trkpt>
      <trkpt lat="43.75774" lon="7.02391">
        <ele>929</ele>
        <time>2013-01-05T12:19:55Z</time>
      </trkpt>
      <trkpt lat="43.75776" lon="7.02373">
        <ele>929</ele>
        <time>2013-01-05T12:20:00Z</time>
      </trkpt>
      <trkpt lat="43.75786" lon="7.02331">
        <ele>929</ele>
        <time>2013-01-05T12:20:11Z</time>
      </trkpt>
      <trkpt lat="43.75787" lon="7.02315">
        <ele>929</ele>
        <time>2013-01-05T12:20:16Z</time>
      </trkpt>
      <trkpt lat="43.75785" lon="7.02284">
        <ele>929</ele>
        <time>2013-01-05T12:20:27Z</time>
      </trkpt>
      <trkpt lat="43.75783" lon="7.02271">
        <ele>929</ele>
        <time>2013-01-05T12:20:33Z</time>
      </trkpt>
      <trkpt lat="43.75781" lon="7.0227">
        <ele>929</ele>
        <time>2013-01-05T12:20:40Z</time>
      </trkpt>
      <trkpt lat="43.75774" lon="7.02262">
        <ele>929</ele>
        <time>2013-01-05T12:20:52Z</time>
      </trkpt>
      <trkpt lat="43.75771" lon="7.02256">
        <ele>929</ele>
        <time>2013-01-05T12:20:58Z</time>
      </trkpt>
      <trkpt lat="43.7577" lon="7.0225">
        <ele>929</ele>
        <time>2013-01-05T12:21:11Z</time>
      </trkpt>
      <trkpt lat="43.75772" lon="7.02238">
        <ele>929</ele>
        <time>2013-01-05T12:21:16Z</time>
      </trkpt>
      <trkpt lat="43.75777" lon="7.02209">
        <ele>930</ele>
        <time>2013-01-05T12:21:27Z</time>
      </trkpt>
      <trkpt lat="43.75774" lon="7.02193">
        <ele>930</ele>
        <time>2013-01-05T12:21:32Z</time>
      </trkpt>
      <trkpt lat="43.7578" lon="7.02165">
        <ele>931</ele>
        <time>2013-01-05T12:21:43Z</time>
      </trkpt>
      <trkpt lat="43.75785" lon="7.02147">
        <ele>931</ele>
        <time>2013-01-05T12:21:48Z</time>
      </trkpt>
      <trkpt lat="43.75796" lon="7.021">
        <ele>931</ele>
        <time>2013-01-05T12:22:00Z</time>
      </trkpt>
      <trkpt lat="43.75799" lon="7.02083">
        <ele>931</ele>
        <time>2013-01-05T12:22:05Z</time>
      </trkpt>
      <trkpt lat="43.75802" lon="7.02064">
        <ele>931</ele>
        <time>2013-01-05T12:22:11Z</time>
      </trkpt>
      <trkpt lat="43.75806" lon="7.02037">
        <ele>932</ele>
        <time>2013-01-05T12:22:22Z</time>
      </trkpt>
      <trkpt lat="43.75807" lon="7.02027">
        <ele>934</ele>
        <time>2013-01-05T12:22:27Z</time>
      </trkpt>
      <trkpt lat="43.75807" lon="7.02002">
        <ele>937</ele>
        <time>2013-01-05T12:22:39Z</time>
      </trkpt>
      <trkpt lat="43.75804" lon="7.01993">
        <ele>938</ele>
        <time>2013-01-05T12:22:44Z</time>
      </trkpt>
      <trkpt lat="43.75802" lon="7.01973">
        <ele>940</ele>
        <time>2013-01-05T12:22:54Z</time>
      </trkpt>
      <trkpt lat="43.75803" lon="7.01964">
        <ele>940</ele>
        <time>2013-01-05T12:22:59Z</time>
      </trkpt>
      <trkpt lat="43.75805" lon="7.01945">
        <ele>941</ele>
        <time>2013-01-05T12:23:09Z</time>
      </trkpt>
      <trkpt lat="43.75805" lon="7.01936">
        <ele>941</ele>
        <time>2013-01-05T12:23:14Z</time>
      </trkpt>
      <trkpt lat="43.75804" lon="7.01915">
        <ele>941</ele>
        <time>2013-01-05T12:23:25Z</time>
      </trkpt>
      <trkpt lat="43.75799" lon="7.01904">
        <ele>941</ele>
        <time>2013-01-05T12:23:31Z</time>
      </trkpt>
      <trkpt lat="43.75798" lon="7.01893">
        <ele>941</ele>
        <time>2013-01-05T12:23:37Z</time>
      </trkpt>
      <trkpt lat="43.75803" lon="7.01869">
        <ele>943</ele>
        <time>2013-01-05T12:23:48Z</time>
      </trkpt>
      <trkpt lat="43.75805" lon="7.0185">
        <ele>943</ele>
        <time>2013-01-05T12:23:54Z</time>
      </trkpt>
      <trkpt lat="43.75805" lon="7.01824">
        <ele>944</ele>
        <time>2013-01-05T12:24:04Z</time>
      </trkpt>
      <trkpt lat="43.75804" lon="7.0181">
        <ele>945</ele>
        <time>2013-01-05T12:24:09Z</time>
      </trkpt>
      <trkpt lat="43.75806" lon="7.01782">
        <ele>946</ele>
        <time>2013-01-05T12:24:19Z</time>
      </trkpt>
      <trkpt lat="43.75805" lon="7.01766">
        <ele>946</ele>
        <time>2013-01-05T12:24:24Z</time>
      </trkpt>
      <trkpt lat="43.7581" lon="7.01732">
        <ele>946</ele>
        <time>2013-01-05T12:24:35Z</time>
      </trkpt>
      <trkpt lat="43.75814" lon="7.01719">
        <ele>947</ele>
        <time>2013-01-05T12:24:40Z</time>
      </trkpt>
      <trkpt lat="43.75814" lon="7.01694">
        <ele>950</ele>
        <time>2013-01-05T12:24:51Z</time>
      </trkpt>
      <trkpt lat="43.75813" lon="7.0168">
        <ele>950</ele>
        <time>2013-01-05T12:24:57Z</time>
      </trkpt>
      <trkpt lat="43.75808" lon="7.01664">
        <ele>950</ele>
        <time>2013-01-05T12:25:03Z</time>
      </trkpt>
      <trkpt lat="43.75797" lon="7.01641">
        <ele>950</ele>
        <time>2013-01-05T12:25:14Z</time>
      </trkpt>
      <trkpt lat="43.75796" lon="7.01627">
        <ele>950</ele>
        <time>2013-01-05T12:25:19Z</time>
      </trkpt>
      <trkpt lat="43.75795" lon="7.01596">
        <ele>950</ele>
        <time>2013-01-05T12:25:29Z</time>
      </trkpt>
      <trkpt lat="43.75794" lon="7.01581">
        <ele>950</ele>
        <time>2013-01-05T12:25:34Z</time>
      </trkpt>
      <trkpt lat="43.75793" lon="7.01564">
        <ele>950</ele>
        <time>2013-01-05T12:26:07Z</time>
      </trkpt>
      <trkpt lat="43.75793" lon="7.01566">
        <ele>950</ele>
        <time>2013-01-05T12:26:51Z</time>
      </trkpt>
      <trkpt lat="43.75794" lon="7.01564">
        <ele>951</ele>
        <time>2013-01-05T12:28:26Z</time>
      </trkpt>
      <trkpt lat="43.75794" lon="7.0156">
        <ele>951</ele>
        <time>2013-01-05T12:29:27Z</time>
      </trkpt>
      <trkpt lat="43.75814" lon="7.0153">
        <ele>951</ele>
        <time>2013-01-05T12:29:37Z</time>
      </trkpt>
      <trkpt lat="43.75832" lon="7.01519">
        <ele>949</ele>
        <time>2013-01-05T12:29:42Z</time>
      </trkpt>
      <trkpt lat="43.75863" lon="7.01496">
        <ele>944</ele>
        <time>2013-01-05T12:29:52Z</time>
      </trkpt>
      <trkpt lat="43.75883" lon="7.01479">
        <ele>940</ele>
        <time>2013-01-05T12:29:57Z</time>
      </trkpt>
      <trkpt lat="43.75905" lon="7.01461">
        <ele>936</ele>
        <time>2013-01-05T12:30:02Z</time>
      </trkpt>
      <trkpt lat="43.75941" lon="7.01444">
        <ele>926</ele>
        <time>2013-01-05T12:30:12Z</time>
      </trkpt>
      <trkpt lat="43.75961" lon="7.01437">
        <ele>923</ele>
        <time>2013-01-05T12:30:17Z</time>
      </trkpt>
      <trkpt lat="43.75999" lon="7.01406">
        <ele>916</ele>
        <time>2013-01-05T12:30:27Z</time>
      </trkpt>
      <trkpt lat="43.76014" lon="7.01384">
        <ele>913</ele>
        <time>2013-01-05T12:30:32Z</time>
      </trkpt>
      <trkpt lat="43.76034" lon="7.01342">
        <ele>906</ele>
        <time>2013-01-05T12:30:42Z</time>
      </trkpt>
      <trkpt lat="43.76049" lon="7.01325">
        <ele>904</ele>
        <time>2013-01-05T12:30:47Z</time>
      </trkpt>
      <trkpt lat="43.76054" lon="7.01284">
        <ele>898</ele>
        <time>2013-01-05T12:30:57Z</time>
      </trkpt>
      <trkpt lat="43.76061" lon="7.01264">
        <ele>897</ele>
        <time>2013-01-05T12:31:02Z</time>
      </trkpt>
      <trkpt lat="43.76053" lon="7.01202">
        <ele>890</ele>
        <time>2013-01-05T12:31:12Z</time>
      </trkpt>
      <trkpt lat="43.76052" lon="7.01169">
        <ele>887</ele>
        <time>2013-01-05T12:31:18Z</time>
      </trkpt>
      <trkpt lat="43.76054" lon="7.01138">
        <ele>883</ele>
        <time>2013-01-05T12:31:23Z</time>
      </trkpt>
      <trkpt lat="43.76054" lon="7.01079">
        <ele>874</ele>
        <time>2013-01-05T12:31:33Z</time>
      </trkpt>
      <trkpt lat="43.76054" lon="7.01048">
        <ele>870</ele>
        <time>2013-01-05T12:31:38Z</time>
      </trkpt>
      <trkpt lat="43.76051" lon="7.00998">
        <ele>862</ele>
        <time>2013-01-05T12:31:48Z</time>
      </trkpt>
      <trkpt lat="43.76043" lon="7.01015">
        <ele>858</ele>
        <time>2013-01-05T12:31:53Z</time>
      </trkpt>
      <trkpt lat="43.76033" lon="7.01002">
        <ele>850</ele>
        <time>2013-01-05T12:32:04Z</time>
      </trkpt>
      <trkpt lat="43.76022" lon="7.01024">
        <ele>849</ele>
        <time>2013-01-05T12:32:09Z</time>
      </trkpt>
      <trkpt lat="43.7599" lon="7.01081">
        <ele>841</ele>
        <time>2013-01-05T12:32:20Z</time>
      </trkpt>
      <trkpt lat="43.75975" lon="7.01092">
        <ele>837</ele>
        <time>2013-01-05T12:32:25Z</time>
      </trkpt>
      <trkpt lat="43.7594" lon="7.01143">
        <ele>828</ele>
        <time>2013-01-05T12:32:36Z</time>
      </trkpt>
      <trkpt lat="43.75926" lon="7.01164">
        <ele>823</ele>
        <time>2013-01-05T12:32:42Z</time>
      </trkpt>
      <trkpt lat="43.75924" lon="7.01144">
        <ele>819</ele>
        <time>2013-01-05T12:32:47Z</time>
      </trkpt>
      <trkpt lat="43.75906" lon="7.01137">
        <ele>811</ele>
        <time>2013-01-05T12:32:57Z</time>
      </trkpt>
      <trkpt lat="43.75911" lon="7.01122">
        <ele>810</ele>
        <time>2013-01-05T12:33:03Z</time>
      </trkpt>
      <trkpt lat="43.75909" lon="7.01116">
        <ele>809</ele>
        <time>2013-01-05T12:33:15Z</time>
      </trkpt>
      <trkpt lat="43.75899" lon="7.01125">
        <ele>807</ele>
        <time>2013-01-05T12:33:20Z</time>
      </trkpt>
      <trkpt lat="43.7589" lon="7.01115">
        <ele>804</ele>
        <time>2013-01-05T12:33:30Z</time>
      </trkpt>
      <trkpt lat="43.75885" lon="7.01115">
        <ele>802</ele>
        <time>2013-01-05T12:33:35Z</time>
      </trkpt>
      <trkpt lat="43.75877" lon="7.01105">
        <ele>798</ele>
        <time>2013-01-05T12:33:45Z</time>
      </trkpt>
      <trkpt lat="43.75875" lon="7.01096">
        <ele>796</ele>
        <time>2013-01-05T12:33:50Z</time>
      </trkpt>
      <trkpt lat="43.75848" lon="7.01106">
        <ele>792</ele>
        <time>2013-01-05T12:34:00Z</time>
      </trkpt>
      <trkpt lat="43.75849" lon="7.01088">
        <ele>790</ele>
        <time>2013-01-05T12:34:05Z</time>
      </trkpt>
      <trkpt lat="43.75842" lon="7.01073">
        <ele>787</ele>
        <time>2013-01-05T12:34:10Z</time>
      </trkpt>
      <trkpt lat="43.75822" lon="7.0108">
        <ele>782</ele>
        <time>2013-01-05T12:34:20Z</time>
      </trkpt>
      <trkpt lat="43.75808" lon="7.01094">
        <ele>780</ele>
        <time>2013-01-05T12:34:25Z</time>
      </trkpt>
      <trkpt lat="43.75778" lon="7.01096">
        <ele>777</ele>
        <time>2013-01-05T12:34:35Z</time>
      </trkpt>
      <trkpt lat="43.75753" lon="7.01092">
        <ele>773</ele>
        <time>2013-01-05T12:34:40Z</time>
      </trkpt>
      <trkpt lat="43.75739" lon="7.01081">
        <ele>764</ele>
        <time>2013-01-05T12:35:02Z</time>
      </trkpt>
      <trkpt lat="43.75726" lon="7.01078">
        <ele>761</ele>
        <time>2013-01-05T12:35:07Z</time>
      </trkpt>
      <trkpt lat="43.75721" lon="7.01078">
        <ele>758</ele>
        <time>2013-01-05T12:36:24Z</time>
      </trkpt>
      <trkpt lat="43.75716" lon="7.01076">
        <ele>758</ele>
        <time>2013-01-05T12:36:29Z</time>
      </trkpt>
      <trkpt lat="43.75695" lon="7.01067">
        <ele>758</ele>
        <time>2013-01-05T12:36:39Z</time>
      </trkpt>
      <trkpt lat="43.75676" lon="7.01053">
        <ele>758</ele>
        <time>2013-01-05T12:36:44Z</time>
      </trkpt>
      <trkpt lat="43.75665" lon="7.01042">
        <ele>756</ele>
        <time>2013-01-05T12:36:49Z</time>
      </trkpt>
      <trkpt lat="43.75625" lon="7.01049">
        <ele>754</ele>
        <time>2013-01-05T12:37:00Z</time>
      </trkpt>
      <trkpt lat="43.75608" lon="7.0105">
        <ele>753</ele>
        <time>2013-01-05T12:37:05Z</time>
      </trkpt>
      <trkpt lat="43.75569" lon="7.01059">
        <ele>749</ele>
        <time>2013-01-05T12:37:15Z</time>
      </trkpt>
      <trkpt lat="43.75554" lon="7.01063">
        <ele>748</ele>
        <time>2013-01-05T12:37:20Z</time>
      </trkpt>
      <trkpt lat="43.75521" lon="7.01071">
        <ele>745</ele>
        <time>2013-01-05T12:37:30Z</time>
      </trkpt>
      <trkpt lat="43.75502" lon="7.0107">
        <ele>741</ele>
        <time>2013-01-05T12:37:35Z</time>
      </trkpt>
      <trkpt lat="43.75462" lon="7.0107">
        <ele>732</ele>
        <time>2013-01-05T12:37:45Z</time>
      </trkpt>
      <trkpt lat="43.75449" lon="7.01071">
        <ele>729</ele>
        <time>2013-01-05T12:37:50Z</time>
      </trkpt>
      <trkpt lat="43.75422" lon="7.01059">
        <ele>738.9</ele>
      </trkpt>
      <trkpt lat="43.75412" lon="7.01059">
        <ele>735.1</ele>
      </trkpt>
      <trkpt lat="43.75394" lon="7.01049">
        <ele>725</ele>
        <time>2013-01-05T12:41:34Z</time>
      </trkpt>
      <trkpt lat="43.75382" lon="7.01037">
        <ele>725</ele>
        <time>2013-01-05T12:41:39Z</time>
      </trkpt>
      <trkpt lat="43.75357" lon="7.0101">
        <ele>725</ele>
        <time>2013-01-05T12:41:49Z</time>
      </trkpt>
      <trkpt lat="43.75346" lon="7.00997">
        <ele>725</ele>
        <time>2013-01-05T12:41:54Z</time>
      </trkpt>
      <trkpt lat="43.75324" lon="7.01011">
        <ele>725</ele>
        <time>2013-01-05T12:42:04Z</time>
      </trkpt>
      <trkpt lat="43.75312" lon="7.01024">
        <ele>725</ele>
        <time>2013-01-05T12:42:09Z</time>
      </trkpt>
      <trkpt lat="43.75285" lon="7.01061">
        <ele>725</ele>
        <time>2013-01-05T12:42:19Z</time>
      </trkpt>
      <trkpt lat="43.75269" lon="7.0108">
        <ele>725</ele>
        <time>2013-01-05T12:42:24Z</time>
      </trkpt>
      <trkpt lat="43.75227" lon="7.01081">
        <ele>724</ele>
        <time>2013-01-05T12:42:34Z</time>
      </trkpt>
      <trkpt lat="43.75209" lon="7.01078">
        <ele>723</ele>
        <time>2013-01-05T12:42:39Z</time>
      </trkpt>
      <trkpt lat="43.75186" lon="7.01079">
        <ele>721</ele>
        <time>2013-01-05T12:42:44Z</time>
      </trkpt>
      <trkpt lat="43.75144" lon="7.01076">
        <ele>717</ele>
        <time>2013-01-05T12:42:54Z</time>
      </trkpt>
      <trkpt lat="43.75129" lon="7.01076">
        <ele>712</ele>
        <time>2013-01-05T12:42:59Z</time>
      </trkpt>
      <trkpt lat="43.75098" lon="7.01047">
        <ele>704</ele>
        <time>2013-01-05T12:43:09Z</time>
      </trkpt>
      <trkpt lat="43.75086" lon="7.0103">
        <ele>699</ele>
        <time>2013-01-05T12:43:15Z</time>
      </trkpt>
      <trkpt lat="43.75081" lon="7.01061">
        <ele>694</ele>
        <time>2013-01-05T12:43:25Z</time>
      </trkpt>
      <trkpt lat="43.75072" lon="7.01051">
        <ele>702.3</ele>
      </trkpt>
      <trkpt lat="43.75066" lon="7.01068">
        <ele>702</ele>
      </trkpt>
      <trkpt lat="43.75058" lon="7.01055">
        <ele>702</ele>
      </trkpt>
      <trkpt lat="43.75057" lon="7.01038">
        <ele>685</ele>
        <time>2013-01-05T12:43:41Z</time>
      </trkpt>
      <trkpt lat="43.75052" lon="7.01016">
        <ele>682</ele>
        <time>2013-01-05T12:43:46Z</time>
      </trkpt>
      <trkpt lat="43.75044" lon="7.0101">
        <ele>678</ele>
        <time>2013-01-05T12:43:56Z</time>
      </trkpt>
      <trkpt lat="43.75038" lon="7.00999">
        <ele>673</ele>
        <time>2013-01-05T12:44:07Z</time>
      </trkpt>
      <trkpt lat="43.7503" lon="7.00984">
        <ele>672</ele>
        <time>2013-01-05T12:44:21Z</time>
      </trkpt>
      <trkpt lat="43.75022" lon="7.00974">
        <ele>672</ele>
        <time>2013-01-05T12:44:26Z</time>
      </trkpt>
      <trkpt lat="43.75005" lon="7.00959">
        <ele>670</ele>
        <time>2013-01-05T12:44:36Z</time>
      </trkpt>
      <trkpt lat="43.74996" lon="7.00947">
        <ele>669</ele>
        <time>2013-01-05T12:44:41Z</time>
      </trkpt>
      <trkpt lat="43.74973" lon="7.00929">
        <ele>665</ele>
        <time>2013-01-05T12:44:51Z</time>
      </trkpt>
      <trkpt lat="43.74962" lon="7.00922">
        <ele>665</ele>
        <time>2013-01-05T12:44:56Z</time>
      </trkpt>
      <trkpt lat="43.74943" lon="7.00901">
        <ele>660</ele>
        <time>2013-01-05T12:45:06Z</time>
      </trkpt>
      <trkpt lat="43.74927" lon="7.00894">
        <ele>659</ele>
        <time>2013-01-05T12:45:11Z</time>
      </trkpt>
      <trkpt lat="43.74907" lon="7.00892">
        <ele>654</ele>
        <time>2013-01-05T12:45:21Z</time>
      </trkpt>
      <trkpt lat="43.74889" lon="7.00897">
        <ele>652</ele>
        <time>2013-01-05T12:45:26Z</time>
      </trkpt>
      <trkpt lat="43.74878" lon="7.00898">
        <ele>652</ele>
        <time>2013-01-05T12:45:31Z</time>
      </trkpt>
      <trkpt lat="43.74859" lon="7.00911">
        <ele>651</ele>
        <time>2013-01-05T12:45:41Z</time>
      </trkpt>
      <trkpt lat="43.74842" lon="7.00918">
        <ele>650</ele>
        <time>2013-01-05T12:45:46Z</time>
      </trkpt>
      <trkpt lat="43.74809" lon="7.00911">
        <ele>650</ele>
        <time>2013-01-05T12:45:56Z</time>
      </trkpt>
      <trkpt lat="43.74793" lon="7.00911">
        <ele>649</ele>
        <time>2013-01-05T12:46:01Z</time>
      </trkpt>
      <trkpt lat="43.74768" lon="7.00897">
        <ele>648</ele>
        <time>2013-01-05T12:46:11Z</time>
      </trkpt>
      <trkpt lat="43.74755" lon="7.00893">
        <ele>648</ele>
        <time>2013-01-05T12:46:16Z</time>
      </trkpt>
      <trkpt lat="43.74738" lon="7.00925">
        <ele>646</ele>
        <time>2013-01-05T12:46:26Z</time>
      </trkpt>
      <trkpt lat="43.74729" lon="7.00939">
        <ele>645</ele>
        <time>2013-01-05T12:46:31Z</time>
      </trkpt>
      <trkpt lat="43.74711" lon="7.0096">
        <ele>639</ele>
        <time>2013-01-05T12:46:45Z</time>
      </trkpt>
      <trkpt lat="43.74706" lon="7.00963">
        <ele>637</ele>
        <time>2013-01-05T12:46:50Z</time>
      </trkpt>
      <trkpt lat="43.74669" lon="7.00989">
        <ele>632</ele>
        <time>2013-01-05T12:47:00Z</time>
      </trkpt>
      <trkpt lat="43.74648" lon="7.00998">
        <ele>628</ele>
        <time>2013-01-05T12:47:05Z</time>
      </trkpt>
      <trkpt lat="43.74622" lon="7.00996">
        <ele>628</ele>
        <time>2013-01-05T12:47:10Z</time>
      </trkpt>
      <trkpt lat="43.74564" lon="7.00989">
        <ele>626</ele>
        <time>2013-01-05T12:47:20Z</time>
      </trkpt>
      <trkpt lat="43.74536" lon="7.00974">
        <ele>623</ele>
        <time>2013-01-05T12:47:25Z</time>
      </trkpt>
      <trkpt lat="43.74513" lon="7.00953">
        <ele>623</ele>
        <time>2013-01-05T12:47:36Z</time>
      </trkpt>
      <trkpt lat="43.74508" lon="7.00948">
        <ele>623</ele>
        <time>2013-01-05T12:47:42Z</time>
      </trkpt>
      <trkpt lat="43.74482" lon="7.00944">
        <ele>623</ele>
        <time>2013-01-05T12:47:52Z</time>
      </trkpt>
      <trkpt lat="43.74469" lon="7.00944">
        <ele>623</ele>
        <time>2013-01-05T12:47:57Z</time>
      </trkpt>
      <trkpt lat="43.74433" lon="7.00941">
        <ele>620</ele>
        <time>2013-01-05T12:48:07Z</time>
      </trkpt>
      <trkpt lat="43.74414" lon="7.00939">
        <ele>620</ele>
        <time>2013-01-05T12:48:12Z</time>
      </trkpt>
      <trkpt lat="43.74387" lon="7.00918">
        <ele>620</ele>
        <time>2013-01-05T12:48:23Z</time>
      </trkpt>
      <trkpt lat="43.74375" lon="7.0091">
        <ele>620</ele>
        <time>2013-01-05T12:48:28Z</time>
      </trkpt>
      <trkpt lat="43.74366" lon="7.00909">
        <ele>620</ele>
        <time>2013-01-05T12:48:33Z</time>
      </trkpt>
      <trkpt lat="43.74356" lon="7.00897">
        <ele>620</ele>
        <time>2013-01-05T12:48:43Z</time>
      </trkpt>
      <trkpt lat="43.74354" lon="7.00894">
        <ele>620</ele>
        <time>2013-01-05T12:48:49Z</time>
      </trkpt>
      <trkpt lat="43.74356" lon="7.00893">
        <ele>621</ele>
        <time>2013-01-05T12:49:19Z</time>
      </trkpt>
      <trkpt lat="43.74355" lon="7.00894">
        <ele>621</ele>
        <time>2013-01-05T12:50:02Z</time>
      </trkpt>
    </trkseg>
  </trk>
</gpx>